Darstellungsparameter: Aktuell verwendete Einstellungen:
Skalierung der Graphiken ... ?
xyx+y,   Skalierungsfaktor:      Skalierung: Modus: x, Faktor: 1
Darstellungszeitraum ... ?
Vom - - bis: - -   Zeitraum: 18.01.2014 - 18.07.2014
Min/Max/Avg-Anzeige ... ?
Zeige MMA aktuell
Zeige MMA Monat
Zeige MMA alles
Zeige --A aktuell
Zeige --A Monat
Zeige --A alles
Keine MMA-Anzeige
MMA:
Keine MMA-Graphiken
MMA-Basis: 18.01.2014 - 18.07.2014
Quicknavigation für Darstellung... ?
Tage:      1T, 2T, 3T, 5T -1T -2T -3T -5T +1T +2T +3T +5T
Wochen: 1W, 2W, 3W -1W -2W -3W +1W +2W +3W
Monate: 1M, 3M, 6M -1M -3M -6M +1M +3M +6M
Jahre:    1J, 3J, 5J, 10J -1J -3J -5J -10J +1J +3J +5J +10J
Nutze für die Darstellung ... ?
Originaldaten oder Mittelwerte auf ...
Stundenbasis Tagesbasis Wochenbasis
Monatsbasis Jahresbasis      Datenbasis: Original-Daten
Darstellen als:
Statistik (Auto) Statistik J:M      Darstellung:
Zur Graphik,    zurück zur Übersicht aller Sensoren.
 
Tabellarische Datenbersicht: ?
 
Sensor: Nr:Datum:Temp:Abs-Feuchte:Windchill:Wind:
Aussen-T/F 1 18-01-2014 00:00:00 4 C 6.04 g/m*3 4 C 1.6 km/h
2 18-01-2014 00:05:00 3.9 C 6 g/m*3 3.9 C 3.2 km/h
3 18-01-2014 00:10:00 3.8 C 5.9 g/m*3 3.8 C 1.6 km/h
4 18-01-2014 00:15:00 3.8 C 5.9 g/m*3 3.8 C 3.2 km/h
5 18-01-2014 00:20:00 3.8 C 5.96 g/m*3 3.8 C 3.2 km/h
6 18-01-2014 00:25:00 3.8 C 5.96 g/m*3 3.8 C 3.2 km/h
7 18-01-2014 00:30:00 3.8 C 5.96 g/m*3 3.8 C 3.2 km/h
8 18-01-2014 00:35:00 3.7 C 5.86 g/m*3 3.7 C 0 km/h
9 18-01-2014 00:40:00 3.7 C 5.92 g/m*3 3.7 C 3.2 km/h
10 18-01-2014 00:45:00 3.7 C 5.92 g/m*3 3.7 C 3.2 km/h
11 18-01-2014 00:50:00 3.6 C 5.88 g/m*3 3.6 C 1.6 km/h
12 18-01-2014 00:55:00 3.7 C 5.92 g/m*3 3.7 C 3.2 km/h
13 18-01-2014 01:00:00 3.7 C 5.92 g/m*3 3.7 C 3.2 km/h
14 18-01-2014 01:05:00 3.8 C 5.96 g/m*3 3.8 C 3.2 km/h
15 18-01-2014 01:10:00 3.7 C 5.92 g/m*3 3.7 C 3.2 km/h
16 18-01-2014 01:15:00 3.6 C 5.88 g/m*3 3.6 C 0 km/h
17 18-01-2014 01:20:00 3.6 C 5.88 g/m*3 3.6 C 0 km/h
18 18-01-2014 01:25:00 3.6 C 5.88 g/m*3 3.6 C 0 km/h
19 18-01-2014 01:30:00 3.5 C 5.84 g/m*3 3.5 C 3.2 km/h
20 18-01-2014 01:35:00 3.4 C 5.8 g/m*3 3.4 C 1.6 km/h
21 18-01-2014 01:40:00 3.4 C 5.8 g/m*3 3.4 C 1.6 km/h
22 18-01-2014 01:45:00 3.4 C 5.8 g/m*3 3.4 C 1.6 km/h
23 18-01-2014 01:50:00 3.3 C 5.76 g/m*3 3.3 C 1.6 km/h
24 18-01-2014 01:55:00 3.3 C 5.76 g/m*3 3.3 C 1.6 km/h
25 18-01-2014 02:00:00 3.3 C 5.76 g/m*3 3.3 C 1.6 km/h
Sensor: Nr:Datum:Temp:Abs-Feuchte:Windchill:Wind:
Aussen-T/F 26 18-01-2014 02:05:00 3.3 C 5.76 g/m*3 3.3 C 1.6 km/h
27 18-01-2014 02:10:00 3.2 C 5.72 g/m*3 3.2 C 0 km/h
28 18-01-2014 02:15:00 3.1 C 5.69 g/m*3 3.1 C 1.6 km/h
29 18-01-2014 02:20:00 3.1 C 5.69 g/m*3 3.1 C 1.6 km/h
30 18-01-2014 02:25:00 3 C 5.65 g/m*3 3 C 0 km/h
31 18-01-2014 02:30:00 3 C 5.65 g/m*3 3 C 0 km/h
32 18-01-2014 02:35:00 2.9 C 5.61 g/m*3 2.9 C 0 km/h
33 18-01-2014 02:40:00 2.9 C 5.61 g/m*3 2.9 C 0 km/h
34 18-01-2014 02:45:00 2.8 C 5.57 g/m*3 2.8 C 0 km/h
35 18-01-2014 02:50:00 2.8 C 5.57 g/m*3 2.8 C 0 km/h
36 18-01-2014 02:55:00 2.7 C 5.54 g/m*3 2.7 C 1.6 km/h
37 18-01-2014 03:00:00 2.7 C 5.54 g/m*3 2.7 C 0 km/h
38 18-01-2014 03:05:00 2.7 C 5.59 g/m*3 2.7 C 0 km/h
39 18-01-2014 03:10:00 2.7 C 5.59 g/m*3 2.7 C 0 km/h
40 18-01-2014 03:15:00 2.7 C 5.59 g/m*3 2.7 C 0 km/h
41 18-01-2014 03:20:00 2.8 C 5.63 g/m*3 2.8 C 0 km/h
42 18-01-2014 03:25:00 2.8 C 5.63 g/m*3 2.8 C 1.6 km/h
43 18-01-2014 03:30:00 2.9 C 5.67 g/m*3 2.9 C 0 km/h
44 18-01-2014 03:35:00 2.9 C 5.67 g/m*3 2.9 C 0 km/h
45 18-01-2014 03:40:00 2.9 C 5.67 g/m*3 2.9 C 0 km/h
46 18-01-2014 03:45:00 3 C 5.71 g/m*3 3 C 0 km/h
47 18-01-2014 03:50:00 2.9 C 5.67 g/m*3 2.9 C 0 km/h
48 18-01-2014 03:55:00 2.9 C 5.67 g/m*3 2.9 C 0 km/h
49 18-01-2014 04:00:00 2.8 C 5.63 g/m*3 2.8 C 0 km/h
50 18-01-2014 04:05:00 2.8 C 5.63 g/m*3 2.8 C 1.6 km/h
Sensor: Nr:Datum:Temp:Abs-Feuchte:Windchill:Wind:
Aussen-T/F 51 18-01-2014 04:10:00 2.8 C 5.63 g/m*3 2.8 C 0 km/h
52 18-01-2014 04:15:00 2.7 C 5.59 g/m*3 2.7 C 0 km/h
53 18-01-2014 04:20:00 2.7 C 5.59 g/m*3 2.7 C 0 km/h
54 18-01-2014 04:25:00 2.6 C 5.56 g/m*3 2.6 C 0 km/h
55 18-01-2014 04:30:00 2.7 C 5.59 g/m*3 2.7 C 3.2 km/h
56 18-01-2014 04:35:00 2.6 C 5.56 g/m*3 2.6 C 0 km/h
57 18-01-2014 04:40:00 2.5 C 5.52 g/m*3 2.5 C 0 km/h
58 18-01-2014 04:45:00 2.4 C 5.48 g/m*3 2.4 C 1.6 km/h
59 18-01-2014 04:50:00 2.4 C 5.48 g/m*3 2.4 C 0 km/h
60 18-01-2014 04:55:00 2.3 C 5.44 g/m*3 2.3 C 0 km/h
61 18-01-2014 05:00:00 2.2 C 5.35 g/m*3 2.2 C 0 km/h
62 18-01-2014 05:05:00 2.1 C 5.37 g/m*3 2.1 C 0 km/h
63 18-01-2014 05:10:00 2 C 5.33 g/m*3 2 C 0 km/h
64 18-01-2014 05:15:00 1.9 C 5.3 g/m*3 1.9 C 0 km/h
65 18-01-2014 05:20:00 1.9 C 5.3 g/m*3 1.9 C 0 km/h
66 18-01-2014 05:25:00 1.8 C 5.26 g/m*3 1.8 C 0 km/h
67 18-01-2014 05:30:00 1.8 C 5.26 g/m*3 1.8 C 1.6 km/h
68 18-01-2014 05:35:00 1.9 C 5.3 g/m*3 1.9 C 1.6 km/h
69 18-01-2014 05:40:00 1.9 C 5.3 g/m*3 1.9 C 0 km/h
70 18-01-2014 05:45:00 1.8 C 5.26 g/m*3 1.8 C 0 km/h
71 18-01-2014 05:50:00 1.8 C 5.26 g/m*3 1.8 C 1.6 km/h
72 18-01-2014 05:55:00 1.8 C 5.26 g/m*3 1.8 C 0 km/h
73 18-01-2014 06:00:00 1.8 C 5.26 g/m*3 1.8 C 1.6 km/h
74 18-01-2014 06:05:00 1.8 C 5.32 g/m*3 1.8 C 1.6 km/h
75 18-01-2014 06:10:00 1.8 C 5.32 g/m*3 1.8 C 1.6 km/h
Sensor: Nr:Datum:Temp:Abs-Feuchte:Windchill:Wind:
Aussen-T/F 76 18-01-2014 06:15:00 1.8 C 5.32 g/m*3 1.8 C 1.6 km/h
77 18-01-2014 06:20:00 1.8 C 5.32 g/m*3 1.8 C 0 km/h
78 18-01-2014 06:25:00 1.8 C 5.32 g/m*3 1.8 C 0 km/h
79 18-01-2014 06:30:00 1.8 C 5.26 g/m*3 1.8 C 0 km/h
80 18-01-2014 06:35:00 1.8 C 5.32 g/m*3 1.8 C 0 km/h
81 18-01-2014 06:40:00 1.8 C 5.32 g/m*3 1.8 C 1.6 km/h
82 18-01-2014 06:45:00 2 C 5.39 g/m*3 2 C 3.2 km/h
83 18-01-2014 06:50:00 2.4 C 5.54 g/m*3 0.05 C 8.1 km/h
84 18-01-2014 06:55:00 2.6 C 5.61 g/m*3 2.6 C 1.6 km/h
85 18-01-2014 07:00:00 2.7 C 5.65 g/m*3 2.7 C 3.2 km/h
86 18-01-2014 07:05:00 2.8 C 5.69 g/m*3 2.8 C 3.2 km/h
87 18-01-2014 07:10:00 2.8 C 5.69 g/m*3 2.8 C 1.6 km/h
88 18-01-2014 07:15:00 2.8 C 5.69 g/m*3 2.8 C 0 km/h
89 18-01-2014 07:20:00 2.7 C 5.59 g/m*3 2.7 C 0 km/h
90 18-01-2014 07:25:00 2.6 C 5.56 g/m*3 2.6 C 0 km/h
91 18-01-2014 07:30:00 2.5 C 5.52 g/m*3 2.5 C 0 km/h
92 18-01-2014 07:35:00 2.5 C 5.52 g/m*3 2.5 C 0 km/h
93 18-01-2014 07:40:00 2.6 C 5.61 g/m*3 2.6 C 1.6 km/h
94 18-01-2014 07:45:00 2.6 C 5.56 g/m*3 2.6 C 0 km/h
95 18-01-2014 07:50:00 2.7 C 5.65 g/m*3 2.7 C 3.2 km/h
96 18-01-2014 07:55:00 2.8 C 5.69 g/m*3 2.8 C 0 km/h
97 18-01-2014 08:00:00 3 C 5.77 g/m*3 3 C 4.8 km/h
98 18-01-2014 08:05:00 3.2 C 5.85 g/m*3 3.2 C 4.8 km/h
99 18-01-2014 08:10:00 3.2 C 5.85 g/m*3 0.58 C 9.7 km/h
100 18-01-2014 08:15:00 4.1 C 6.08 g/m*3 1.65 C 9.7 km/h
Sensor: Nr:Datum:Temp:Abs-Feuchte:Windchill:Wind:
Aussen-T/F 101 18-01-2014 08:20:00 4.3 C 6.1 g/m*3 1.89 C 9.7 km/h
102 18-01-2014 08:25:00 4.4 C 6.07 g/m*3 2.01 C 9.7 km/h
103 18-01-2014 08:30:00 4.6 C 6.09 g/m*3 4.6 C 4.8 km/h
104 18-01-2014 08:35:00 4.6 C 6.09 g/m*3 2.64 C 8.1 km/h
105 18-01-2014 08:40:00 4.6 C 6.09 g/m*3 3.13 C 6.4 km/h
106 18-01-2014 08:45:00 4.8 C 6.04 g/m*3 2.15 C 11.3 km/h
107 18-01-2014 08:50:00 4.8 C 6.04 g/m*3 2.15 C 11.3 km/h
108 18-01-2014 08:55:00 4.8 C 5.97 g/m*3 2.15 C 11.3 km/h
109 18-01-2014 09:00:00 4.8 C 5.97 g/m*3 4.8 C 4.8 km/h
110 18-01-2014 09:05:00 4.8 C 5.97 g/m*3 2.49 C 9.7 km/h
111 18-01-2014 09:10:00 4.8 C 5.97 g/m*3 1.58 C 14.5 km/h
112 18-01-2014 09:15:00 4.8 C 5.97 g/m*3 2.87 C 8.1 km/h
113 18-01-2014 09:20:00 4.8 C 5.97 g/m*3 2.87 C 8.1 km/h
114 18-01-2014 09:25:00 4.8 C 5.97 g/m*3 4.8 C 3.2 km/h
115 18-01-2014 09:30:00 4.7 C 5.93 g/m*3 3.25 C 6.4 km/h
116 18-01-2014 09:35:00 4.7 C 5.93 g/m*3 4.7 C 4.8 km/h
117 18-01-2014 09:40:00 4.8 C 5.97 g/m*3 4.8 C 3.2 km/h
118 18-01-2014 09:45:00 4.8 C 5.97 g/m*3 4.8 C 3.2 km/h
119 18-01-2014 09:50:00 4.8 C 5.97 g/m*3 4.8 C 3.2 km/h
120 18-01-2014 09:55:00 4.8 C 5.97 g/m*3 4.8 C 3.2 km/h
121 18-01-2014 10:00:00 4.8 C 5.97 g/m*3 2.87 C 8.1 km/h
122 18-01-2014 10:05:00 4.8 C 5.97 g/m*3 4.8 C 4.8 km/h
123 18-01-2014 10:10:00 4.9 C 6.01 g/m*3 4.9 C 4.8 km/h
124 18-01-2014 10:15:00 4.8 C 5.97 g/m*3 4.8 C 4.8 km/h
125 18-01-2014 10:20:00 4.8 C 5.97 g/m*3 4.8 C 1.6 km/h
Sensor: Nr:Datum:Temp:Abs-Feuchte:Windchill:Wind:
Aussen-T/F 126 18-01-2014 10:25:00 4.8 C 5.97 g/m*3 4.8 C 4.8 km/h
127 18-01-2014 10:30:00 4.8 C 5.97 g/m*3 4.8 C 4.8 km/h
128 18-01-2014 10:35:00 5 C 6.05 g/m*3 2.72 C 9.7 km/h
129 18-01-2014 10:40:00 5.2 C 6.13 g/m*3 5.2 C 4.8 km/h
130 18-01-2014 10:45:00 5.3 C 6.1 g/m*3 3.46 C 8.1 km/h
131 18-01-2014 10:50:00 5.3 C 6.1 g/m*3 2.75 C 11.3 km/h
132 18-01-2014 10:55:00 5.3 C 6.1 g/m*3 3.46 C 8.1 km/h
133 18-01-2014 11:00:00 5.3 C 6.1 g/m*3 3.46 C 8.1 km/h
134 18-01-2014 11:05:00 5.8 C 6.3 g/m*3 5.8 C 4.8 km/h
135 18-01-2014 11:10:00 5.8 C 6.3 g/m*3 5.8 C 4.8 km/h
136 18-01-2014 11:30:00 6.2 C 7.35 g/m*3 4.98 C 6.4 km/h
137 18-01-2014 11:35:00 6.2 C 7.35 g/m*3 4.52 C 8.1 km/h
138 18-01-2014 11:40:00 6.2 C 7.35 g/m*3 6.2 C 4.8 km/h
139 18-01-2014 12:40:00 6.9 C 6.62 g/m*3 6.9 C 0 km/h
140 18-01-2014 12:45:00 6.9 C 6.54 g/m*3 6.9 C 4.8 km/h
141 18-01-2014 12:50:00 6.9 C 6.47 g/m*3 6.9 C 1.6 km/h
142 18-01-2014 12:55:00 6.9 C 6.54 g/m*3 6.9 C 3.2 km/h
143 18-01-2014 13:00:00 6.9 C 6.54 g/m*3 6.9 C 4.8 km/h
144 18-01-2014 13:05:00 7.2 C 6.52 g/m*3 7.2 C 3.2 km/h
145 18-01-2014 13:10:00 7.3 C 6.48 g/m*3 7.3 C 1.6 km/h
146 18-01-2014 13:15:00 7.4 C 6.52 g/m*3 7.4 C 1.6 km/h
147 18-01-2014 13:20:00 7.5 C 6.64 g/m*3 7.5 C 1.6 km/h
148 18-01-2014 13:25:00 7.6 C 6.53 g/m*3 7.6 C 4.8 km/h
149 18-01-2014 13:30:00 7.7 C 6.65 g/m*3 7.7 C 3.2 km/h
150 18-01-2014 13:35:00 7.7 C 6.65 g/m*3 7.7 C 4.8 km/h
Sensor: Nr:Datum:Temp:Abs-Feuchte:Windchill:Wind:
Aussen-T/F 151 18-01-2014 13:40:00 7.8 C 6.61 g/m*3 7.8 C 4.8 km/h
152 18-01-2014 13:45:00 7.9 C 6.57 g/m*3 7.9 C 1.6 km/h
153 18-01-2014 13:50:00 7.9 C 6.65 g/m*3 7.9 C 4.8 km/h
154 18-01-2014 13:55:00 7.9 C 6.65 g/m*3 7.9 C 3.2 km/h
155 18-01-2014 14:00:00 8 C 6.7 g/m*3 8 C 3.2 km/h
156 18-01-2014 14:05:00 7.9 C 6.65 g/m*3 7.9 C 0 km/h
157 18-01-2014 14:10:00 7.9 C 6.74 g/m*3 7.9 C 3.2 km/h
158 18-01-2014 14:15:00 7.9 C 6.65 g/m*3 7.9 C 4.8 km/h
159 18-01-2014 14:20:00 7.9 C 6.57 g/m*3 7.9 C 4.8 km/h
160 18-01-2014 14:25:00 7.9 C 6.57 g/m*3 6.94 C 6.4 km/h
161 18-01-2014 14:30:00 7.9 C 6.57 g/m*3 6.94 C 6.4 km/h
162 18-01-2014 14:50:00 8.1 C 6.66 g/m*3 8.1 C 4.8 km/h
163 18-01-2014 14:55:00 8.1 C 6.66 g/m*3 7.17 C 6.4 km/h
164 18-01-2014 15:00:00 8.1 C 6.82 g/m*3 8.1 C 0 km/h
165 18-01-2014 15:05:00 7.9 C 6.82 g/m*3 7.9 C 0 km/h
166 18-01-2014 15:10:00 7.8 C 6.69 g/m*3 7.8 C 4.8 km/h
167 18-01-2014 15:15:00 7.8 C 6.69 g/m*3 7.8 C 4.8 km/h
168 18-01-2014 15:20:00 7.8 C 6.61 g/m*3 7.8 C 3.2 km/h
169 18-01-2014 15:25:00 7.8 C 6.77 g/m*3 7.8 C 0 km/h
170 18-01-2014 15:30:00 7.8 C 6.86 g/m*3 7.8 C 0 km/h
171 18-01-2014 15:35:00 7.8 C 6.69 g/m*3 7.8 C 1.6 km/h
172 18-01-2014 15:40:00 7.8 C 6.69 g/m*3 6.4 C 8.1 km/h
173 18-01-2014 15:45:00 7.8 C 6.61 g/m*3 7.8 C 1.6 km/h
174 18-01-2014 15:50:00 7.8 C 6.77 g/m*3 7.8 C 1.6 km/h
175 18-01-2014 15:55:00 7.7 C 6.65 g/m*3 7.7 C 0 km/h
Sensor: Nr:Datum:Temp:Abs-Feuchte:Windchill:Wind:
Aussen-T/F 176 18-01-2014 16:00:00 7.5 C 6.72 g/m*3 7.5 C 0 km/h
177 18-01-2014 16:05:00 7.3 C 6.72 g/m*3 7.3 C 0 km/h
178 18-01-2014 16:10:00 7.1 C 6.71 g/m*3 7.1 C 0 km/h
179 18-01-2014 16:15:00 6.9 C 6.54 g/m*3 6.9 C 4.8 km/h
180 18-01-2014 16:20:00 6.8 C 6.5 g/m*3 6.8 C 1.6 km/h
181 18-01-2014 16:25:00 6.8 C 6.5 g/m*3 6.8 C 1.6 km/h
182 18-01-2014 16:30:00 6.7 C 6.46 g/m*3 6.7 C 1.6 km/h
183 18-01-2014 16:35:00 6.7 C 6.46 g/m*3 6.7 C 3.2 km/h
184 18-01-2014 16:40:00 6.7 C 6.46 g/m*3 6.7 C 4.8 km/h
185 18-01-2014 16:45:00 6.7 C 6.38 g/m*3 6.7 C 1.6 km/h
186 18-01-2014 16:50:00 6.7 C 6.46 g/m*3 6.7 C 3.2 km/h
187 18-01-2014 16:55:00 6.6 C 6.42 g/m*3 6.6 C 1.6 km/h
188 18-01-2014 17:00:00 6.3 C 6.29 g/m*3 6.3 C 3.2 km/h
189 18-01-2014 17:05:00 6.3 C 6.29 g/m*3 6.3 C 1.6 km/h
190 18-01-2014 17:10:00 6.1 C 6.28 g/m*3 6.1 C 1.6 km/h
191 18-01-2014 17:15:00 5.8 C 6.23 g/m*3 5.8 C 3.2 km/h
192 18-01-2014 17:20:00 5.6 C 6.15 g/m*3 4.29 C 6.4 km/h
193 18-01-2014 17:25:00 5.5 C 6.18 g/m*3 5.5 C 3.2 km/h
194 18-01-2014 17:30:00 5.5 C 6.11 g/m*3 5.5 C 1.6 km/h
195 18-01-2014 17:35:00 5.6 C 6.15 g/m*3 5.6 C 3.2 km/h
196 18-01-2014 17:40:00 5.7 C 6.12 g/m*3 5.7 C 3.2 km/h
197 18-01-2014 17:45:00 5.6 C 6.08 g/m*3 5.6 C 3.2 km/h
198 18-01-2014 17:50:00 5.7 C 6.05 g/m*3 5.7 C 3.2 km/h
199 18-01-2014 17:55:00 5.8 C 6.16 g/m*3 5.8 C 3.2 km/h
200 18-01-2014 18:00:00 5.7 C 6.12 g/m*3 5.7 C 3.2 km/h
Sensor: Nr:Datum:Temp:Abs-Feuchte:Windchill:Wind:
Aussen-T/F 201 18-01-2014 18:05:00 5.6 C 6.01 g/m*3 5.6 C 3.2 km/h
202 18-01-2014 18:10:00 5.6 C 6.01 g/m*3 5.6 C 3.2 km/h
203 18-01-2014 18:15:00 5.7 C 6.05 g/m*3 5.7 C 0 km/h
204 18-01-2014 18:20:00 5.6 C 6.01 g/m*3 5.6 C 3.2 km/h
205 18-01-2014 18:25:00 5.6 C 6.08 g/m*3 5.6 C 3.2 km/h
206 18-01-2014 18:30:00 5.6 C 6.01 g/m*3 5.6 C 4.8 km/h
207 18-01-2014 18:35:00 5.8 C 6.09 g/m*3 5.8 C 3.2 km/h
208 18-01-2014 18:40:00 6 C 6.02 g/m*3 6 C 4.8 km/h
209 18-01-2014 18:45:00 6.1 C 6.06 g/m*3 6.1 C 4.8 km/h
210 18-01-2014 18:50:00 6.2 C 6.03 g/m*3 6.2 C 4.8 km/h
211 18-01-2014 18:55:00 6.2 C 6.03 g/m*3 6.2 C 3.2 km/h
212 18-01-2014 19:00:00 6.2 C 6.1 g/m*3 6.2 C 4.8 km/h
213 18-01-2014 19:05:00 6.3 C 6 g/m*3 5.1 C 6.4 km/h
214 18-01-2014 19:10:00 6.4 C 6.04 g/m*3 6.4 C 4.8 km/h
215 18-01-2014 19:15:00 6.3 C 6 g/m*3 6.3 C 4.8 km/h
216 18-01-2014 19:20:00 6.3 C 6.07 g/m*3 6.3 C 4.8 km/h
217 18-01-2014 19:25:00 6.1 C 5.99 g/m*3 6.1 C 3.2 km/h
218 18-01-2014 19:30:00 5.9 C 5.98 g/m*3 5.9 C 3.2 km/h
219 18-01-2014 19:35:00 5.7 C 6.05 g/m*3 4.4 C 6.4 km/h
220 18-01-2014 19:40:00 5.8 C 6.02 g/m*3 4.52 C 6.4 km/h
221 18-01-2014 19:45:00 5.8 C 6.09 g/m*3 4.52 C 6.4 km/h
222 18-01-2014 19:50:00 5.8 C 6.02 g/m*3 5.8 C 4.8 km/h
223 18-01-2014 19:55:00 5.9 C 6.06 g/m*3 4.63 C 6.4 km/h
224 18-01-2014 20:00:00 5.9 C 6.06 g/m*3 4.63 C 6.4 km/h
225 18-01-2014 20:05:00 5.7 C 6.05 g/m*3 4.4 C 6.4 km/h
Sensor: Nr:Datum:Temp:Abs-Feuchte:Windchill:Wind:
Aussen-T/F 226 18-01-2014 20:10:00 5.6 C 6.01 g/m*3 5.6 C 3.2 km/h
227 18-01-2014 20:15:00 5.4 C 6.07 g/m*3 5.4 C 1.6 km/h
228 18-01-2014 20:20:00 5.2 C 5.99 g/m*3 5.2 C 3.2 km/h
229 18-01-2014 20:25:00 5 C 5.98 g/m*3 5 C 3.2 km/h
230 18-01-2014 20:30:00 4.9 C 5.94 g/m*3 4.9 C 3.2 km/h
231 18-01-2014 20:35:00 4.8 C 5.9 g/m*3 4.8 C 1.6 km/h
232 18-01-2014 20:40:00 4.7 C 5.93 g/m*3 4.7 C 1.6 km/h
233 18-01-2014 20:45:00 4.6 C 5.89 g/m*3 4.6 C 3.2 km/h
234 18-01-2014 20:50:00 4.4 C 5.88 g/m*3 4.4 C 0 km/h
235 18-01-2014 20:55:00 4.3 C 5.84 g/m*3 4.3 C 1.6 km/h
236 18-01-2014 21:00:00 4.1 C 5.76 g/m*3 4.1 C 0 km/h
237 18-01-2014 21:05:00 3.8 C 5.65 g/m*3 3.8 C 3.2 km/h
238 18-01-2014 21:10:00 3.6 C 5.63 g/m*3 3.6 C 1.6 km/h
239 18-01-2014 21:15:00 3.5 C 5.6 g/m*3 3.5 C 0 km/h
240 18-01-2014 21:20:00 3.4 C 5.62 g/m*3 3.4 C 3.2 km/h
241 18-01-2014 21:25:00 3.4 C 5.62 g/m*3 3.4 C 3.2 km/h
242 18-01-2014 21:30:00 3.3 C 5.58 g/m*3 3.3 C 0 km/h
243 18-01-2014 21:35:00 3.2 C 5.54 g/m*3 3.2 C 0 km/h
244 18-01-2014 21:40:00 3.1 C 5.51 g/m*3 3.1 C 1.6 km/h
245 18-01-2014 21:45:00 3 C 5.53 g/m*3 3 C 0 km/h
246 18-01-2014 21:50:00 2.9 C 5.49 g/m*3 2.9 C 1.6 km/h
247 18-01-2014 21:55:00 2.8 C 5.46 g/m*3 2.8 C 0 km/h
248 18-01-2014 22:00:00 2.7 C 5.42 g/m*3 2.7 C 0 km/h
249 18-01-2014 22:05:00 2.7 C 5.48 g/m*3 2.7 C 0 km/h
250 18-01-2014 22:10:00 2.7 C 5.48 g/m*3 2.7 C 3.2 km/h
Sensor: Nr:Datum:Temp:Abs-Feuchte:Windchill:Wind:
Aussen-T/F 251 18-01-2014 22:15:00 2.7 C 5.48 g/m*3 2.7 C 3.2 km/h
252 18-01-2014 22:20:00 2.8 C 5.51 g/m*3 2.8 C 3.2 km/h
253 18-01-2014 22:25:00 2.8 C 5.51 g/m*3 2.8 C 3.2 km/h
254 18-01-2014 22:30:00 2.8 C 5.51 g/m*3 2.8 C 0 km/h
255 18-01-2014 22:35:00 2.9 C 5.55 g/m*3 2.9 C 0 km/h
256 18-01-2014 22:40:00 3.1 C 5.69 g/m*3 3.1 C 1.6 km/h
257 18-01-2014 22:45:00 3.1 C 5.69 g/m*3 3.1 C 0 km/h
258 18-01-2014 22:50:00 3.2 C 5.72 g/m*3 3.2 C 1.6 km/h
259 18-01-2014 22:55:00 3.3 C 5.76 g/m*3 3.3 C 1.6 km/h
260 18-01-2014 23:00:00 3.4 C 5.8 g/m*3 3.4 C 0 km/h
261 18-01-2014 23:05:00 3.5 C 5.84 g/m*3 3.5 C 1.6 km/h
262 18-01-2014 23:10:00 3.6 C 5.88 g/m*3 3.6 C 0 km/h
263 18-01-2014 23:15:00 3.6 C 5.88 g/m*3 3.6 C 0 km/h
264 18-01-2014 23:20:00 3.7 C 5.86 g/m*3 3.7 C 0 km/h
265 18-01-2014 23:25:00 3.7 C 5.86 g/m*3 3.7 C 0 km/h
266 18-01-2014 23:30:00 3.8 C 5.9 g/m*3 3.8 C 0 km/h
267 18-01-2014 23:35:00 3.8 C 5.9 g/m*3 3.8 C 0 km/h
268 18-01-2014 23:40:00 3.8 C 5.9 g/m*3 3.8 C 0 km/h
269 18-01-2014 23:45:00 3.8 C 5.9 g/m*3 3.8 C 0 km/h
270 18-01-2014 23:50:00 3.9 C 5.94 g/m*3 3.9 C 0 km/h
271 18-01-2014 23:55:00 3.9 C 5.94 g/m*3 3.9 C 0 km/h
272 19-01-2014 00:00:00 4 C 5.98 g/m*3 4 C 0 km/h
273 19-01-2014 00:05:00 4.1 C 6.02 g/m*3 4.1 C 0 km/h
274 19-01-2014 00:10:00 4.1 C 6.02 g/m*3 4.1 C 0 km/h
275 19-01-2014 00:15:00 4.1 C 6.02 g/m*3 4.1 C 0 km/h
Sensor: Nr:Datum:Temp:Abs-Feuchte:Windchill:Wind:
Aussen-T/F 276 19-01-2014 00:20:00 4.2 C 6.06 g/m*3 4.2 C 0 km/h
277 19-01-2014 00:25:00 4.2 C 6.06 g/m*3 4.2 C 0 km/h
278 19-01-2014 00:30:00 4.2 C 6.06 g/m*3 4.2 C 0 km/h
279 19-01-2014 00:35:00 4.2 C 6.06 g/m*3 4.2 C 0 km/h
280 19-01-2014 00:40:00 4.2 C 6.06 g/m*3 4.2 C 0 km/h
281 19-01-2014 00:45:00 4.3 C 6.1 g/m*3 4.3 C 0 km/h
282 19-01-2014 00:50:00 4.3 C 6.1 g/m*3 4.3 C 0 km/h
283 19-01-2014 00:55:00 4.3 C 6.1 g/m*3 4.3 C 3.2 km/h
284 19-01-2014 01:00:00 4.4 C 6.14 g/m*3 4.4 C 0 km/h
285 19-01-2014 01:05:00 4.4 C 6.14 g/m*3 4.4 C 0 km/h
286 19-01-2014 01:10:00 4.4 C 6.14 g/m*3 4.4 C 0 km/h
287 19-01-2014 01:15:00 4.4 C 6.14 g/m*3 4.4 C 0 km/h
288 19-01-2014 01:20:00 4.4 C 6.14 g/m*3 4.4 C 0 km/h
289 19-01-2014 01:25:00 4.4 C 6.07 g/m*3 4.4 C 0 km/h
290 19-01-2014 01:30:00 4.4 C 6.14 g/m*3 4.4 C 0 km/h
291 19-01-2014 01:35:00 4.4 C 6.14 g/m*3 4.4 C 0 km/h
292 19-01-2014 01:40:00 4.4 C 6.14 g/m*3 4.4 C 0 km/h
293 19-01-2014 01:45:00 4.4 C 6.14 g/m*3 4.4 C 0 km/h
294 19-01-2014 01:50:00 4.5 C 6.18 g/m*3 4.5 C 0 km/h
295 19-01-2014 01:55:00 4.5 C 6.11 g/m*3 4.5 C 0 km/h
296 19-01-2014 02:00:00 4.6 C 6.22 g/m*3 4.6 C 0 km/h
297 19-01-2014 02:05:00 4.6 C 6.15 g/m*3 4.6 C 0 km/h
298 19-01-2014 02:10:00 4.6 C 6.15 g/m*3 4.6 C 0 km/h
299 19-01-2014 02:15:00 4.6 C 6.15 g/m*3 4.6 C 0 km/h
300 19-01-2014 02:20:00 4.6 C 6.09 g/m*3 4.6 C 1.6 km/h
Sensor: Nr:Datum:Temp:Abs-Feuchte:Windchill:Wind:
Aussen-T/F 301 19-01-2014 02:25:00 4.7 C 6.13 g/m*3 4.7 C 0 km/h
302 19-01-2014 02:30:00 4.7 C 6.13 g/m*3 4.7 C 1.6 km/h
303 19-01-2014 02:35:00 4.7 C 6.13 g/m*3 4.7 C 0 km/h
304 19-01-2014 02:40:00 4.7 C 6.13 g/m*3 4.7 C 0 km/h
305 19-01-2014 02:45:00 4.7 C 6.13 g/m*3 4.7 C 3.2 km/h
306 19-01-2014 02:50:00 4.7 C 6.06 g/m*3 4.7 C 3.2 km/h
307 19-01-2014 02:55:00 4.7 C 6.06 g/m*3 4.7 C 4.8 km/h
308 19-01-2014 03:00:00 4.6 C 6.02 g/m*3 4.6 C 1.6 km/h
309 19-01-2014 03:05:00 4.6 C 6.02 g/m*3 4.6 C 0 km/h
310 19-01-2014 03:10:00 4.6 C 6.02 g/m*3 3.13 C 6.4 km/h
311 19-01-2014 03:15:00 4.6 C 6.02 g/m*3 4.6 C 1.6 km/h
312 19-01-2014 03:20:00 4.6 C 6.02 g/m*3 4.6 C 0 km/h
313 19-01-2014 03:25:00 4.5 C 5.98 g/m*3 4.5 C 3.2 km/h
314 19-01-2014 03:30:00 4.5 C 5.98 g/m*3 4.5 C 3.2 km/h
315 19-01-2014 03:35:00 4.4 C 5.94 g/m*3 4.4 C 1.6 km/h
316 19-01-2014 03:40:00 4.4 C 6.01 g/m*3 4.4 C 1.6 km/h
317 19-01-2014 03:45:00 4.3 C 5.97 g/m*3 4.3 C 1.6 km/h
318 19-01-2014 03:50:00 4.3 C 5.97 g/m*3 4.3 C 0 km/h
319 19-01-2014 03:55:00 4.2 C 5.93 g/m*3 4.2 C 1.6 km/h
320 19-01-2014 04:00:00 4.2 C 5.93 g/m*3 4.2 C 0 km/h
321 19-01-2014 04:05:00 4.2 C 5.93 g/m*3 4.2 C 0 km/h
322 19-01-2014 04:10:00 4.2 C 5.93 g/m*3 4.2 C 1.6 km/h
323 19-01-2014 04:15:00 4.2 C 5.93 g/m*3 4.2 C 0 km/h
324 19-01-2014 04:20:00 4.2 C 5.93 g/m*3 4.2 C 0 km/h
325 19-01-2014 04:25:00 4.2 C 5.93 g/m*3 4.2 C 0 km/h
Sensor: Nr:Datum:Temp:Abs-Feuchte:Windchill:Wind:
Aussen-T/F 326 19-01-2014 04:30:00 4.2 C 5.93 g/m*3 4.2 C 0 km/h
327 19-01-2014 04:35:00 4.2 C 5.93 g/m*3 4.2 C 0 km/h
328 19-01-2014 04:40:00 4.2 C 5.93 g/m*3 4.2 C 0 km/h
329 19-01-2014 04:45:00 4.2 C 5.93 g/m*3 4.2 C 0 km/h
330 19-01-2014 04:50:00 4.2 C 5.99 g/m*3 4.2 C 0 km/h
331 19-01-2014 04:55:00 4.2 C 5.99 g/m*3 4.2 C 0 km/h
332 19-01-2014 05:00:00 4.2 C 5.99 g/m*3 4.2 C 0 km/h
333 19-01-2014 05:05:00 4.1 C 5.95 g/m*3 4.1 C 0 km/h
334 19-01-2014 05:10:00 4.2 C 5.99 g/m*3 4.2 C 0 km/h
335 19-01-2014 05:15:00 4.1 C 5.95 g/m*3 4.1 C 0 km/h
336 19-01-2014 05:20:00 4.1 C 5.95 g/m*3 4.1 C 0 km/h
337 19-01-2014 05:25:00 4.1 C 5.95 g/m*3 4.1 C 0 km/h
338 19-01-2014 05:30:00 4.2 C 5.99 g/m*3 4.2 C 0 km/h
339 19-01-2014 05:35:00 4.2 C 5.99 g/m*3 4.2 C 0 km/h
340 19-01-2014 05:40:00 4.2 C 5.99 g/m*3 4.2 C 0 km/h
341 19-01-2014 05:45:00 4.2 C 5.99 g/m*3 4.2 C 0 km/h
342 19-01-2014 05:50:00 4.1 C 5.95 g/m*3 4.1 C 0 km/h
343 19-01-2014 05:55:00 4.1 C 5.95 g/m*3 4.1 C 0 km/h
344 19-01-2014 06:00:00 4.1 C 5.95 g/m*3 4.1 C 3.2 km/h
345 19-01-2014 06:05:00 4.1 C 5.95 g/m*3 4.1 C 1.6 km/h
346 19-01-2014 06:10:00 4.1 C 5.95 g/m*3 4.1 C 0 km/h
347 19-01-2014 06:15:00 4.1 C 5.95 g/m*3 4.1 C 0 km/h
348 19-01-2014 06:20:00 4.1 C 5.95 g/m*3 4.1 C 0 km/h
349 19-01-2014 06:25:00 4.1 C 5.95 g/m*3 4.1 C 0 km/h
350 19-01-2014 06:30:00 4.1 C 5.95 g/m*3 4.1 C 0 km/h
Sensor: Nr:Datum:Temp:Abs-Feuchte:Windchill:Wind:
Aussen-T/F 351 19-01-2014 06:35:00 4.1 C 5.95 g/m*3 4.1 C 0 km/h
352 19-01-2014 06:40:00 4.2 C 5.99 g/m*3 4.2 C 0 km/h
353 19-01-2014 06:45:00 4.2 C 5.99 g/m*3 4.2 C 0 km/h
354 19-01-2014 06:50:00 4.1 C 5.95 g/m*3 4.1 C 0 km/h
355 19-01-2014 06:55:00 4.2 C 5.99 g/m*3 4.2 C 0 km/h
356 19-01-2014 07:00:00 4.1 C 5.95 g/m*3 4.1 C 0 km/h
357 19-01-2014 07:05:00 4.1 C 5.95 g/m*3 4.1 C 0 km/h
358 19-01-2014 07:10:00 4.1 C 5.95 g/m*3 4.1 C 1.6 km/h
359 19-01-2014 07:15:00 4.1 C 5.89 g/m*3 4.1 C 0 km/h
360 19-01-2014 07:20:00 4.1 C 5.95 g/m*3 4.1 C 0 km/h
361 19-01-2014 07:25:00 4.1 C 5.95 g/m*3 4.1 C 0 km/h
362 19-01-2014 07:30:00 4 C 5.91 g/m*3 4 C 0 km/h
363 19-01-2014 07:35:00 3.9 C 5.87 g/m*3 3.9 C 0 km/h
364 19-01-2014 07:40:00 3.9 C 5.87 g/m*3 3.9 C 0 km/h
365 19-01-2014 07:45:00 3.9 C 5.87 g/m*3 3.9 C 0 km/h
366 19-01-2014 07:50:00 3.8 C 5.83 g/m*3 3.8 C 0 km/h
367 19-01-2014 07:55:00 3.8 C 5.83 g/m*3 3.8 C 0 km/h
368 19-01-2014 08:00:00 3.8 C 5.83 g/m*3 3.8 C 0 km/h
369 19-01-2014 08:05:00 3.8 C 5.83 g/m*3 3.8 C 0 km/h
370 19-01-2014 08:10:00 3.7 C 5.8 g/m*3 3.7 C 0 km/h
371 19-01-2014 08:15:00 3.7 C 5.8 g/m*3 3.7 C 0 km/h
372 19-01-2014 08:20:00 3.7 C 5.8 g/m*3 3.7 C 0 km/h
373 19-01-2014 08:25:00 3.6 C 5.76 g/m*3 3.6 C 0 km/h
374 19-01-2014 08:30:00 3.6 C 5.82 g/m*3 3.6 C 0 km/h
375 19-01-2014 08:35:00 3.6 C 5.82 g/m*3 3.6 C 0 km/h
Sensor: Nr:Datum:Temp:Abs-Feuchte:Windchill:Wind:
Aussen-T/F 376 19-01-2014 08:40:00 3.6 C 5.82 g/m*3 3.6 C 0 km/h
377 19-01-2014 08:45:00 3.7 C 5.86 g/m*3 3.7 C 0 km/h
378 19-01-2014 08:50:00 3.7 C 5.86 g/m*3 3.7 C 0 km/h
379 19-01-2014 08:55:00 3.7 C 5.86 g/m*3 3.7 C 0 km/h
380 19-01-2014 09:00:00 3.7 C 5.86 g/m*3 3.7 C 0 km/h
381 19-01-2014 09:05:00 3.8 C 5.9 g/m*3 3.8 C 0 km/h
382 19-01-2014 09:10:00 3.8 C 5.96 g/m*3 3.8 C 0 km/h
383 19-01-2014 09:15:00 3.9 C 5.94 g/m*3 3.9 C 0 km/h
384 19-01-2014 09:20:00 4 C 5.98 g/m*3 4 C 0 km/h
385 19-01-2014 09:25:00 4.1 C 6.02 g/m*3 4.1 C 0 km/h
386 19-01-2014 09:30:00 4.1 C 6.02 g/m*3 4.1 C 0 km/h
387 19-01-2014 09:35:00 4.2 C 6.06 g/m*3 4.2 C 0 km/h
388 19-01-2014 09:40:00 4.2 C 6.06 g/m*3 4.2 C 0 km/h
389 19-01-2014 09:45:00 4.2 C 6.06 g/m*3 4.2 C 0 km/h
390 19-01-2014 09:50:00 4.4 C 6.07 g/m*3 4.4 C 3.2 km/h
391 19-01-2014 09:55:00 4.4 C 6.07 g/m*3 4.4 C 3.2 km/h
392 19-01-2014 10:00:00 4.6 C 6.09 g/m*3 4.6 C 4.8 km/h
393 19-01-2014 10:05:00 4.7 C 6.13 g/m*3 4.7 C 4.8 km/h
394 19-01-2014 10:10:00 4.8 C 6.17 g/m*3 4.8 C 4.8 km/h
395 19-01-2014 10:15:00 4.9 C 6.14 g/m*3 4.9 C 4.8 km/h
396 19-01-2014 10:20:00 4.9 C 6.14 g/m*3 4.9 C 4.8 km/h
397 19-01-2014 10:25:00 5.1 C 6.22 g/m*3 3.71 C 6.4 km/h
398 19-01-2014 10:30:00 5.1 C 6.22 g/m*3 3.23 C 8.1 km/h
399 19-01-2014 10:35:00 5.2 C 6.2 g/m*3 3.34 C 8.1 km/h
400 19-01-2014 10:40:00 5.2 C 6.2 g/m*3 3.34 C 8.1 km/h
Sensor: Nr:Datum:Temp:Abs-Feuchte:Windchill:Wind:
Aussen-T/F 401 19-01-2014 10:45:00 5.2 C 6.2 g/m*3 3.82 C 6.4 km/h
402 19-01-2014 10:50:00 5.3 C 6.24 g/m*3 3.94 C 6.4 km/h
403 19-01-2014 10:55:00 5.3 C 6.24 g/m*3 3.08 C 9.7 km/h
404 19-01-2014 11:00:00 5.4 C 6.28 g/m*3 4.06 C 6.4 km/h
405 19-01-2014 11:05:00 5.4 C 6.28 g/m*3 3.58 C 8.1 km/h
406 19-01-2014 11:10:00 5.4 C 6.21 g/m*3 5.4 C 4.8 km/h
407 19-01-2014 11:15:00 5.5 C 6.25 g/m*3 4.17 C 6.4 km/h
408 19-01-2014 11:20:00 5.6 C 6.29 g/m*3 3.81 C 8.1 km/h
409 19-01-2014 11:25:00 5.6 C 6.29 g/m*3 5.6 C 3.2 km/h
410 19-01-2014 11:30:00 5.6 C 6.29 g/m*3 5.6 C 4.8 km/h
411 19-01-2014 11:35:00 5.7 C 6.33 g/m*3 5.7 C 4.8 km/h
412 19-01-2014 11:40:00 5.7 C 6.33 g/m*3 3.93 C 8.1 km/h
413 19-01-2014 11:45:00 5.8 C 6.38 g/m*3 4.05 C 8.1 km/h
414 19-01-2014 11:50:00 5.9 C 6.42 g/m*3 5.9 C 4.8 km/h
415 19-01-2014 11:55:00 5.9 C 6.35 g/m*3 4.63 C 6.4 km/h
416 19-01-2014 12:00:00 6 C 6.39 g/m*3 6 C 4.8 km/h
417 19-01-2014 12:05:00 6.1 C 6.43 g/m*3 4.86 C 6.4 km/h
418 19-01-2014 12:10:00 6.1 C 6.36 g/m*3 6.1 C 4.8 km/h
419 19-01-2014 12:15:00 6.1 C 6.36 g/m*3 6.1 C 4.8 km/h
420 19-01-2014 12:20:00 6.1 C 6.36 g/m*3 4.86 C 6.4 km/h
421 19-01-2014 12:25:00 6.2 C 6.4 g/m*3 6.2 C 0 km/h
422 19-01-2014 12:30:00 6.2 C 6.4 g/m*3 6.2 C 3.2 km/h
423 19-01-2014 12:35:00 6.2 C 6.4 g/m*3 6.2 C 3.2 km/h
424 19-01-2014 12:40:00 6.3 C 6.44 g/m*3 6.3 C 0 km/h
425 19-01-2014 12:45:00 6.3 C 6.37 g/m*3 6.3 C 3.2 km/h
Sensor: Nr:Datum:Temp:Abs-Feuchte:Windchill:Wind:
Aussen-T/F 426 19-01-2014 12:50:00 6.4 C 6.48 g/m*3 6.4 C 3.2 km/h
427 19-01-2014 12:55:00 6.4 C 6.48 g/m*3 6.4 C 1.6 km/h
428 19-01-2014 13:00:00 6.6 C 6.49 g/m*3 6.6 C 1.6 km/h
429 19-01-2014 13:05:00 6.7 C 6.69 g/m*3 6.7 C 0 km/h
430 19-01-2014 13:10:00 6.7 C 6.53 g/m*3 6.7 C 0 km/h
431 19-01-2014 13:15:00 6.8 C 6.65 g/m*3 6.8 C 0 km/h
432 19-01-2014 13:20:00 6.8 C 6.58 g/m*3 6.8 C 0 km/h
433 19-01-2014 13:25:00 6.8 C 6.58 g/m*3 6.8 C 0 km/h
434 19-01-2014 13:30:00 6.8 C 6.5 g/m*3 6.8 C 0 km/h
435 19-01-2014 13:35:00 6.8 C 6.65 g/m*3 6.8 C 0 km/h
436 19-01-2014 13:40:00 6.8 C 6.58 g/m*3 6.8 C 1.6 km/h
437 19-01-2014 13:45:00 6.8 C 6.58 g/m*3 6.8 C 3.2 km/h
438 19-01-2014 13:50:00 6.8 C 6.58 g/m*3 6.8 C 0 km/h
439 19-01-2014 13:55:00 6.9 C 6.62 g/m*3 6.9 C 4.8 km/h
440 19-01-2014 14:00:00 6.9 C 6.62 g/m*3 6.9 C 3.2 km/h
441 19-01-2014 14:05:00 6.8 C 6.58 g/m*3 6.8 C 4.8 km/h
442 19-01-2014 14:10:00 6.9 C 6.62 g/m*3 5.79 C 6.4 km/h
443 19-01-2014 14:15:00 6.9 C 6.62 g/m*3 5.79 C 6.4 km/h
444 19-01-2014 14:20:00 7 C 6.59 g/m*3 7 C 4.8 km/h
445 19-01-2014 14:25:00 7.1 C 6.63 g/m*3 6.02 C 6.4 km/h
446 19-01-2014 14:30:00 7.2 C 6.67 g/m*3 5.35 C 9.7 km/h
447 19-01-2014 14:35:00 7.2 C 6.67 g/m*3 5.35 C 9.7 km/h
448 19-01-2014 14:40:00 7.2 C 6.59 g/m*3 5.69 C 8.1 km/h
449 19-01-2014 14:45:00 7.3 C 6.72 g/m*3 6.25 C 6.4 km/h
450 19-01-2014 14:50:00 7.3 C 6.72 g/m*3 5.81 C 8.1 km/h
Sensor: Nr:Datum:Temp:Abs-Feuchte:Windchill:Wind:
Aussen-T/F 451 19-01-2014 14:55:00 7.4 C 6.76 g/m*3 6.37 C 6.4 km/h
452 19-01-2014 15:00:00 7.4 C 6.68 g/m*3 6.37 C 6.4 km/h
453 19-01-2014 15:05:00 7.4 C 6.68 g/m*3 7.4 C 4.8 km/h
454 19-01-2014 15:10:00 7.3 C 6.64 g/m*3 7.3 C 3.2 km/h
455 19-01-2014 15:15:00 7.3 C 6.64 g/m*3 7.3 C 1.6 km/h
456 19-01-2014 15:20:00 7.3 C 6.72 g/m*3 6.25 C 6.4 km/h
457 19-01-2014 15:25:00 7.3 C 6.64 g/m*3 5.81 C 8.1 km/h
458 19-01-2014 15:30:00 7.3 C 6.64 g/m*3 7.3 C 3.2 km/h
459 19-01-2014 15:35:00 7.2 C 6.59 g/m*3 7.2 C 4.8 km/h
460 19-01-2014 15:40:00 7.1 C 6.63 g/m*3 6.02 C 6.4 km/h
461 19-01-2014 15:45:00 7.1 C 6.63 g/m*3 7.1 C 4.8 km/h
462 19-01-2014 15:50:00 7.1 C 6.63 g/m*3 7.1 C 0 km/h
463 19-01-2014 15:55:00 7.1 C 6.63 g/m*3 7.1 C 3.2 km/h
464 19-01-2014 16:00:00 7.1 C 6.63 g/m*3 7.1 C 0 km/h
465 19-01-2014 16:40:00 5.4 C 6.98 g/m*3 5.4 C 1.6 km/h
466 19-01-2014 16:45:00 5.4 C 6.98 g/m*3 5.4 C 0 km/h
467 19-01-2014 16:50:00 5.4 C 6.98 g/m*3 5.4 C 0 km/h
468 19-01-2014 16:55:00 5.4 C 6.98 g/m*3 5.4 C 0 km/h
469 19-01-2014 17:00:00 4.8 C 6.17 g/m*3 4.8 C 1.6 km/h
470 19-01-2014 17:05:00 4.6 C 6.09 g/m*3 4.6 C 0 km/h
471 19-01-2014 17:10:00 4.5 C 6.05 g/m*3 4.5 C 3.2 km/h
472 19-01-2014 17:15:00 4.3 C 5.97 g/m*3 4.3 C 0 km/h
473 19-01-2014 17:20:00 4.2 C 5.99 g/m*3 4.2 C 3.2 km/h
474 19-01-2014 17:25:00 4.1 C 5.95 g/m*3 4.1 C 1.6 km/h
475 19-01-2014 17:30:00 4.1 C 5.95 g/m*3 4.1 C 0 km/h
Sensor: Nr:Datum:Temp:Abs-Feuchte:Windchill:Wind:
Aussen-T/F 476 19-01-2014 17:35:00 4 C 5.91 g/m*3 4 C 0 km/h
477 19-01-2014 17:40:00 4 C 5.98 g/m*3 4 C 0 km/h
478 19-01-2014 17:45:00 4 C 5.98 g/m*3 4 C 0 km/h
479 19-01-2014 17:50:00 4 C 5.98 g/m*3 4 C 0 km/h
480 19-01-2014 17:55:00 3.9 C 5.94 g/m*3 3.9 C 0 km/h
481 19-01-2014 18:00:00 3.9 C 5.94 g/m*3 3.9 C 0 km/h
482 19-01-2014 18:05:00 3.9 C 5.94 g/m*3 3.9 C 0 km/h
483 19-01-2014 18:10:00 3.9 C 5.94 g/m*3 3.9 C 0 km/h
484 19-01-2014 18:15:00 3.8 C 5.9 g/m*3 3.8 C 0 km/h
485 19-01-2014 18:20:00 3.8 C 5.96 g/m*3 3.8 C 0 km/h
486 19-01-2014 18:25:00 3.8 C 5.96 g/m*3 3.8 C 1.6 km/h
487 19-01-2014 18:30:00 3.8 C 5.9 g/m*3 3.8 C 0 km/h
488 19-01-2014 18:35:00 3.8 C 5.9 g/m*3 3.8 C 0 km/h
489 19-01-2014 18:40:00 3.8 C 5.96 g/m*3 3.8 C 0 km/h
490 19-01-2014 18:45:00 3.8 C 5.96 g/m*3 3.8 C 0 km/h
491 19-01-2014 18:50:00 3.8 C 5.96 g/m*3 3.8 C 0 km/h
492 19-01-2014 18:55:00 3.7 C 5.86 g/m*3 3.7 C 0 km/h
493 19-01-2014 19:00:00 3.7 C 5.92 g/m*3 3.7 C 0 km/h
494 19-01-2014 19:05:00 3.7 C 5.92 g/m*3 3.7 C 0 km/h
495 19-01-2014 19:10:00 3.7 C 5.92 g/m*3 3.7 C 0 km/h
496 19-01-2014 19:15:00 3.6 C 5.88 g/m*3 3.6 C 0 km/h
497 19-01-2014 19:20:00 3.6 C 5.88 g/m*3 3.6 C 0 km/h
498 19-01-2014 19:25:00 3.6 C 5.88 g/m*3 3.6 C 0 km/h
499 19-01-2014 19:30:00 3.7 C 5.92 g/m*3 3.7 C 0 km/h
500 19-01-2014 19:35:00 3.7 C 5.92 g/m*3 3.7 C 1.6 km/h
Sensor: Nr:Datum:Temp:Abs-Feuchte:Windchill:Wind:
Aussen-T/F 501 19-01-2014 19:40:00 3.8 C 5.96 g/m*3 3.8 C 0 km/h
502 19-01-2014 19:45:00 3.7 C 5.92 g/m*3 3.7 C 0 km/h
503 19-01-2014 19:50:00 3.7 C 5.92 g/m*3 3.7 C 0 km/h
504 19-01-2014 19:55:00 3.7 C 5.92 g/m*3 3.7 C 0 km/h
505 19-01-2014 20:00:00 3.6 C 5.88 g/m*3 3.6 C 0 km/h
506 19-01-2014 20:05:00 3.5 C 5.84 g/m*3 3.5 C 0 km/h
507 19-01-2014 20:10:00 3.4 C 5.8 g/m*3 3.4 C 0 km/h
508 19-01-2014 20:15:00 3.4 C 5.8 g/m*3 3.4 C 1.6 km/h
509 19-01-2014 20:20:00 3.3 C 5.76 g/m*3 3.3 C 1.6 km/h
510 19-01-2014 20:25:00 3.3 C 5.76 g/m*3 3.3 C 4.8 km/h
511 19-01-2014 20:30:00 3.5 C 5.84 g/m*3 3.5 C 4.8 km/h
512 19-01-2014 20:35:00 3.5 C 5.84 g/m*3 3.5 C 0 km/h
513 19-01-2014 20:40:00 3.4 C 5.8 g/m*3 3.4 C 0 km/h
514 19-01-2014 20:45:00 3.4 C 5.8 g/m*3 3.4 C 0 km/h
515 19-01-2014 20:50:00 3.4 C 5.8 g/m*3 3.4 C 0 km/h
516 19-01-2014 20:55:00 3.3 C 5.76 g/m*3 3.3 C 0 km/h
517 19-01-2014 21:00:00 3.3 C 5.76 g/m*3 3.3 C 0 km/h
518 19-01-2014 21:05:00 3.4 C 5.8 g/m*3 3.4 C 0 km/h
519 19-01-2014 21:10:00 3.4 C 5.8 g/m*3 3.4 C 0 km/h
520 19-01-2014 21:15:00 3.4 C 5.8 g/m*3 3.4 C 0 km/h
521 19-01-2014 21:20:00 3.4 C 5.8 g/m*3 3.4 C 0 km/h
522 19-01-2014 21:25:00 3.4 C 5.8 g/m*3 3.4 C 0 km/h
523 19-01-2014 21:30:00 3.3 C 5.76 g/m*3 3.3 C 0 km/h
524 19-01-2014 21:35:00 3.3 C 5.76 g/m*3 3.3 C 0 km/h
525 19-01-2014 21:40:00 3.4 C 5.8 g/m*3 3.4 C 0 km/h
Sensor: Nr:Datum:Temp:Abs-Feuchte:Windchill:Wind:
Aussen-T/F 526 19-01-2014 21:45:00 3.4 C 5.8 g/m*3 3.4 C 0 km/h
527 19-01-2014 21:50:00 3.4 C 5.8 g/m*3 3.4 C 0 km/h
528 19-01-2014 21:55:00 3.5 C 5.84 g/m*3 3.5 C 0 km/h
529 19-01-2014 22:00:00 3.6 C 5.88 g/m*3 3.6 C 0 km/h
530 19-01-2014 22:05:00 3.6 C 5.88 g/m*3 3.6 C 0 km/h
531 19-01-2014 22:10:00 3.6 C 5.88 g/m*3 3.6 C 0 km/h
532 19-01-2014 22:15:00 3.7 C 5.92 g/m*3 3.7 C 0 km/h
533 19-01-2014 22:20:00 3.7 C 5.92 g/m*3 3.7 C 0 km/h
534 19-01-2014 22:25:00 3.6 C 5.88 g/m*3 3.6 C 0 km/h
535 19-01-2014 22:30:00 3.6 C 5.88 g/m*3 3.6 C 0 km/h
536 19-01-2014 22:35:00 3.6 C 5.88 g/m*3 3.6 C 0 km/h
537 19-01-2014 22:40:00 3.6 C 5.88 g/m*3 3.6 C 0 km/h
538 19-01-2014 22:45:00 3.6 C 5.88 g/m*3 3.6 C 0 km/h
539 19-01-2014 22:50:00 3.5 C 5.84 g/m*3 3.5 C 0 km/h
540 19-01-2014 22:55:00 3.6 C 5.88 g/m*3 3.6 C 0 km/h
541 19-01-2014 23:00:00 3.6 C 5.88 g/m*3 3.6 C 0 km/h
542 19-01-2014 23:05:00 3.7 C 5.92 g/m*3 3.7 C 0 km/h
543 19-01-2014 23:10:00 3.7 C 5.92 g/m*3 3.7 C 0 km/h
544 19-01-2014 23:15:00 3.7 C 5.92 g/m*3 3.7 C 0 km/h
545 19-01-2014 23:20:00 3.8 C 5.96 g/m*3 3.8 C 0 km/h
546 19-01-2014 23:25:00 3.8 C 5.96 g/m*3 3.8 C 0 km/h
547 19-01-2014 23:30:00 3.8 C 5.96 g/m*3 3.8 C 0 km/h
548 19-01-2014 23:35:00 3.8 C 5.96 g/m*3 3.8 C 0 km/h
549 19-01-2014 23:40:00 3.9 C 6 g/m*3 3.9 C 0 km/h
550 19-01-2014 23:45:00 3.9 C 6 g/m*3 3.9 C 0 km/h
Sensor: Nr:Datum:Temp:Abs-Feuchte:Windchill:Wind:
Aussen-T/F 551 19-01-2014 23:50:00 3.9 C 6 g/m*3 3.9 C 0 km/h
552 19-01-2014 23:55:00 3.9 C 6 g/m*3 3.9 C 0 km/h
553 20-01-2014 00:00:00 3.9 C 6 g/m*3 3.9 C 0 km/h
554 20-01-2014 00:05:00 3.9 C 6 g/m*3 3.9 C 0 km/h
555 20-01-2014 00:10:00 4 C 6.04 g/m*3 4 C 0 km/h
556 20-01-2014 00:15:00 4 C 6.04 g/m*3 4 C 0 km/h
557 20-01-2014 00:20:00 4.1 C 6.08 g/m*3 4.1 C 0 km/h
558 20-01-2014 00:25:00 4.1 C 6.08 g/m*3 4.1 C 0 km/h
559 20-01-2014 00:30:00 4.1 C 6.08 g/m*3 4.1 C 0 km/h
560 20-01-2014 00:35:00 4.1 C 6.08 g/m*3 4.1 C 0 km/h
561 20-01-2014 00:40:00 4.1 C 6.08 g/m*3 4.1 C 0 km/h
562 20-01-2014 00:45:00 4.2 C 6.12 g/m*3 4.2 C 0 km/h
563 20-01-2014 00:50:00 4.1 C 6.08 g/m*3 4.1 C 0 km/h
564 20-01-2014 00:55:00 4.2 C 6.12 g/m*3 4.2 C 0 km/h
565 20-01-2014 01:00:00 4.2 C 6.12 g/m*3 4.2 C 0 km/h
566 20-01-2014 01:05:00 4.2 C 6.12 g/m*3 4.2 C 0 km/h
567 20-01-2014 01:10:00 4.2 C 6.12 g/m*3 4.2 C 0 km/h
568 20-01-2014 01:15:00 4.2 C 6.12 g/m*3 4.2 C 0 km/h
569 20-01-2014 01:20:00 4.2 C 6.12 g/m*3 4.2 C 0 km/h
570 20-01-2014 01:25:00 4.2 C 6.12 g/m*3 4.2 C 0 km/h
571 20-01-2014 01:30:00 4.2 C 6.12 g/m*3 4.2 C 0 km/h
572 20-01-2014 01:35:00 4.2 C 6.12 g/m*3 4.2 C 0 km/h
573 20-01-2014 01:40:00 4.2 C 6.12 g/m*3 4.2 C 0 km/h
574 20-01-2014 01:45:00 4.2 C 6.06 g/m*3 4.2 C 1.6 km/h
575 20-01-2014 01:50:00 4.2 C 6.12 g/m*3 4.2 C 1.6 km/h
Sensor: Nr:Datum:Temp:Abs-Feuchte:Windchill:Wind:
Aussen-T/F 576 20-01-2014 01:55:00 4.2 C 6.12 g/m*3 4.2 C 0 km/h
577 20-01-2014 02:00:00 4.2 C 6.06 g/m*3 4.2 C 0 km/h
578 20-01-2014 02:05:00 4.2 C 6.06 g/m*3 4.2 C 0 km/h
579 20-01-2014 02:10:00 4.2 C 6.06 g/m*3 4.2 C 0 km/h
580 20-01-2014 02:15:00 4.2 C 6.06 g/m*3 4.2 C 0 km/h
581 20-01-2014 02:20:00 4.2 C 6.06 g/m*3 4.2 C 0 km/h
582 20-01-2014 02:25:00 4.2 C 6.06 g/m*3 4.2 C 0 km/h
583 20-01-2014 02:30:00 4.2 C 6.06 g/m*3 4.2 C 1.6 km/h
584 20-01-2014 02:35:00 4.2 C 6.06 g/m*3 4.2 C 1.6 km/h
585 20-01-2014 02:40:00 4.2 C 6.06 g/m*3 4.2 C 1.6 km/h
586 20-01-2014 02:45:00 4.2 C 6.06 g/m*3 4.2 C 0 km/h
587 20-01-2014 02:50:00 4.2 C 6.06 g/m*3 4.2 C 0 km/h
588 20-01-2014 02:55:00 4.2 C 6.06 g/m*3 4.2 C 0 km/h
589 20-01-2014 03:00:00 4.2 C 6.06 g/m*3 4.2 C 0 km/h
590 20-01-2014 03:05:00 4.2 C 6.06 g/m*3 4.2 C 0 km/h
591 20-01-2014 03:10:00 4.2 C 6.06 g/m*3 4.2 C 0 km/h
592 20-01-2014 03:15:00 4.2 C 6.06 g/m*3 4.2 C 0 km/h
593 20-01-2014 03:20:00 4.2 C 6.06 g/m*3 4.2 C 0 km/h
594 20-01-2014 03:25:00 4.2 C 6.06 g/m*3 4.2 C 0 km/h
595 20-01-2014 03:30:00 4.2 C 6.06 g/m*3 4.2 C 0 km/h
596 20-01-2014 03:35:00 4.2 C 6.06 g/m*3 4.2 C 0 km/h
597 20-01-2014 03:40:00 4.2 C 6.06 g/m*3 4.2 C 0 km/h
598 20-01-2014 03:45:00 4.2 C 6.06 g/m*3 4.2 C 0 km/h
599 20-01-2014 03:50:00 4.2 C 6.06 g/m*3 4.2 C 0 km/h
600 20-01-2014 03:55:00 4.2 C 6.06 g/m*3 4.2 C 0 km/h
Sensor: Nr:Datum:Temp:Abs-Feuchte:Windchill:Wind:
Aussen-T/F 601 20-01-2014 04:00:00 4.2 C 6.06 g/m*3 4.2 C 0 km/h
602 20-01-2014 04:05:00 4.2 C 6.12 g/m*3 4.2 C 0 km/h
603 20-01-2014 04:10:00 4.2 C 6.12 g/m*3 4.2 C 0 km/h
604 20-01-2014 04:15:00 4.3 C 6.16 g/m*3 4.3 C 0 km/h
605 20-01-2014 04:20:00 4.3 C 6.16 g/m*3 4.3 C 0 km/h
606 20-01-2014 04:25:00 4.3 C 6.16 g/m*3 4.3 C 0 km/h
607 20-01-2014 04:30:00 4.3 C 6.16 g/m*3 4.3 C 0 km/h
608 20-01-2014 04:35:00 4.3 C 6.16 g/m*3 4.3 C 0 km/h
609 20-01-2014 04:40:00 4.3 C 6.16 g/m*3 4.3 C 0 km/h
610 20-01-2014 04:45:00 4.3 C 6.16 g/m*3 4.3 C 0 km/h
611 20-01-2014 04:50:00 4.3 C 6.16 g/m*3 4.3 C 0 km/h
612 20-01-2014 04:55:00 4.3 C 6.1 g/m*3 4.3 C 0 km/h
613 20-01-2014 05:00:00 4.3 C 6.1 g/m*3 4.3 C 0 km/h
614 20-01-2014 05:05:00 4.3 C 6.1 g/m*3 4.3 C 0 km/h
615 20-01-2014 05:10:00 4.3 C 6.1 g/m*3 4.3 C 0 km/h
616 20-01-2014 05:15:00 4.3 C 6.1 g/m*3 4.3 C 0 km/h
617 20-01-2014 05:20:00 4.3 C 6.1 g/m*3 4.3 C 0 km/h
618 20-01-2014 05:25:00 4.3 C 6.1 g/m*3 4.3 C 0 km/h
619 20-01-2014 05:30:00 4.3 C 6.1 g/m*3 4.3 C 0 km/h
620 20-01-2014 05:35:00 4.3 C 6.1 g/m*3 4.3 C 0 km/h
621 20-01-2014 05:40:00 4.3 C 6.1 g/m*3 4.3 C 0 km/h
622 20-01-2014 05:45:00 4.3 C 6.1 g/m*3 4.3 C 0 km/h
623 20-01-2014 05:50:00 4.3 C 6.1 g/m*3 4.3 C 0 km/h
624 20-01-2014 05:55:00 4.3 C 6.1 g/m*3 4.3 C 0 km/h
625 20-01-2014 06:00:00 4.3 C 6.1 g/m*3 4.3 C 0 km/h
Sensor: Nr:Datum:Temp:Abs-Feuchte:Windchill:Wind:
Aussen-T/F 626 20-01-2014 06:05:00 4.3 C 6.1 g/m*3 4.3 C 0 km/h
627 20-01-2014 06:10:00 4.3 C 6.1 g/m*3 4.3 C 0 km/h
628 20-01-2014 06:15:00 4.3 C 6.1 g/m*3 4.3 C 0 km/h
629 20-01-2014 06:20:00 4.3 C 6.1 g/m*3 4.3 C 0 km/h
630 20-01-2014 06:25:00 4.3 C 6.1 g/m*3 4.3 C 0 km/h
631 20-01-2014 06:30:00 4.3 C 6.1 g/m*3 4.3 C 0 km/h
632 20-01-2014 06:35:00 4.3 C 6.1 g/m*3 4.3 C 0 km/h
633 20-01-2014 06:40:00 4.3 C 6.1 g/m*3 4.3 C 0 km/h
634 20-01-2014 06:45:00 4.3 C 6.1 g/m*3 4.3 C 0 km/h
635 20-01-2014 06:50:00 4.3 C 6.1 g/m*3 4.3 C 0 km/h
636 20-01-2014 06:55:00 4.3 C 6.1 g/m*3 4.3 C 0 km/h
637 20-01-2014 07:00:00 4.3 C 6.1 g/m*3 4.3 C 0 km/h
638 20-01-2014 07:05:00 4.3 C 6.16 g/m*3 4.3 C 0 km/h
639 20-01-2014 07:10:00 4.3 C 6.16 g/m*3 4.3 C 0 km/h
640 20-01-2014 07:15:00 4.3 C 6.16 g/m*3 4.3 C 0 km/h
641 20-01-2014 07:20:00 4.3 C 6.16 g/m*3 4.3 C 0 km/h
642 20-01-2014 07:25:00 4.3 C 6.16 g/m*3 4.3 C 0 km/h
643 20-01-2014 07:30:00 4.3 C 6.16 g/m*3 4.3 C 0 km/h
644 20-01-2014 07:35:00 4.3 C 6.16 g/m*3 4.3 C 0 km/h
645 20-01-2014 07:40:00 4.3 C 6.16 g/m*3 4.3 C 0 km/h
646 20-01-2014 07:45:00 4.3 C 6.16 g/m*3 4.3 C 0 km/h
647 20-01-2014 07:50:00 4.3 C 6.16 g/m*3 4.3 C 0 km/h
648 20-01-2014 07:55:00 4.2 C 6.12 g/m*3 4.2 C 0 km/h
649 20-01-2014 08:00:00 4.2 C 6.12 g/m*3 4.2 C 0 km/h
650 20-01-2014 08:05:00 4.2 C 6.12 g/m*3 4.2 C 0 km/h
Sensor: Nr:Datum:Temp:Abs-Feuchte:Windchill:Wind:
Aussen-T/F 651 20-01-2014 08:10:00 4.2 C 6.12 g/m*3 4.2 C 0 km/h
652 20-01-2014 09:20:00 4.2 C 6.19 g/m*3 4.2 C 0 km/h
653 20-01-2014 09:25:00 4.2 C 6.19 g/m*3 4.2 C 0 km/h
654 20-01-2014 09:30:00 4.2 C 6.19 g/m*3 4.2 C 0 km/h
655 20-01-2014 09:35:00 4.3 C 6.23 g/m*3 4.3 C 0 km/h
656 20-01-2014 09:40:00 4.3 C 6.23 g/m*3 4.3 C 0 km/h
657 20-01-2014 09:45:00 4.3 C 6.23 g/m*3 4.3 C 0 km/h
658 20-01-2014 09:50:00 4.3 C 6.23 g/m*3 4.3 C 0 km/h
659 20-01-2014 09:55:00 4.3 C 6.23 g/m*3 4.3 C 0 km/h
660 20-01-2014 10:00:00 4.3 C 6.23 g/m*3 4.3 C 0 km/h
661 20-01-2014 10:05:00 4.3 C 6.29 g/m*3 4.3 C 0 km/h
662 20-01-2014 10:10:00 4.3 C 6.29 g/m*3 4.3 C 0 km/h
663 20-01-2014 10:15:00 4.3 C 6.23 g/m*3 4.3 C 0 km/h
664 20-01-2014 10:20:00 4.4 C 6.27 g/m*3 4.4 C 0 km/h
665 20-01-2014 10:25:00 4.4 C 6.33 g/m*3 4.4 C 0 km/h
666 20-01-2014 10:30:00 4.4 C 6.33 g/m*3 4.4 C 0 km/h
667 20-01-2014 10:35:00 4.4 C 6.33 g/m*3 4.4 C 0 km/h
668 20-01-2014 10:40:00 4.4 C 6.33 g/m*3 4.4 C 0 km/h
669 20-01-2014 10:45:00 4.4 C 6.33 g/m*3 4.4 C 0 km/h
670 20-01-2014 10:50:00 4.4 C 6.33 g/m*3 4.4 C 0 km/h
671 20-01-2014 10:55:00 4.4 C 6.33 g/m*3 4.4 C 0 km/h
672 20-01-2014 11:00:00 4.4 C 6.33 g/m*3 4.4 C 0 km/h
673 20-01-2014 11:05:00 4.4 C 6.33 g/m*3 4.4 C 0 km/h
674 20-01-2014 11:10:00 4.5 C 6.38 g/m*3 4.5 C 0 km/h
675 20-01-2014 11:15:00 4.6 C 6.42 g/m*3 4.6 C 0 km/h
Sensor: Nr:Datum:Temp:Abs-Feuchte:Windchill:Wind:
Aussen-T/F 676 20-01-2014 11:20:00 4.7 C 6.46 g/m*3 4.7 C 3.2 km/h
677 20-01-2014 11:25:00 4.7 C 6.46 g/m*3 4.7 C 1.6 km/h
678 20-01-2014 11:30:00 4.7 C 6.46 g/m*3 4.7 C 0 km/h
679 20-01-2014 11:35:00 4.7 C 6.46 g/m*3 4.7 C 0 km/h
680 20-01-2014 11:40:00 4.7 C 6.46 g/m*3 4.7 C 0 km/h
681 20-01-2014 11:45:00 4.7 C 6.46 g/m*3 4.7 C 0 km/h
682 20-01-2014 12:25:00 4.8 C 6.44 g/m*3 4.8 C 3.2 km/h
683 20-01-2014 12:30:00 4.8 C 6.44 g/m*3 4.8 C 3.2 km/h
684 20-01-2014 12:35:00 4.8 C 6.44 g/m*3 4.8 C 0 km/h
685 20-01-2014 12:40:00 4.8 C 6.44 g/m*3 4.8 C 1.6 km/h
686 20-01-2014 12:45:00 4.8 C 6.44 g/m*3 4.8 C 0 km/h
687 20-01-2014 12:50:00 4.8 C 6.44 g/m*3 4.8 C 0 km/h
688 20-01-2014 12:55:00 4.8 C 6.44 g/m*3 4.8 C 0 km/h
689 20-01-2014 13:00:00 4.8 C 6.44 g/m*3 4.8 C 0 km/h
690 20-01-2014 13:05:00 4.8 C 6.44 g/m*3 4.8 C 0 km/h
691 20-01-2014 13:10:00 4.8 C 6.44 g/m*3 4.8 C 3.2 km/h
692 20-01-2014 13:15:00 4.8 C 6.44 g/m*3 4.8 C 0 km/h
693 20-01-2014 13:20:00 4.8 C 6.44 g/m*3 4.8 C 3.2 km/h
694 20-01-2014 13:25:00 4.8 C 6.44 g/m*3 4.8 C 4.8 km/h
695 20-01-2014 13:30:00 4.8 C 6.44 g/m*3 4.8 C 0 km/h
696 20-01-2014 13:35:00 4.8 C 6.44 g/m*3 4.8 C 4.8 km/h
697 20-01-2014 13:40:00 4.8 C 6.44 g/m*3 4.8 C 0 km/h
698 20-01-2014 13:45:00 4.8 C 6.44 g/m*3 4.8 C 0 km/h
699 20-01-2014 13:50:00 4.8 C 6.44 g/m*3 4.8 C 0 km/h
700 20-01-2014 13:55:00 4.7 C 6.39 g/m*3 4.7 C 0 km/h
Sensor: Nr:Datum:Temp:Abs-Feuchte:Windchill:Wind:
Aussen-T/F 701 20-01-2014 14:00:00 4.7 C 6.39 g/m*3 4.7 C 0 km/h
702 20-01-2014 14:05:00 4.7 C 6.33 g/m*3 4.7 C 0 km/h
703 20-01-2014 14:10:00 4.7 C 6.33 g/m*3 4.7 C 0 km/h
704 20-01-2014 14:15:00 4.7 C 6.33 g/m*3 4.7 C 3.2 km/h
705 20-01-2014 14:20:00 4.7 C 6.33 g/m*3 4.7 C 0 km/h
706 20-01-2014 14:25:00 4.7 C 6.33 g/m*3 4.7 C 4.8 km/h
707 20-01-2014 14:30:00 4.7 C 6.33 g/m*3 3.25 C 6.4 km/h
708 20-01-2014 14:35:00 4.7 C 6.33 g/m*3 4.7 C 4.8 km/h
709 20-01-2014 14:40:00 4.7 C 6.33 g/m*3 3.25 C 6.4 km/h
710 20-01-2014 14:45:00 4.7 C 6.26 g/m*3 4.7 C 3.2 km/h
711 20-01-2014 14:50:00 4.7 C 6.26 g/m*3 4.7 C 3.2 km/h
712 20-01-2014 14:55:00 4.7 C 6.26 g/m*3 4.7 C 3.2 km/h
713 20-01-2014 15:00:00 4.7 C 6.26 g/m*3 4.7 C 1.6 km/h
714 20-01-2014 15:05:00 4.7 C 6.26 g/m*3 4.7 C 3.2 km/h
715 20-01-2014 15:10:00 4.6 C 6.22 g/m*3 4.6 C 3.2 km/h
716 20-01-2014 15:15:00 4.6 C 6.22 g/m*3 4.6 C 0 km/h
717 20-01-2014 15:20:00 4.6 C 6.22 g/m*3 4.6 C 0 km/h
718 20-01-2014 15:25:00 4.6 C 6.22 g/m*3 4.6 C 0 km/h
719 20-01-2014 15:30:00 4.6 C 6.22 g/m*3 4.6 C 0 km/h
720 20-01-2014 15:35:00 4.6 C 6.22 g/m*3 4.6 C 3.2 km/h
721 20-01-2014 15:40:00 4.6 C 6.22 g/m*3 4.6 C 3.2 km/h
722 20-01-2014 15:45:00 4.6 C 6.22 g/m*3 4.6 C 3.2 km/h
723 20-01-2014 15:50:00 4.6 C 6.22 g/m*3 4.6 C 3.2 km/h
724 20-01-2014 15:55:00 4.6 C 6.22 g/m*3 4.6 C 0 km/h
725 20-01-2014 16:00:00 4.6 C 6.22 g/m*3 4.6 C 0 km/h
Sensor: Nr:Datum:Temp:Abs-Feuchte:Windchill:Wind:
Aussen-T/F 726 20-01-2014 16:05:00 4.6 C 6.22 g/m*3 4.6 C 1.6 km/h
727 20-01-2014 16:10:00 4.6 C 6.22 g/m*3 4.6 C 0 km/h
728 20-01-2014 16:15:00 4.6 C 6.22 g/m*3 4.6 C 0 km/h
729 20-01-2014 16:20:00 4.6 C 6.22 g/m*3 4.6 C 0 km/h
730 20-01-2014 16:25:00 4.6 C 6.22 g/m*3 4.6 C 3.2 km/h
731 20-01-2014 16:30:00 4.6 C 6.22 g/m*3 4.6 C 0 km/h
732 20-01-2014 16:35:00 4.6 C 6.22 g/m*3 4.6 C 0 km/h
733 20-01-2014 16:40:00 4.6 C 6.22 g/m*3 4.6 C 0 km/h
734 20-01-2014 16:45:00 4.6 C 6.22 g/m*3 4.6 C 1.6 km/h
735 20-01-2014 16:50:00 4.5 C 6.18 g/m*3 4.5 C 1.6 km/h
736 20-01-2014 16:55:00 4.5 C 6.18 g/m*3 4.5 C 0 km/h
737 20-01-2014 17:00:00 4.5 C 6.18 g/m*3 4.5 C 0 km/h
738 20-01-2014 17:05:00 4.5 C 6.18 g/m*3 4.5 C 0 km/h
739 20-01-2014 17:10:00 4.5 C 6.24 g/m*3 4.5 C 0 km/h
740 20-01-2014 17:15:00 4.5 C 6.18 g/m*3 4.5 C 0 km/h
741 20-01-2014 17:20:00 4.5 C 6.18 g/m*3 4.5 C 4.8 km/h
742 20-01-2014 17:25:00 4.5 C 6.11 g/m*3 4.5 C 1.6 km/h
743 20-01-2014 17:30:00 4.6 C 6.15 g/m*3 4.6 C 3.2 km/h
744 20-01-2014 17:35:00 4.6 C 6.15 g/m*3 4.6 C 0 km/h
745 20-01-2014 17:40:00 4.6 C 6.15 g/m*3 4.6 C 4.8 km/h
746 20-01-2014 17:45:00 4.6 C 6.15 g/m*3 4.6 C 3.2 km/h
747 20-01-2014 17:50:00 4.6 C 6.09 g/m*3 4.6 C 3.2 km/h
748 20-01-2014 17:55:00 4.6 C 6.15 g/m*3 4.6 C 1.6 km/h
749 20-01-2014 18:00:00 4.7 C 6.19 g/m*3 4.7 C 0 km/h
750 20-01-2014 18:05:00 4.6 C 6.15 g/m*3 4.6 C 0 km/h
Sensor: Nr:Datum:Temp:Abs-Feuchte:Windchill:Wind:
Aussen-T/F 751 20-01-2014 18:10:00 4.7 C 6.19 g/m*3 4.7 C 0 km/h
752 20-01-2014 18:15:00 4.6 C 6.15 g/m*3 4.6 C 0 km/h
753 20-01-2014 18:20:00 4.6 C 6.15 g/m*3 4.6 C 1.6 km/h
754 20-01-2014 18:25:00 4.6 C 6.15 g/m*3 4.6 C 1.6 km/h
755 20-01-2014 18:30:00 4.6 C 6.15 g/m*3 4.6 C 4.8 km/h
756 20-01-2014 18:35:00 4.6 C 6.09 g/m*3 4.6 C 3.2 km/h
757 20-01-2014 18:40:00 4.6 C 6.09 g/m*3 4.6 C 4.8 km/h
758 20-01-2014 18:45:00 4.6 C 6.09 g/m*3 4.6 C 3.2 km/h
759 20-01-2014 18:50:00 4.6 C 6.09 g/m*3 4.6 C 0 km/h
760 20-01-2014 18:55:00 4.6 C 6.09 g/m*3 4.6 C 1.6 km/h
761 20-01-2014 19:00:00 4.6 C 6.09 g/m*3 3.13 C 6.4 km/h
762 20-01-2014 19:05:00 4.6 C 6.09 g/m*3 4.6 C 4.8 km/h
763 20-01-2014 19:10:00 4.6 C 6.09 g/m*3 3.13 C 6.4 km/h
764 20-01-2014 19:15:00 4.5 C 6.05 g/m*3 3.02 C 6.4 km/h
765 20-01-2014 19:20:00 4.5 C 6.05 g/m*3 2.52 C 8.1 km/h
766 20-01-2014 19:25:00 4.4 C 6.01 g/m*3 4.4 C 4.8 km/h
767 20-01-2014 19:30:00 4.4 C 6.01 g/m*3 4.4 C 4.8 km/h
768 20-01-2014 19:35:00 4.4 C 6.01 g/m*3 4.4 C 3.2 km/h
769 20-01-2014 19:40:00 4.3 C 6.03 g/m*3 4.3 C 4.8 km/h
770 20-01-2014 19:45:00 4.3 C 6.03 g/m*3 4.3 C 4.8 km/h
771 20-01-2014 19:50:00 4.3 C 6.03 g/m*3 2.78 C 6.4 km/h
772 20-01-2014 19:55:00 4.2 C 5.99 g/m*3 2.67 C 6.4 km/h
773 20-01-2014 20:00:00 4.2 C 5.99 g/m*3 4.2 C 1.6 km/h
774 20-01-2014 20:05:00 4.2 C 5.99 g/m*3 4.2 C 0 km/h
775 20-01-2014 20:10:00 4.2 C 5.99 g/m*3 4.2 C 1.6 km/h
Sensor: Nr:Datum:Temp:Abs-Feuchte:Windchill:Wind:
Aussen-T/F 776 20-01-2014 20:15:00 4.2 C 5.99 g/m*3 4.2 C 0 km/h
777 20-01-2014 20:20:00 4.1 C 5.95 g/m*3 4.1 C 0 km/h
778 20-01-2014 20:25:00 4.1 C 5.95 g/m*3 4.1 C 3.2 km/h
779 20-01-2014 20:30:00 4.1 C 6.02 g/m*3 4.1 C 0 km/h
780 20-01-2014 20:35:00 4.1 C 6.02 g/m*3 4.1 C 0 km/h
781 20-01-2014 20:40:00 4.1 C 6.02 g/m*3 4.1 C 3.2 km/h
782 20-01-2014 20:45:00 4.1 C 6.02 g/m*3 4.1 C 0 km/h
783 20-01-2014 20:50:00 4.1 C 6.02 g/m*3 4.1 C 0 km/h
784 20-01-2014 20:55:00 4 C 5.98 g/m*3 4 C 0 km/h
785 20-01-2014 21:00:00 4 C 5.98 g/m*3 4 C 0 km/h
786 20-01-2014 21:05:00 4 C 5.98 g/m*3 4 C 0 km/h
787 20-01-2014 21:10:00 4 C 5.98 g/m*3 4 C 0 km/h
788 20-01-2014 21:15:00 4 C 5.98 g/m*3 4 C 0 km/h
789 20-01-2014 21:20:00 4 C 5.98 g/m*3 4 C 0 km/h
790 20-01-2014 21:25:00 4 C 5.98 g/m*3 4 C 1.6 km/h
791 20-01-2014 21:30:00 3.9 C 6 g/m*3 3.9 C 0 km/h
792 20-01-2014 21:35:00 3.9 C 6 g/m*3 3.9 C 0 km/h
793 20-01-2014 21:40:00 3.9 C 6 g/m*3 3.9 C 0 km/h
794 20-01-2014 21:45:00 3.9 C 6 g/m*3 3.9 C 0 km/h
795 20-01-2014 21:50:00 3.9 C 6 g/m*3 3.9 C 0 km/h
796 20-01-2014 21:55:00 3.9 C 6 g/m*3 3.9 C 0 km/h
797 20-01-2014 22:00:00 3.8 C 5.96 g/m*3 3.8 C 0 km/h
798 20-01-2014 22:05:00 3.8 C 5.96 g/m*3 3.8 C 0 km/h
799 20-01-2014 22:10:00 3.8 C 6.02 g/m*3 3.8 C 0 km/h
800 20-01-2014 22:15:00 3.8 C 6.02 g/m*3 3.8 C 0 km/h
Sensor: Nr:Datum:Temp:Abs-Feuchte:Windchill:Wind:
Aussen-T/F 801 20-01-2014 22:20:00 3.8 C 6.02 g/m*3 3.8 C 0 km/h
802 20-01-2014 22:25:00 3.8 C 6.02 g/m*3 3.8 C 0 km/h
803 20-01-2014 22:30:00 3.8 C 6.02 g/m*3 3.8 C 0 km/h
804 20-01-2014 22:35:00 3.8 C 6.02 g/m*3 3.8 C 0 km/h
805 20-01-2014 22:40:00 3.9 C 6.06 g/m*3 3.9 C 0 km/h
806 20-01-2014 22:45:00 3.8 C 6.02 g/m*3 3.8 C 0 km/h
807 20-01-2014 22:50:00 3.8 C 6.02 g/m*3 3.8 C 1.6 km/h
808 20-01-2014 22:55:00 3.8 C 6.02 g/m*3 3.8 C 4.8 km/h
809 20-01-2014 23:00:00 3.8 C 6.02 g/m*3 3.8 C 3.2 km/h
810 20-01-2014 23:05:00 3.8 C 6.02 g/m*3 3.8 C 1.6 km/h
811 20-01-2014 23:10:00 3.8 C 6.02 g/m*3 3.8 C 1.6 km/h
812 20-01-2014 23:15:00 3.8 C 6.02 g/m*3 3.8 C 3.2 km/h
813 20-01-2014 23:20:00 3.8 C 6.02 g/m*3 3.8 C 4.8 km/h
814 20-01-2014 23:25:00 3.8 C 6.02 g/m*3 3.8 C 4.8 km/h
815 20-01-2014 23:30:00 3.8 C 6.02 g/m*3 3.8 C 1.6 km/h
816 20-01-2014 23:35:00 3.8 C 6.02 g/m*3 3.8 C 4.8 km/h
817 20-01-2014 23:40:00 3.7 C 5.98 g/m*3 3.7 C 4.8 km/h
818 20-01-2014 23:45:00 3.7 C 5.98 g/m*3 3.7 C 4.8 km/h
819 20-01-2014 23:50:00 3.7 C 5.98 g/m*3 3.7 C 1.6 km/h
820 20-01-2014 23:55:00 3.7 C 5.98 g/m*3 3.7 C 0 km/h
821 21-01-2014 00:00:00 3.7 C 5.98 g/m*3 3.7 C 1.6 km/h
822 21-01-2014 00:05:00 3.7 C 5.98 g/m*3 3.7 C 1.6 km/h
823 21-01-2014 00:10:00 3.6 C 5.94 g/m*3 3.6 C 0 km/h
824 21-01-2014 00:15:00 3.6 C 5.94 g/m*3 3.6 C 0 km/h
825 21-01-2014 00:20:00 3.6 C 5.94 g/m*3 3.6 C 0 km/h
Sensor: Nr:Datum:Temp:Abs-Feuchte:Windchill:Wind:
Aussen-T/F 826 21-01-2014 00:25:00 3.6 C 5.94 g/m*3 3.6 C 3.2 km/h
827 21-01-2014 00:30:00 3.6 C 5.94 g/m*3 3.6 C 1.6 km/h
828 21-01-2014 00:35:00 3.6 C 5.94 g/m*3 3.6 C 0 km/h
829 21-01-2014 00:40:00 3.6 C 5.94 g/m*3 3.6 C 0 km/h
830 21-01-2014 00:45:00 3.6 C 5.94 g/m*3 3.6 C 0 km/h
831 21-01-2014 00:50:00 3.6 C 5.94 g/m*3 3.6 C 1.6 km/h
832 21-01-2014 00:55:00 3.6 C 5.94 g/m*3 1.98 C 6.4 km/h
833 21-01-2014 01:00:00 3.5 C 5.9 g/m*3 3.5 C 4.8 km/h
834 21-01-2014 01:05:00 3.6 C 5.94 g/m*3 3.6 C 1.6 km/h
835 21-01-2014 01:10:00 3.5 C 5.9 g/m*3 3.5 C 4.8 km/h
836 21-01-2014 01:15:00 3.5 C 5.9 g/m*3 3.5 C 3.2 km/h
837 21-01-2014 01:20:00 3.5 C 5.9 g/m*3 3.5 C 1.6 km/h
838 21-01-2014 01:25:00 3.4 C 5.86 g/m*3 3.4 C 3.2 km/h
839 21-01-2014 01:30:00 3.4 C 5.86 g/m*3 3.4 C 3.2 km/h
840 21-01-2014 01:35:00 3.5 C 5.9 g/m*3 3.5 C 4.8 km/h
841 21-01-2014 01:40:00 3.5 C 5.84 g/m*3 3.5 C 4.8 km/h
842 21-01-2014 01:45:00 3.5 C 5.84 g/m*3 3.5 C 0 km/h
843 21-01-2014 01:50:00 3.5 C 5.84 g/m*3 3.5 C 0 km/h
844 21-01-2014 01:55:00 3.5 C 5.84 g/m*3 3.5 C 3.2 km/h
845 21-01-2014 02:00:00 3.5 C 5.84 g/m*3 1.86 C 6.4 km/h
846 21-01-2014 02:05:00 3.5 C 5.84 g/m*3 0.94 C 9.7 km/h
847 21-01-2014 02:10:00 3.4 C 5.74 g/m*3 0.82 C 9.7 km/h
848 21-01-2014 02:15:00 3.4 C 5.68 g/m*3 1.23 C 8.1 km/h
849 21-01-2014 02:20:00 3.5 C 5.72 g/m*3 1.34 C 8.1 km/h
850 21-01-2014 02:25:00 3.5 C 5.72 g/m*3 1.86 C 6.4 km/h
Sensor: Nr:Datum:Temp:Abs-Feuchte:Windchill:Wind:
Aussen-T/F 851 21-01-2014 02:30:00 3.4 C 5.62 g/m*3 1.23 C 8.1 km/h
852 21-01-2014 02:35:00 3.4 C 5.62 g/m*3 1.75 C 6.4 km/h
853 21-01-2014 02:40:00 3.3 C 5.58 g/m*3 1.11 C 8.1 km/h
854 21-01-2014 02:45:00 3.3 C 5.58 g/m*3 0.02 C 12.9 km/h
855 21-01-2014 02:50:00 3.3 C 5.58 g/m*3 0.02 C 12.9 km/h
856 21-01-2014 02:55:00 3.3 C 5.58 g/m*3 1.11 C 8.1 km/h
857 21-01-2014 03:00:00 3.3 C 5.58 g/m*3 1.11 C 8.1 km/h
858 21-01-2014 03:05:00 3.3 C 5.58 g/m*3 1.63 C 6.4 km/h
859 21-01-2014 03:10:00 3.2 C 5.54 g/m*3 1.51 C 6.4 km/h
860 21-01-2014 03:15:00 3.2 C 5.6 g/m*3 1.51 C 6.4 km/h
861 21-01-2014 03:20:00 3.2 C 5.6 g/m*3 1.51 C 6.4 km/h
862 21-01-2014 03:25:00 3.2 C 5.6 g/m*3 0.99 C 8.1 km/h
863 21-01-2014 03:30:00 3.2 C 5.6 g/m*3 1.51 C 6.4 km/h
864 21-01-2014 03:35:00 3.1 C 5.57 g/m*3 1.4 C 6.4 km/h
865 21-01-2014 03:40:00 3.1 C 5.57 g/m*3 0.46 C 9.7 km/h
866 21-01-2014 03:45:00 3.1 C 5.57 g/m*3 0.87 C 8.1 km/h
867 21-01-2014 03:50:00 3 C 5.53 g/m*3 0.76 C 8.1 km/h
868 21-01-2014 03:55:00 3.1 C 5.57 g/m*3 0.46 C 9.7 km/h
869 21-01-2014 04:00:00 3 C 5.53 g/m*3 0.34 C 9.7 km/h
870 21-01-2014 04:05:00 3 C 5.53 g/m*3 1.28 C 6.4 km/h
871 21-01-2014 04:10:00 3 C 5.53 g/m*3 3 C 4.8 km/h
872 21-01-2014 04:15:00 3 C 5.53 g/m*3 1.28 C 6.4 km/h
873 21-01-2014 04:20:00 3 C 5.53 g/m*3 0.34 C 9.7 km/h
874 21-01-2014 04:25:00 2.9 C 5.49 g/m*3 -0.14 C 11.3 km/h
875 21-01-2014 04:30:00 2.9 C 5.49 g/m*3 2.9 C 3.2 km/h
Sensor: Nr:Datum:Temp:Abs-Feuchte:Windchill:Wind:
Aussen-T/F 876 21-01-2014 04:35:00 2.9 C 5.49 g/m*3 2.9 C 3.2 km/h
877 21-01-2014 04:40:00 2.9 C 5.49 g/m*3 2.9 C 3.2 km/h
878 21-01-2014 04:45:00 2.9 C 5.49 g/m*3 0.64 C 8.1 km/h
879 21-01-2014 04:50:00 2.9 C 5.49 g/m*3 2.9 C 4.8 km/h
880 21-01-2014 04:55:00 2.9 C 5.49 g/m*3 1.17 C 6.4 km/h
881 21-01-2014 05:00:00 2.9 C 5.49 g/m*3 1.17 C 6.4 km/h
882 21-01-2014 05:05:00 2.9 C 5.49 g/m*3 2.9 C 4.8 km/h
883 21-01-2014 05:10:00 2.9 C 5.49 g/m*3 2.9 C 4.8 km/h
884 21-01-2014 05:15:00 2.9 C 5.49 g/m*3 2.9 C 4.8 km/h
885 21-01-2014 05:20:00 2.9 C 5.49 g/m*3 1.17 C 6.4 km/h
886 21-01-2014 05:25:00 2.9 C 5.49 g/m*3 2.9 C 4.8 km/h
887 21-01-2014 05:30:00 2.9 C 5.43 g/m*3 2.9 C 3.2 km/h
888 21-01-2014 05:35:00 2.9 C 5.49 g/m*3 2.9 C 1.6 km/h
889 21-01-2014 05:40:00 2.8 C 5.4 g/m*3 2.8 C 4.8 km/h
890 21-01-2014 05:45:00 2.8 C 5.4 g/m*3 2.8 C 3.2 km/h
891 21-01-2014 05:50:00 2.9 C 5.43 g/m*3 2.9 C 1.6 km/h
892 21-01-2014 05:55:00 2.9 C 5.43 g/m*3 2.9 C 3.2 km/h
893 21-01-2014 06:00:00 2.8 C 5.4 g/m*3 2.8 C 4.8 km/h
894 21-01-2014 06:05:00 2.9 C 5.43 g/m*3 2.9 C 1.6 km/h
895 21-01-2014 06:10:00 2.9 C 5.43 g/m*3 2.9 C 0 km/h
896 21-01-2014 06:15:00 2.8 C 5.4 g/m*3 2.8 C 3.2 km/h
897 21-01-2014 06:20:00 2.9 C 5.43 g/m*3 2.9 C 4.8 km/h
898 21-01-2014 06:25:00 2.9 C 5.43 g/m*3 0.64 C 8.1 km/h
899 21-01-2014 06:30:00 2.9 C 5.37 g/m*3 2.9 C 3.2 km/h
900 21-01-2014 06:35:00 2.9 C 5.37 g/m*3 2.9 C 3.2 km/h
Sensor: Nr:Datum:Temp:Abs-Feuchte:Windchill:Wind:
Aussen-T/F 901 21-01-2014 06:40:00 2.9 C 5.37 g/m*3 2.9 C 4.8 km/h
902 21-01-2014 06:45:00 2.9 C 5.37 g/m*3 2.9 C 4.8 km/h
903 21-01-2014 06:50:00 2.9 C 5.37 g/m*3 2.9 C 4.8 km/h
904 21-01-2014 06:55:00 2.9 C 5.37 g/m*3 2.9 C 3.2 km/h
905 21-01-2014 07:00:00 2.9 C 5.37 g/m*3 2.9 C 3.2 km/h
906 21-01-2014 07:05:00 2.9 C 5.37 g/m*3 2.9 C 3.2 km/h
907 21-01-2014 07:10:00 2.9 C 5.37 g/m*3 2.9 C 1.6 km/h
908 21-01-2014 07:15:00 2.9 C 5.37 g/m*3 2.9 C 3.2 km/h
909 21-01-2014 07:20:00 2.9 C 5.37 g/m*3 0.64 C 8.1 km/h
910 21-01-2014 07:25:00 2.9 C 5.37 g/m*3 0.64 C 8.1 km/h
911 21-01-2014 07:30:00 2.8 C 5.4 g/m*3 2.8 C 4.8 km/h
912 21-01-2014 07:35:00 2.8 C 5.4 g/m*3 0.52 C 8.1 km/h
913 21-01-2014 07:40:00 2.8 C 5.4 g/m*3 2.8 C 4.8 km/h
914 21-01-2014 07:45:00 2.8 C 5.4 g/m*3 2.8 C 3.2 km/h
915 21-01-2014 07:50:00 2.7 C 5.42 g/m*3 2.7 C 1.6 km/h
916 21-01-2014 07:55:00 2.7 C 5.42 g/m*3 2.7 C 4.8 km/h
917 21-01-2014 08:00:00 2.7 C 5.42 g/m*3 2.7 C 4.8 km/h
918 21-01-2014 08:05:00 2.7 C 5.42 g/m*3 2.7 C 3.2 km/h
919 21-01-2014 08:10:00 2.7 C 5.42 g/m*3 0.4 C 8.1 km/h
920 21-01-2014 08:15:00 2.7 C 5.42 g/m*3 2.7 C 3.2 km/h
921 21-01-2014 08:20:00 2.7 C 5.42 g/m*3 0.4 C 8.1 km/h
922 21-01-2014 08:25:00 2.7 C 5.42 g/m*3 2.7 C 3.2 km/h
923 21-01-2014 08:30:00 2.7 C 5.42 g/m*3 0.94 C 6.4 km/h
924 21-01-2014 08:35:00 2.7 C 5.42 g/m*3 2.7 C 1.6 km/h
925 21-01-2014 08:40:00 2.7 C 5.42 g/m*3 2.7 C 0 km/h
Sensor: Nr:Datum:Temp:Abs-Feuchte:Windchill:Wind:
Aussen-T/F 926 21-01-2014 08:45:00 2.7 C 5.42 g/m*3 2.7 C 3.2 km/h
927 21-01-2014 08:50:00 2.7 C 5.42 g/m*3 2.7 C 1.6 km/h
928 21-01-2014 08:55:00 2.7 C 5.42 g/m*3 2.7 C 3.2 km/h
929 21-01-2014 09:00:00 2.7 C 5.48 g/m*3 2.7 C 3.2 km/h
930 21-01-2014 09:05:00 2.7 C 5.48 g/m*3 2.7 C 4.8 km/h
931 21-01-2014 09:10:00 2.8 C 5.51 g/m*3 2.8 C 0 km/h
932 21-01-2014 09:15:00 2.8 C 5.51 g/m*3 2.8 C 3.2 km/h
933 21-01-2014 09:20:00 2.8 C 5.51 g/m*3 2.8 C 0 km/h
934 21-01-2014 09:25:00 2.8 C 5.51 g/m*3 2.8 C 0 km/h
935 21-01-2014 09:30:00 2.8 C 5.51 g/m*3 2.8 C 1.6 km/h
936 21-01-2014 09:35:00 2.8 C 5.51 g/m*3 2.8 C 0 km/h
937 21-01-2014 09:40:00 2.8 C 5.51 g/m*3 2.8 C 0 km/h
938 21-01-2014 09:45:00 2.9 C 5.55 g/m*3 2.9 C 3.2 km/h
939 21-01-2014 09:50:00 2.9 C 5.55 g/m*3 2.9 C 1.6 km/h
940 21-01-2014 09:55:00 2.9 C 5.55 g/m*3 2.9 C 4.8 km/h
941 21-01-2014 10:00:00 2.9 C 5.49 g/m*3 2.9 C 4.8 km/h
942 21-01-2014 10:05:00 3 C 5.53 g/m*3 3 C 3.2 km/h
943 21-01-2014 10:10:00 3 C 5.53 g/m*3 3 C 4.8 km/h
944 21-01-2014 10:15:00 3.1 C 5.57 g/m*3 3.1 C 1.6 km/h
945 21-01-2014 10:20:00 3.1 C 5.57 g/m*3 3.1 C 3.2 km/h
946 21-01-2014 10:25:00 3.1 C 5.57 g/m*3 3.1 C 0 km/h
947 21-01-2014 10:30:00 3.2 C 5.6 g/m*3 3.2 C 1.6 km/h
948 21-01-2014 10:35:00 3.2 C 5.6 g/m*3 3.2 C 3.2 km/h
949 21-01-2014 10:40:00 3.2 C 5.54 g/m*3 3.2 C 1.6 km/h
950 21-01-2014 10:45:00 3.2 C 5.54 g/m*3 3.2 C 3.2 km/h
Sensor: Nr:Datum:Temp:Abs-Feuchte:Windchill:Wind:
Aussen-T/F 951 21-01-2014 10:50:00 3.2 C 5.54 g/m*3 3.2 C 1.6 km/h
952 21-01-2014 10:55:00 3.2 C 5.54 g/m*3 3.2 C 3.2 km/h
953 21-01-2014 11:00:00 3.3 C 5.58 g/m*3 3.3 C 1.6 km/h
954 21-01-2014 11:05:00 3.3 C 5.64 g/m*3 3.3 C 0 km/h
955 21-01-2014 11:10:00 3.3 C 5.58 g/m*3 3.3 C 0 km/h
956 21-01-2014 11:15:00 3.3 C 5.58 g/m*3 3.3 C 3.2 km/h
957 21-01-2014 11:20:00 3.3 C 5.64 g/m*3 1.11 C 8.1 km/h
958 21-01-2014 11:25:00 3.3 C 5.64 g/m*3 3.3 C 3.2 km/h
959 21-01-2014 11:30:00 3.3 C 5.64 g/m*3 3.3 C 3.2 km/h
960 21-01-2014 11:35:00 3.3 C 5.64 g/m*3 3.3 C 3.2 km/h
961 21-01-2014 11:40:00 3.3 C 5.64 g/m*3 3.3 C 3.2 km/h
962 21-01-2014 11:45:00 3.3 C 5.64 g/m*3 3.3 C 4.8 km/h
963 21-01-2014 11:50:00 3.3 C 5.64 g/m*3 3.3 C 1.6 km/h
964 21-01-2014 11:55:00 3.3 C 5.64 g/m*3 3.3 C 1.6 km/h
965 21-01-2014 12:00:00 3.3 C 5.7 g/m*3 3.3 C 0 km/h
966 21-01-2014 12:05:00 3.3 C 5.7 g/m*3 3.3 C 0 km/h
967 21-01-2014 12:10:00 3.3 C 5.64 g/m*3 3.3 C 0 km/h
968 21-01-2014 12:15:00 3.3 C 5.64 g/m*3 3.3 C 0 km/h
969 21-01-2014 12:20:00 3.3 C 5.64 g/m*3 3.3 C 1.6 km/h
970 21-01-2014 12:25:00 3.3 C 5.64 g/m*3 3.3 C 0 km/h
971 21-01-2014 12:30:00 3.4 C 5.68 g/m*3 3.4 C 0 km/h
972 21-01-2014 12:35:00 3.4 C 5.68 g/m*3 3.4 C 0 km/h
973 21-01-2014 12:40:00 3.4 C 5.68 g/m*3 3.4 C 1.6 km/h
974 21-01-2014 12:45:00 3.5 C 5.72 g/m*3 3.5 C 0 km/h
975 21-01-2014 12:50:00 3.5 C 5.72 g/m*3 3.5 C 0 km/h
Sensor: Nr:Datum:Temp:Abs-Feuchte:Windchill:Wind:
Aussen-T/F 976 21-01-2014 12:55:00 3.6 C 5.76 g/m*3 3.6 C 1.6 km/h
977 21-01-2014 13:00:00 3.6 C 5.69 g/m*3 3.6 C 1.6 km/h
978 21-01-2014 13:05:00 3.7 C 5.73 g/m*3 3.7 C 0 km/h
979 21-01-2014 13:10:00 3.7 C 5.73 g/m*3 3.7 C 1.6 km/h
980 21-01-2014 13:15:00 3.8 C 5.71 g/m*3 3.8 C 0 km/h
981 21-01-2014 13:20:00 3.8 C 5.71 g/m*3 3.8 C 1.6 km/h
982 21-01-2014 13:25:00 3.9 C 5.75 g/m*3 3.9 C 1.6 km/h
983 21-01-2014 13:30:00 3.9 C 5.75 g/m*3 3.9 C 0 km/h
984 21-01-2014 13:35:00 3.9 C 5.75 g/m*3 3.9 C 1.6 km/h
985 21-01-2014 13:40:00 4 C 5.85 g/m*3 4 C 1.6 km/h
986 21-01-2014 13:45:00 4 C 5.79 g/m*3 4 C 1.6 km/h
987 21-01-2014 13:50:00 4.1 C 5.82 g/m*3 4.1 C 0 km/h
988 21-01-2014 13:55:00 4.1 C 5.82 g/m*3 4.1 C 0 km/h
989 21-01-2014 14:00:00 4.1 C 5.82 g/m*3 4.1 C 1.6 km/h
990 21-01-2014 14:05:00 4.1 C 5.82 g/m*3 4.1 C 0 km/h
991 21-01-2014 14:10:00 4.1 C 5.82 g/m*3 4.1 C 0 km/h
992 21-01-2014 14:15:00 4.2 C 5.86 g/m*3 4.2 C 1.6 km/h
993 21-01-2014 14:20:00 4.2 C 5.86 g/m*3 4.2 C 3.2 km/h
994 21-01-2014 14:25:00 4.2 C 5.86 g/m*3 4.2 C 0 km/h
995 21-01-2014 14:30:00 4.2 C 5.86 g/m*3 4.2 C 0 km/h
996 21-01-2014 14:35:00 4.2 C 5.86 g/m*3 4.2 C 3.2 km/h
997 21-01-2014 14:40:00 4.2 C 5.86 g/m*3 4.2 C 1.6 km/h
998 21-01-2014 14:45:00 4.2 C 5.86 g/m*3 4.2 C 0 km/h
999 21-01-2014 14:50:00 4.2 C 5.86 g/m*3 4.2 C 0 km/h
1000 21-01-2014 14:55:00 4.2 C 5.86 g/m*3 4.2 C 0 km/h
Sensor: Nr:Datum:Temp:Abs-Feuchte:Windchill:Wind:
Aussen-T/F 1001 21-01-2014 15:00:00 4.2 C 5.86 g/m*3 4.2 C 0 km/h
1002 21-01-2014 15:05:00 4.3 C 5.9 g/m*3 4.3 C 0 km/h
1003 21-01-2014 15:10:00 4.3 C 5.9 g/m*3 4.3 C 0 km/h
1004 21-01-2014 15:15:00 4.3 C 5.9 g/m*3 4.3 C 0 km/h
1005 21-01-2014 15:20:00 4.3 C 5.9 g/m*3 4.3 C 1.6 km/h
1006 21-01-2014 15:25:00 4.3 C 5.9 g/m*3 4.3 C 3.2 km/h
1007 21-01-2014 15:30:00 4.3 C 5.9 g/m*3 4.3 C 0 km/h
1008 21-01-2014 15:35:00 4.2 C 5.8 g/m*3 4.2 C 0 km/h
1009 21-01-2014 15:40:00 4.2 C 5.86 g/m*3 4.2 C 1.6 km/h
1010 21-01-2014 15:45:00 4.2 C 5.86 g/m*3 4.2 C 0 km/h
1011 21-01-2014 15:50:00 4.1 C 5.82 g/m*3 4.1 C 0 km/h
1012 21-01-2014 15:55:00 4.1 C 5.82 g/m*3 4.1 C 0 km/h
1013 21-01-2014 16:00:00 4.1 C 5.82 g/m*3 4.1 C 0 km/h
1014 21-01-2014 16:05:00 4.1 C 5.89 g/m*3 4.1 C 0 km/h
1015 21-01-2014 16:10:00 4.1 C 5.89 g/m*3 4.1 C 0 km/h
1016 21-01-2014 16:15:00 4.1 C 5.89 g/m*3 4.1 C 0 km/h
1017 21-01-2014 16:20:00 4.1 C 5.95 g/m*3 4.1 C 0 km/h
1018 21-01-2014 16:25:00 4.1 C 5.95 g/m*3 4.1 C 0 km/h
1019 21-01-2014 16:30:00 4 C 5.91 g/m*3 4 C 0 km/h
1020 21-01-2014 16:35:00 4 C 5.91 g/m*3 4 C 0 km/h
1021 21-01-2014 16:40:00 3.9 C 5.87 g/m*3 3.9 C 0 km/h
1022 21-01-2014 16:45:00 3.9 C 5.87 g/m*3 3.9 C 0 km/h
1023 21-01-2014 16:50:00 3.9 C 5.94 g/m*3 3.9 C 0 km/h
1024 21-01-2014 16:55:00 3.9 C 5.94 g/m*3 3.9 C 0 km/h
1025 21-01-2014 17:00:00 3.9 C 5.94 g/m*3 3.9 C 0 km/h
Sensor: Nr:Datum:Temp:Abs-Feuchte:Windchill:Wind:
Aussen-T/F 1026 21-01-2014 17:05:00 3.9 C 5.94 g/m*3 3.9 C 0 km/h
1027 21-01-2014 17:10:00 3.9 C 5.94 g/m*3 3.9 C 0 km/h
1028 21-01-2014 17:15:00 3.9 C 5.94 g/m*3 3.9 C 0 km/h
1029 21-01-2014 17:20:00 3.8 C 5.9 g/m*3 3.8 C 0 km/h
1030 21-01-2014 17:25:00 3.8 C 5.9 g/m*3 3.8 C 0 km/h
1031 21-01-2014 17:30:00 3.8 C 5.96 g/m*3 3.8 C 0 km/h
1032 21-01-2014 17:35:00 3.8 C 5.96 g/m*3 3.8 C 0 km/h
1033 21-01-2014 17:40:00 3.8 C 5.96 g/m*3 3.8 C 0 km/h
1034 21-01-2014 17:45:00 3.8 C 5.96 g/m*3 3.8 C 0 km/h
1035 21-01-2014 17:50:00 3.8 C 5.96 g/m*3 3.8 C 0 km/h
1036 21-01-2014 17:55:00 3.8 C 5.96 g/m*3 3.8 C 0 km/h
1037 21-01-2014 18:00:00 3.8 C 5.96 g/m*3 3.8 C 0 km/h
1038 21-01-2014 18:05:00 3.8 C 5.96 g/m*3 3.8 C 0 km/h
1039 21-01-2014 18:10:00 3.8 C 5.96 g/m*3 3.8 C 0 km/h
1040 21-01-2014 18:15:00 3.8 C 6.02 g/m*3 3.8 C 0 km/h
1041 21-01-2014 18:20:00 3.8 C 6.02 g/m*3 3.8 C 0 km/h
1042 21-01-2014 18:25:00 3.8 C 6.02 g/m*3 3.8 C 0 km/h
1043 21-01-2014 18:30:00 3.8 C 6.02 g/m*3 3.8 C 0 km/h
1044 21-01-2014 18:35:00 3.8 C 6.02 g/m*3 3.8 C 0 km/h
1045 21-01-2014 18:40:00 3.8 C 6.02 g/m*3 3.8 C 0 km/h
1046 21-01-2014 18:45:00 3.8 C 6.02 g/m*3 3.8 C 0 km/h
1047 21-01-2014 18:50:00 3.8 C 6.02 g/m*3 3.8 C 0 km/h
1048 21-01-2014 18:55:00 3.8 C 6.02 g/m*3 3.8 C 0 km/h
1049 21-01-2014 19:00:00 3.8 C 6.02 g/m*3 3.8 C 0 km/h
1050 21-01-2014 19:05:00 3.8 C 6.02 g/m*3 3.8 C 0 km/h
Sensor: Nr:Datum:Temp:Abs-Feuchte:Windchill:Wind:
Aussen-T/F 1051 21-01-2014 19:10:00 3.9 C 6.06 g/m*3 3.9 C 0 km/h
1052 21-01-2014 19:15:00 3.9 C 6.06 g/m*3 3.9 C 0 km/h
1053 21-01-2014 19:20:00 3.9 C 6.06 g/m*3 3.9 C 0 km/h
1054 21-01-2014 19:25:00 3.9 C 6.06 g/m*3 3.9 C 0 km/h
1055 21-01-2014 19:30:00 3.9 C 6.06 g/m*3 3.9 C 0 km/h
1056 21-01-2014 19:35:00 3.9 C 6.06 g/m*3 3.9 C 0 km/h
1057 21-01-2014 19:40:00 4 C 6.1 g/m*3 4 C 0 km/h
1058 21-01-2014 19:45:00 3.9 C 6.06 g/m*3 3.9 C 0 km/h
1059 21-01-2014 19:50:00 3.9 C 6.06 g/m*3 3.9 C 0 km/h
1060 21-01-2014 19:55:00 4 C 6.1 g/m*3 4 C 0 km/h
1061 21-01-2014 20:00:00 4 C 6.1 g/m*3 4 C 0 km/h
1062 21-01-2014 20:05:00 4 C 6.1 g/m*3 4 C 0 km/h
1063 21-01-2014 20:10:00 4 C 6.1 g/m*3 4 C 0 km/h
1064 21-01-2014 20:15:00 4 C 6.1 g/m*3 4 C 0 km/h
1065 21-01-2014 20:20:00 4 C 6.1 g/m*3 4 C 0 km/h
1066 21-01-2014 20:25:00 4 C 6.1 g/m*3 4 C 0 km/h
1067 21-01-2014 20:30:00 3.9 C 6.06 g/m*3 3.9 C 0 km/h
1068 21-01-2014 20:35:00 4 C 6.1 g/m*3 4 C 0 km/h
1069 21-01-2014 20:40:00 4 C 6.1 g/m*3 4 C 0 km/h
1070 21-01-2014 20:45:00 4 C 6.1 g/m*3 4 C 0 km/h
1071 21-01-2014 20:50:00 3.9 C 6.06 g/m*3 3.9 C 0 km/h
1072 21-01-2014 20:55:00 3.9 C 6.06 g/m*3 3.9 C 0 km/h
1073 21-01-2014 21:00:00 3.9 C 6.06 g/m*3 3.9 C 0 km/h
1074 21-01-2014 21:05:00 3.9 C 6.06 g/m*3 3.9 C 0 km/h
1075 21-01-2014 21:10:00 3.9 C 6.06 g/m*3 3.9 C 0 km/h
Sensor: Nr:Datum:Temp:Abs-Feuchte:Windchill:Wind:
Aussen-T/F 1076 21-01-2014 21:15:00 3.9 C 6.06 g/m*3 3.9 C 0 km/h
1077 21-01-2014 21:20:00 3.9 C 6.06 g/m*3 3.9 C 0 km/h
1078 21-01-2014 21:25:00 3.9 C 6.06 g/m*3 3.9 C 0 km/h
1079 21-01-2014 21:30:00 3.9 C 6.06 g/m*3 3.9 C 0 km/h
1080 21-01-2014 21:35:00 3.9 C 6.06 g/m*3 3.9 C 0 km/h
1081 21-01-2014 21:40:00 3.9 C 6.06 g/m*3 3.9 C 0 km/h
1082 21-01-2014 21:45:00 3.9 C 6.06 g/m*3 3.9 C 0 km/h
1083 21-01-2014 21:50:00 3.9 C 6.06 g/m*3 3.9 C 0 km/h
1084 21-01-2014 21:55:00 3.9 C 6.06 g/m*3 3.9 C 0 km/h
1085 21-01-2014 22:00:00 3.9 C 6.06 g/m*3 3.9 C 0 km/h
1086 21-01-2014 22:05:00 3.9 C 6.06 g/m*3 3.9 C 0 km/h
1087 21-01-2014 22:10:00 3.9 C 6.06 g/m*3 3.9 C 0 km/h
1088 21-01-2014 22:15:00 3.9 C 6.06 g/m*3 3.9 C 0 km/h
1089 21-01-2014 22:20:00 3.9 C 6.06 g/m*3 3.9 C 0 km/h
1090 21-01-2014 22:25:00 3.9 C 6.06 g/m*3 3.9 C 0 km/h
1091 21-01-2014 22:30:00 3.9 C 6.06 g/m*3 3.9 C 0 km/h
1092 21-01-2014 22:35:00 3.9 C 6.06 g/m*3 3.9 C 0 km/h
1093 21-01-2014 22:40:00 3.9 C 6.06 g/m*3 3.9 C 0 km/h
1094 21-01-2014 22:45:00 3.9 C 6.06 g/m*3 3.9 C 0 km/h
1095 21-01-2014 22:50:00 3.9 C 6.06 g/m*3 3.9 C 0 km/h
1096 21-01-2014 22:55:00 3.9 C 6.06 g/m*3 3.9 C 0 km/h
1097 21-01-2014 23:00:00 3.9 C 6.06 g/m*3 3.9 C 0 km/h
1098 21-01-2014 23:05:00 3.9 C 6.06 g/m*3 3.9 C 0 km/h
1099 21-01-2014 23:10:00 3.8 C 6.02 g/m*3 3.8 C 0 km/h
1100 21-01-2014 23:15:00 3.8 C 6.02 g/m*3 3.8 C 0 km/h
Sensor: Nr:Datum:Temp:Abs-Feuchte:Windchill:Wind:
Aussen-T/F 1101 21-01-2014 23:20:00 3.8 C 6.02 g/m*3 3.8 C 0 km/h
1102 21-01-2014 23:25:00 3.8 C 6.02 g/m*3 3.8 C 0 km/h
1103 21-01-2014 23:30:00 3.8 C 6.02 g/m*3 3.8 C 0 km/h
1104 21-01-2014 23:35:00 3.8 C 6.02 g/m*3 3.8 C 0 km/h
1105 21-01-2014 23:40:00 3.8 C 6.02 g/m*3 3.8 C 0 km/h
1106 21-01-2014 23:45:00 3.8 C 6.02 g/m*3 3.8 C 0 km/h
1107 21-01-2014 23:50:00 3.8 C 6.02 g/m*3 3.8 C 0 km/h
1108 21-01-2014 23:55:00 3.8 C 6.02 g/m*3 3.8 C 0 km/h
1109 22-01-2014 00:00:00 3.8 C 6.02 g/m*3 3.8 C 0 km/h
1110 22-01-2014 00:05:00 3.8 C 6.02 g/m*3 3.8 C 0 km/h
1111 22-01-2014 00:10:00 3.8 C 6.02 g/m*3 3.8 C 0 km/h
1112 22-01-2014 00:15:00 3.8 C 6.02 g/m*3 3.8 C 0 km/h
1113 22-01-2014 00:20:00 3.8 C 6.02 g/m*3 3.8 C 0 km/h
1114 22-01-2014 00:25:00 3.8 C 6.02 g/m*3 3.8 C 0 km/h
1115 22-01-2014 00:30:00 3.8 C 6.02 g/m*3 3.8 C 0 km/h
1116 22-01-2014 00:35:00 3.8 C 6.09 g/m*3 3.8 C 0 km/h
1117 22-01-2014 00:40:00 3.8 C 6.09 g/m*3 3.8 C 0 km/h
1118 22-01-2014 00:45:00 3.9 C 6.06 g/m*3 3.9 C 0 km/h
1119 22-01-2014 00:50:00 3.9 C 6.06 g/m*3 3.9 C 0 km/h
1120 22-01-2014 00:55:00 3.9 C 6.06 g/m*3 3.9 C 0 km/h
1121 22-01-2014 01:00:00 3.9 C 6.06 g/m*3 3.9 C 0 km/h
1122 22-01-2014 01:05:00 3.9 C 6.06 g/m*3 3.9 C 0 km/h
1123 22-01-2014 01:10:00 3.9 C 6.06 g/m*3 3.9 C 0 km/h
1124 22-01-2014 01:15:00 3.9 C 6.06 g/m*3 3.9 C 0 km/h
1125 22-01-2014 01:20:00 3.9 C 6.06 g/m*3 3.9 C 0 km/h
Sensor: Nr:Datum:Temp:Abs-Feuchte:Windchill:Wind:
Aussen-T/F 1126 22-01-2014 01:25:00 3.9 C 6.06 g/m*3 3.9 C 0 km/h
1127 22-01-2014 01:30:00 3.9 C 6.06 g/m*3 3.9 C 0 km/h
1128 22-01-2014 01:35:00 3.9 C 6.06 g/m*3 3.9 C 0 km/h
1129 22-01-2014 01:40:00 3.9 C 6.06 g/m*3 3.9 C 0 km/h
1130 22-01-2014 01:45:00 3.9 C 6.06 g/m*3 3.9 C 0 km/h
1131 22-01-2014 01:50:00 4 C 6.1 g/m*3 4 C 0 km/h
1132 22-01-2014 01:55:00 4 C 6.1 g/m*3 4 C 0 km/h
1133 22-01-2014 02:00:00 4 C 6.17 g/m*3 4 C 0 km/h
1134 22-01-2014 02:05:00 4 C 6.17 g/m*3 4 C 0 km/h
1135 22-01-2014 02:10:00 4 C 6.17 g/m*3 4 C 0 km/h
1136 22-01-2014 02:15:00 4 C 6.17 g/m*3 4 C 0 km/h
1137 22-01-2014 02:20:00 4 C 6.17 g/m*3 4 C 0 km/h
1138 22-01-2014 02:25:00 4 C 6.17 g/m*3 4 C 0 km/h
1139 22-01-2014 02:30:00 4 C 6.17 g/m*3 4 C 0 km/h
1140 22-01-2014 02:35:00 4 C 6.17 g/m*3 4 C 0 km/h
1141 22-01-2014 02:40:00 4 C 6.17 g/m*3 4 C 0 km/h
1142 22-01-2014 02:45:00 4 C 6.17 g/m*3 4 C 0 km/h
1143 22-01-2014 02:50:00 4 C 6.17 g/m*3 4 C 0 km/h
1144 22-01-2014 02:55:00 4 C 6.17 g/m*3 4 C 0 km/h
1145 22-01-2014 03:00:00 4 C 6.17 g/m*3 4 C 0 km/h
1146 22-01-2014 03:05:00 4 C 6.17 g/m*3 4 C 0 km/h
1147 22-01-2014 03:10:00 4 C 6.17 g/m*3 4 C 0 km/h
1148 22-01-2014 03:15:00 4 C 6.17 g/m*3 4 C 0 km/h
1149 22-01-2014 03:20:00 4 C 6.17 g/m*3 4 C 0 km/h
1150 22-01-2014 03:25:00 4 C 6.17 g/m*3 4 C 0 km/h
Sensor: Nr:Datum:Temp:Abs-Feuchte:Windchill:Wind:
Aussen-T/F 1151 22-01-2014 03:30:00 4.1 C 6.21 g/m*3 4.1 C 0 km/h
1152 22-01-2014 03:35:00 4 C 6.17 g/m*3 4 C 0 km/h
1153 22-01-2014 03:40:00 4 C 6.17 g/m*3 4 C 0 km/h
1154 22-01-2014 03:45:00 4 C 6.17 g/m*3 4 C 0 km/h
1155 22-01-2014 03:50:00 4.1 C 6.21 g/m*3 4.1 C 0 km/h
1156 22-01-2014 03:55:00 4.1 C 6.21 g/m*3 4.1 C 0 km/h
1157 22-01-2014 04:00:00 4.1 C 6.21 g/m*3 4.1 C 0 km/h
1158 22-01-2014 04:05:00 4.1 C 6.21 g/m*3 4.1 C 3.2 km/h
1159 22-01-2014 04:10:00 4.1 C 6.21 g/m*3 4.1 C 3.2 km/h
1160 22-01-2014 04:15:00 4.1 C 6.21 g/m*3 4.1 C 1.6 km/h
1161 22-01-2014 04:20:00 4.1 C 6.21 g/m*3 4.1 C 0 km/h
1162 22-01-2014 04:25:00 4.1 C 6.21 g/m*3 4.1 C 0 km/h
1163 22-01-2014 04:30:00 4.1 C 6.21 g/m*3 4.1 C 0 km/h
1164 22-01-2014 04:35:00 4.1 C 6.21 g/m*3 4.1 C 0 km/h
1165 22-01-2014 04:40:00 4 C 6.17 g/m*3 4 C 0 km/h
1166 22-01-2014 04:45:00 4 C 6.1 g/m*3 4 C 0 km/h
1167 22-01-2014 04:50:00 4 C 6.1 g/m*3 4 C 0 km/h
1168 22-01-2014 04:55:00 3.9 C 6.06 g/m*3 3.9 C 0 km/h
1169 22-01-2014 05:00:00 3.9 C 6.06 g/m*3 3.9 C 0 km/h
1170 22-01-2014 05:05:00 3.9 C 6.06 g/m*3 3.9 C 0 km/h
1171 22-01-2014 05:10:00 3.9 C 6.06 g/m*3 3.9 C 0 km/h
1172 22-01-2014 05:15:00 3.8 C 6.02 g/m*3 3.8 C 0 km/h
1173 22-01-2014 05:20:00 3.8 C 6.02 g/m*3 3.8 C 0 km/h
1174 22-01-2014 05:25:00 3.8 C 6.02 g/m*3 3.8 C 0 km/h
1175 22-01-2014 05:30:00 3.8 C 6.02 g/m*3 3.8 C 1.6 km/h
Sensor: Nr:Datum:Temp:Abs-Feuchte:Windchill:Wind:
Aussen-T/F 1176 22-01-2014 05:35:00 3.8 C 6.02 g/m*3 3.8 C 4.8 km/h
1177 22-01-2014 05:40:00 3.8 C 6.02 g/m*3 3.8 C 0 km/h
1178 22-01-2014 05:45:00 3.8 C 5.96 g/m*3 3.8 C 1.6 km/h
1179 22-01-2014 05:50:00 3.8 C 5.96 g/m*3 3.8 C 3.2 km/h
1180 22-01-2014 05:55:00 3.8 C 5.96 g/m*3 3.8 C 4.8 km/h
1181 22-01-2014 06:00:00 3.8 C 5.9 g/m*3 3.8 C 4.8 km/h
1182 22-01-2014 06:05:00 3.7 C 5.86 g/m*3 3.7 C 4.8 km/h
1183 22-01-2014 06:10:00 3.7 C 5.86 g/m*3 3.7 C 3.2 km/h
1184 22-01-2014 06:15:00 3.7 C 5.8 g/m*3 2.09 C 6.4 km/h
1185 22-01-2014 06:20:00 3.6 C 5.76 g/m*3 1.46 C 8.1 km/h
1186 22-01-2014 06:25:00 3.6 C 5.76 g/m*3 3.6 C 4.8 km/h
1187 22-01-2014 06:30:00 3.5 C 5.72 g/m*3 1.86 C 6.4 km/h
1188 22-01-2014 06:35:00 3.5 C 5.72 g/m*3 3.5 C 3.2 km/h
1189 22-01-2014 06:40:00 3.5 C 5.72 g/m*3 3.5 C 4.8 km/h
1190 22-01-2014 06:45:00 3.5 C 5.72 g/m*3 3.5 C 4.8 km/h
1191 22-01-2014 06:50:00 3.5 C 5.72 g/m*3 1.34 C 8.1 km/h
1192 22-01-2014 06:55:00 3.4 C 5.68 g/m*3 3.4 C 4.8 km/h
1193 22-01-2014 07:00:00 3.4 C 5.68 g/m*3 1.23 C 8.1 km/h
1194 22-01-2014 07:05:00 3.5 C 5.66 g/m*3 3.5 C 4.8 km/h
1195 22-01-2014 07:10:00 3.5 C 5.72 g/m*3 3.5 C 1.6 km/h
1196 22-01-2014 07:15:00 3.4 C 5.62 g/m*3 1.75 C 6.4 km/h
1197 22-01-2014 07:20:00 3.4 C 5.62 g/m*3 3.4 C 3.2 km/h
1198 22-01-2014 07:25:00 3.4 C 5.62 g/m*3 1.23 C 8.1 km/h
1199 22-01-2014 07:30:00 3.4 C 5.62 g/m*3 3.4 C 4.8 km/h
1200 22-01-2014 07:35:00 3.4 C 5.62 g/m*3 3.4 C 3.2 km/h
Sensor: Nr:Datum:Temp:Abs-Feuchte:Windchill:Wind:
Aussen-T/F 1201 22-01-2014 07:40:00 3.4 C 5.62 g/m*3 3.4 C 3.2 km/h
1202 22-01-2014 07:45:00 3.4 C 5.62 g/m*3 3.4 C 1.6 km/h
1203 22-01-2014 07:50:00 3.4 C 5.62 g/m*3 3.4 C 3.2 km/h
1204 22-01-2014 07:55:00 3.4 C 5.62 g/m*3 3.4 C 3.2 km/h
1205 22-01-2014 08:00:00 3.4 C 5.62 g/m*3 3.4 C 0 km/h
1206 22-01-2014 08:05:00 3.4 C 5.62 g/m*3 3.4 C 0 km/h
1207 22-01-2014 08:10:00 3.4 C 5.62 g/m*3 3.4 C 0 km/h
1208 22-01-2014 08:15:00 3.3 C 5.58 g/m*3 3.3 C 0 km/h
1209 22-01-2014 08:20:00 3.3 C 5.64 g/m*3 3.3 C 0 km/h
1210 22-01-2014 08:25:00 3.3 C 5.64 g/m*3 3.3 C 0 km/h
1211 22-01-2014 08:30:00 3.3 C 5.64 g/m*3 3.3 C 0 km/h
1212 22-01-2014 08:35:00 3.3 C 5.64 g/m*3 3.3 C 3.2 km/h
1213 22-01-2014 08:40:00 3.3 C 5.64 g/m*3 3.3 C 1.6 km/h
1214 22-01-2014 08:45:00 3.4 C 5.68 g/m*3 1.75 C 6.4 km/h
1215 22-01-2014 08:50:00 3.4 C 5.68 g/m*3 1.75 C 6.4 km/h
1216 22-01-2014 08:55:00 3.4 C 5.68 g/m*3 1.75 C 6.4 km/h
1217 22-01-2014 12:20:00 4.8 C 5.9 g/m*3 4.8 C 4.8 km/h
1218 22-01-2014 12:25:00 4.8 C 5.9 g/m*3 3.36 C 6.4 km/h
1219 22-01-2014 12:30:00 4.8 C 5.9 g/m*3 4.8 C 4.8 km/h
1220 22-01-2014 16:50:00 3.4 C 5.8 g/m*3 3.4 C 1.6 km/h
1221 22-01-2014 16:55:00 3.4 C 5.8 g/m*3 3.4 C 0 km/h
1222 22-01-2014 17:00:00 3.3 C 5.76 g/m*3 3.3 C 1.6 km/h
1223 22-01-2014 17:05:00 3.2 C 5.72 g/m*3 3.2 C 1.6 km/h
1224 22-01-2014 17:10:00 3.2 C 5.72 g/m*3 3.2 C 3.2 km/h
1225 22-01-2014 17:15:00 3.1 C 5.63 g/m*3 3.1 C 3.2 km/h
Sensor: Nr:Datum:Temp:Abs-Feuchte:Windchill:Wind:
Aussen-T/F 1226 22-01-2014 17:20:00 3.1 C 5.69 g/m*3 3.1 C 1.6 km/h
1227 22-01-2014 17:25:00 3 C 5.65 g/m*3 3 C 1.6 km/h
1228 22-01-2014 17:30:00 2.9 C 5.55 g/m*3 2.9 C 1.6 km/h
1229 22-01-2014 17:35:00 2.8 C 5.57 g/m*3 2.8 C 3.2 km/h
1230 22-01-2014 17:40:00 2.8 C 5.57 g/m*3 2.8 C 3.2 km/h
1231 22-01-2014 17:45:00 2.8 C 5.57 g/m*3 2.8 C 3.2 km/h
1232 22-01-2014 17:50:00 2.8 C 5.57 g/m*3 2.8 C 1.6 km/h
1233 22-01-2014 17:55:00 2.7 C 5.54 g/m*3 2.7 C 1.6 km/h
1234 22-01-2014 18:00:00 2.8 C 5.57 g/m*3 2.8 C 1.6 km/h
1235 22-01-2014 18:05:00 2.8 C 5.57 g/m*3 2.8 C 1.6 km/h
1236 22-01-2014 18:10:00 2.8 C 5.57 g/m*3 2.8 C 3.2 km/h
1237 22-01-2014 18:15:00 2.8 C 5.57 g/m*3 2.8 C 3.2 km/h
1238 22-01-2014 18:20:00 2.8 C 5.57 g/m*3 2.8 C 3.2 km/h
1239 22-01-2014 18:25:00 2.7 C 5.54 g/m*3 2.7 C 3.2 km/h
1240 22-01-2014 18:30:00 2.7 C 5.54 g/m*3 2.7 C 1.6 km/h
1241 22-01-2014 18:35:00 2.7 C 5.54 g/m*3 2.7 C 1.6 km/h
1242 22-01-2014 18:40:00 2.6 C 5.5 g/m*3 2.6 C 1.6 km/h
1243 22-01-2014 18:45:00 2.5 C 5.46 g/m*3 2.5 C 3.2 km/h
1244 22-01-2014 18:50:00 2.4 C 5.42 g/m*3 2.4 C 1.6 km/h
1245 22-01-2014 18:55:00 2.4 C 5.42 g/m*3 2.4 C 3.2 km/h
1246 22-01-2014 19:00:00 2.4 C 5.42 g/m*3 2.4 C 3.2 km/h
1247 22-01-2014 19:05:00 2.4 C 5.42 g/m*3 2.4 C 1.6 km/h
1248 22-01-2014 19:10:00 2.3 C 5.39 g/m*3 2.3 C 3.2 km/h
1249 22-01-2014 19:15:00 2.3 C 5.39 g/m*3 2.3 C 1.6 km/h
1250 22-01-2014 19:20:00 2.3 C 5.44 g/m*3 2.3 C 1.6 km/h
Sensor: Nr:Datum:Temp:Abs-Feuchte:Windchill:Wind:
Aussen-T/F 1251 22-01-2014 19:25:00 2.3 C 5.44 g/m*3 2.3 C 1.6 km/h
1252 22-01-2014 19:30:00 2.3 C 5.44 g/m*3 2.3 C 0 km/h
1253 22-01-2014 19:35:00 2.2 C 5.41 g/m*3 2.2 C 1.6 km/h
1254 22-01-2014 19:40:00 2.2 C 5.41 g/m*3 2.2 C 1.6 km/h
1255 22-01-2014 19:45:00 2.2 C 5.41 g/m*3 2.2 C 0 km/h
1256 22-01-2014 19:50:00 2.1 C 5.37 g/m*3 2.1 C 0 km/h
1257 22-01-2014 19:55:00 2 C 5.33 g/m*3 2 C 0 km/h
1258 22-01-2014 20:00:00 1.9 C 5.3 g/m*3 1.9 C 0 km/h
1259 22-01-2014 20:05:00 1.9 C 5.3 g/m*3 1.9 C 0 km/h
1260 22-01-2014 20:10:00 1.8 C 5.26 g/m*3 1.8 C 0 km/h
1261 22-01-2014 20:15:00 1.8 C 5.26 g/m*3 1.8 C 0 km/h
1262 22-01-2014 20:20:00 1.8 C 5.26 g/m*3 1.8 C 0 km/h
1263 22-01-2014 20:25:00 1.7 C 5.23 g/m*3 1.7 C 0 km/h
1264 22-01-2014 20:30:00 1.7 C 5.23 g/m*3 1.7 C 0 km/h
1265 22-01-2014 20:35:00 1.7 C 5.23 g/m*3 1.7 C 0 km/h
1266 22-01-2014 20:40:00 1.7 C 5.23 g/m*3 1.7 C 0 km/h
1267 22-01-2014 20:45:00 1.6 C 5.19 g/m*3 1.6 C 0 km/h
1268 22-01-2014 20:50:00 1.6 C 5.19 g/m*3 1.6 C 0 km/h
1269 22-01-2014 20:55:00 1.6 C 5.19 g/m*3 1.6 C 0 km/h
1270 22-01-2014 21:00:00 1.6 C 5.19 g/m*3 1.6 C 0 km/h
1271 22-01-2014 21:05:00 1.5 C 5.16 g/m*3 1.5 C 0 km/h
1272 22-01-2014 21:10:00 1.5 C 5.16 g/m*3 1.5 C 0 km/h
1273 22-01-2014 21:15:00 1.5 C 5.16 g/m*3 1.5 C 1.6 km/h
1274 22-01-2014 21:20:00 1.5 C 5.21 g/m*3 1.5 C 1.6 km/h
1275 22-01-2014 21:25:00 1.6 C 5.25 g/m*3 1.6 C 0 km/h
Sensor: Nr:Datum:Temp:Abs-Feuchte:Windchill:Wind:
Aussen-T/F 1276 22-01-2014 21:30:00 1.6 C 5.25 g/m*3 1.6 C 0 km/h
1277 22-01-2014 21:35:00 1.5 C 5.21 g/m*3 1.5 C 0 km/h
1278 22-01-2014 21:40:00 1.6 C 5.19 g/m*3 1.6 C 0 km/h
1279 22-01-2014 21:45:00 1.6 C 5.25 g/m*3 1.6 C 0 km/h
1280 22-01-2014 21:50:00 1.6 C 5.25 g/m*3 1.6 C 0 km/h
1281 22-01-2014 21:55:00 1.6 C 5.25 g/m*3 1.6 C 0 km/h
1282 22-01-2014 22:00:00 1.7 C 5.28 g/m*3 1.7 C 0 km/h
1283 22-01-2014 22:05:00 1.7 C 5.28 g/m*3 1.7 C 0 km/h
1284 22-01-2014 22:10:00 1.8 C 5.32 g/m*3 1.8 C 0 km/h
1285 22-01-2014 22:15:00 1.8 C 5.32 g/m*3 1.8 C 0 km/h
1286 22-01-2014 22:20:00 1.8 C 5.32 g/m*3 1.8 C 0 km/h
1287 22-01-2014 22:25:00 1.9 C 5.35 g/m*3 1.9 C 0 km/h
1288 22-01-2014 22:30:00 1.9 C 5.35 g/m*3 1.9 C 0 km/h
1289 22-01-2014 22:35:00 1.9 C 5.35 g/m*3 1.9 C 0 km/h
1290 22-01-2014 22:40:00 1.9 C 5.35 g/m*3 1.9 C 0 km/h
1291 23-01-2014 09:35:00 3.4 C 5.68 g/m*3 3.4 C 4.8 km/h
1292 23-01-2014 09:40:00 3.5 C 5.72 g/m*3 1.86 C 6.4 km/h
1293 23-01-2014 09:45:00 3.5 C 5.72 g/m*3 3.5 C 4.8 km/h
1294 23-01-2014 09:50:00 3.5 C 5.72 g/m*3 1.86 C 6.4 km/h
1295 23-01-2014 09:55:00 3.5 C 5.72 g/m*3 3.5 C 3.2 km/h
1296 23-01-2014 10:00:00 3.6 C 5.76 g/m*3 3.6 C 4.8 km/h
1297 23-01-2014 10:05:00 3.6 C 5.76 g/m*3 3.6 C 3.2 km/h
1298 23-01-2014 10:10:00 3.6 C 5.76 g/m*3 3.6 C 4.8 km/h
1299 23-01-2014 10:40:00 3.7 C 5.73 g/m*3 0.82 C 11.3 km/h
1300 23-01-2014 10:45:00 3.7 C 5.67 g/m*3 0.51 C 12.9 km/h
Sensor: Nr:Datum:Temp:Abs-Feuchte:Windchill:Wind:
Aussen-T/F 1301 23-01-2014 10:50:00 3.7 C 5.67 g/m*3 0.82 C 11.3 km/h
1302 23-01-2014 10:55:00 3.7 C 5.67 g/m*3 1.58 C 8.1 km/h
1303 23-01-2014 11:00:00 3.7 C 5.67 g/m*3 0.82 C 11.3 km/h
1304 23-01-2014 11:05:00 3.7 C 5.67 g/m*3 1.18 C 9.7 km/h
1305 23-01-2014 11:10:00 3.8 C 5.65 g/m*3 0.63 C 12.9 km/h
1306 23-01-2014 11:15:00 3.7 C 5.61 g/m*3 1.18 C 9.7 km/h
1307 23-01-2014 11:20:00 3.8 C 5.65 g/m*3 0.94 C 11.3 km/h
1308 23-01-2014 11:25:00 3.8 C 5.65 g/m*3 0.35 C 14.5 km/h
1309 23-01-2014 11:30:00 3.8 C 5.65 g/m*3 0.35 C 14.5 km/h
1310 23-01-2014 11:55:00 4.1 C 5.63 g/m*3 1 C 12.9 km/h
1311 23-01-2014 12:00:00 4.2 C 5.67 g/m*3 1.12 C 12.9 km/h
1312 23-01-2014 12:05:00 4.2 C 5.67 g/m*3 1.43 C 11.3 km/h
1313 23-01-2014 12:10:00 4.3 C 5.64 g/m*3 0.97 C 14.5 km/h
1314 23-01-2014 12:15:00 4.3 C 5.64 g/m*3 1.55 C 11.3 km/h
1315 23-01-2014 12:20:00 4.3 C 5.64 g/m*3 1.55 C 11.3 km/h
1316 23-01-2014 12:25:00 4.3 C 5.64 g/m*3 1.89 C 9.7 km/h
1317 23-01-2014 12:30:00 4.3 C 5.64 g/m*3 1.55 C 11.3 km/h
1318 23-01-2014 12:35:00 4.3 C 5.64 g/m*3 1.24 C 12.9 km/h
1319 23-01-2014 12:40:00 4.3 C 5.64 g/m*3 0.97 C 14.5 km/h
1320 23-01-2014 12:45:00 4.2 C 5.61 g/m*3 1.43 C 11.3 km/h
1321 23-01-2014 12:50:00 4.2 C 5.67 g/m*3 1.77 C 9.7 km/h
1322 23-01-2014 12:55:00 4.3 C 5.64 g/m*3 0.72 C 16.1 km/h
1323 23-01-2014 13:00:00 4.3 C 5.64 g/m*3 0.72 C 16.1 km/h
1324 23-01-2014 13:05:00 4.2 C 5.61 g/m*3 2.17 C 8.1 km/h
1325 23-01-2014 13:10:00 4.3 C 5.58 g/m*3 1.24 C 12.9 km/h
Sensor: Nr:Datum:Temp:Abs-Feuchte:Windchill:Wind:
Aussen-T/F 1326 23-01-2014 13:15:00 4.3 C 5.58 g/m*3 2.78 C 6.4 km/h
1327 23-01-2014 13:20:00 4.3 C 5.64 g/m*3 2.29 C 8.1 km/h
1328 23-01-2014 13:25:00 4.4 C 5.62 g/m*3 2.9 C 6.4 km/h
1329 23-01-2014 13:30:00 4.4 C 5.62 g/m*3 2.9 C 6.4 km/h
1330 23-01-2014 13:35:00 4.5 C 5.65 g/m*3 3.02 C 6.4 km/h
1331 23-01-2014 13:40:00 4.5 C 5.65 g/m*3 3.02 C 6.4 km/h
1332 23-01-2014 13:45:00 4.5 C 5.65 g/m*3 2.52 C 8.1 km/h
1333 23-01-2014 13:50:00 4.5 C 5.65 g/m*3 3.02 C 6.4 km/h
1334 23-01-2014 13:55:00 4.4 C 5.55 g/m*3 2.4 C 8.1 km/h
1335 23-01-2014 14:00:00 4.4 C 5.62 g/m*3 2.01 C 9.7 km/h
1336 23-01-2014 14:05:00 4.3 C 5.58 g/m*3 2.78 C 6.4 km/h
1337 23-01-2014 14:10:00 4.3 C 5.58 g/m*3 1.89 C 9.7 km/h
1338 23-01-2014 14:15:00 4.3 C 5.51 g/m*3 2.78 C 6.4 km/h
1339 23-01-2014 14:20:00 4.3 C 5.51 g/m*3 2.78 C 6.4 km/h
1340 23-01-2014 14:25:00 4.3 C 5.58 g/m*3 1.89 C 9.7 km/h
1341 23-01-2014 14:30:00 4.3 C 5.51 g/m*3 4.3 C 3.2 km/h
1342 23-01-2014 14:35:00 4.3 C 5.58 g/m*3 2.78 C 6.4 km/h
1343 23-01-2014 14:40:00 4.3 C 5.51 g/m*3 4.3 C 3.2 km/h
1344 23-01-2014 14:45:00 4.3 C 5.51 g/m*3 4.3 C 4.8 km/h
1345 23-01-2014 14:50:00 4.4 C 5.55 g/m*3 2.4 C 8.1 km/h
1346 23-01-2014 14:55:00 4.4 C 5.55 g/m*3 2.01 C 9.7 km/h
1347 23-01-2014 15:00:00 4.4 C 5.62 g/m*3 2.9 C 6.4 km/h
1348 23-01-2014 15:05:00 4.4 C 5.62 g/m*3 2.9 C 6.4 km/h
1349 23-01-2014 15:10:00 4.5 C 5.59 g/m*3 3.02 C 6.4 km/h
1350 23-01-2014 15:15:00 4.5 C 5.65 g/m*3 4.5 C 3.2 km/h
Sensor: Nr:Datum:Temp:Abs-Feuchte:Windchill:Wind:
Aussen-T/F 1351 23-01-2014 15:20:00 4.6 C 5.69 g/m*3 4.6 C 1.6 km/h
1352 23-01-2014 15:25:00 4.6 C 5.69 g/m*3 4.6 C 4.8 km/h
1353 23-01-2014 15:30:00 4.6 C 5.69 g/m*3 4.6 C 4.8 km/h
1354 23-01-2014 15:35:00 4.7 C 5.73 g/m*3 4.7 C 3.2 km/h
1355 23-01-2014 15:40:00 4.7 C 5.73 g/m*3 3.25 C 6.4 km/h
1356 23-01-2014 15:45:00 4.7 C 5.73 g/m*3 2.37 C 9.7 km/h
1357 23-01-2014 15:50:00 4.7 C 5.73 g/m*3 2.76 C 8.1 km/h
1358 23-01-2014 15:55:00 4.7 C 5.8 g/m*3 3.25 C 6.4 km/h
1359 23-01-2014 16:00:00 4.7 C 5.8 g/m*3 3.25 C 6.4 km/h
1360 23-01-2014 16:05:00 4.7 C 5.86 g/m*3 3.25 C 6.4 km/h
1361 23-01-2014 16:10:00 4.6 C 5.82 g/m*3 4.6 C 3.2 km/h
1362 23-01-2014 16:15:00 4.5 C 5.85 g/m*3 4.5 C 0 km/h
1363 23-01-2014 16:20:00 4.4 C 5.88 g/m*3 4.4 C 1.6 km/h
1364 23-01-2014 16:25:00 4.3 C 5.9 g/m*3 4.3 C 3.2 km/h
1365 23-01-2014 16:30:00 4.2 C 5.86 g/m*3 4.2 C 3.2 km/h
1366 23-01-2014 16:35:00 4.1 C 5.89 g/m*3 4.1 C 1.6 km/h
1367 23-01-2014 16:40:00 3.9 C 5.81 g/m*3 3.9 C 3.2 km/h
1368 23-01-2014 16:45:00 3.9 C 5.87 g/m*3 3.9 C 1.6 km/h
1369 23-01-2014 16:50:00 3.8 C 5.83 g/m*3 3.8 C 0 km/h
1370 23-01-2014 16:55:00 3.8 C 5.83 g/m*3 2.21 C 6.4 km/h
1371 23-01-2014 17:00:00 3.7 C 5.8 g/m*3 3.7 C 3.2 km/h
1372 23-01-2014 17:05:00 3.6 C 5.76 g/m*3 3.6 C 0 km/h
1373 23-01-2014 17:10:00 3.5 C 5.72 g/m*3 3.5 C 0 km/h
1374 23-01-2014 17:15:00 3.4 C 5.68 g/m*3 3.4 C 0 km/h
1375 23-01-2014 17:20:00 3.3 C 5.64 g/m*3 3.3 C 0 km/h
Sensor: Nr:Datum:Temp:Abs-Feuchte:Windchill:Wind:
Aussen-T/F 1376 23-01-2014 17:25:00 3.3 C 5.64 g/m*3 3.3 C 1.6 km/h
1377 23-01-2014 17:30:00 3.2 C 5.66 g/m*3 3.2 C 0 km/h
1378 23-01-2014 17:35:00 3.2 C 5.66 g/m*3 3.2 C 0 km/h
1379 23-01-2014 17:40:00 3.1 C 5.63 g/m*3 3.1 C 0 km/h
1380 23-01-2014 17:45:00 3.1 C 5.63 g/m*3 3.1 C 0 km/h
1381 23-01-2014 17:50:00 3 C 5.65 g/m*3 3 C 0 km/h
1382 23-01-2014 17:55:00 3 C 5.65 g/m*3 3 C 0 km/h
1383 23-01-2014 18:00:00 2.9 C 5.61 g/m*3 2.9 C 0 km/h
1384 23-01-2014 18:05:00 2.9 C 5.61 g/m*3 2.9 C 0 km/h
1385 23-01-2014 18:10:00 2.8 C 5.57 g/m*3 2.8 C 0 km/h
1386 23-01-2014 18:15:00 2.8 C 5.57 g/m*3 2.8 C 0 km/h
1387 23-01-2014 18:20:00 2.8 C 5.57 g/m*3 2.8 C 0 km/h
1388 23-01-2014 18:25:00 2.8 C 5.57 g/m*3 2.8 C 0 km/h
1389 23-01-2014 18:30:00 2.8 C 5.63 g/m*3 2.8 C 0 km/h
1390 23-01-2014 18:35:00 2.8 C 5.63 g/m*3 2.8 C 0 km/h
1391 23-01-2014 18:40:00 2.8 C 5.63 g/m*3 2.8 C 0 km/h
1392 23-01-2014 18:45:00 2.8 C 5.63 g/m*3 2.8 C 0 km/h
1393 23-01-2014 18:50:00 2.9 C 5.67 g/m*3 2.9 C 1.6 km/h
1394 23-01-2014 18:55:00 2.9 C 5.67 g/m*3 2.9 C 1.6 km/h
1395 23-01-2014 19:00:00 3 C 5.71 g/m*3 3 C 4.8 km/h
1396 23-01-2014 19:05:00 3.1 C 5.75 g/m*3 3.1 C 0 km/h
1397 23-01-2014 19:10:00 3.1 C 5.75 g/m*3 3.1 C 1.6 km/h
1398 23-01-2014 19:15:00 3.1 C 5.75 g/m*3 3.1 C 0 km/h
1399 23-01-2014 19:20:00 3.1 C 5.75 g/m*3 3.1 C 0 km/h
1400 23-01-2014 19:25:00 3.1 C 5.75 g/m*3 3.1 C 1.6 km/h
Sensor: Nr:Datum:Temp:Abs-Feuchte:Windchill:Wind:
Aussen-T/F 1401 23-01-2014 19:30:00 3.2 C 5.85 g/m*3 3.2 C 0 km/h
1402 23-01-2014 19:35:00 3.2 C 5.85 g/m*3 3.2 C 0 km/h
1403 23-01-2014 19:40:00 3.2 C 5.85 g/m*3 3.2 C 0 km/h
1404 23-01-2014 19:45:00 3.2 C 5.85 g/m*3 3.2 C 0 km/h
1405 23-01-2014 19:50:00 3.2 C 5.85 g/m*3 3.2 C 0 km/h
1406 23-01-2014 19:55:00 3.2 C 5.85 g/m*3 3.2 C 0 km/h
1407 23-01-2014 20:00:00 3.3 C 5.88 g/m*3 3.3 C 0 km/h
1408 23-01-2014 20:05:00 3.3 C 5.88 g/m*3 3.3 C 1.6 km/h
1409 23-01-2014 20:10:00 3.3 C 5.88 g/m*3 3.3 C 0 km/h
1410 23-01-2014 20:15:00 3.3 C 5.88 g/m*3 3.3 C 1.6 km/h
1411 23-01-2014 20:20:00 3.3 C 5.88 g/m*3 3.3 C 0 km/h
1412 23-01-2014 20:25:00 3.3 C 5.88 g/m*3 3.3 C 0 km/h
1413 23-01-2014 20:30:00 3.3 C 5.88 g/m*3 3.3 C 0 km/h
1414 23-01-2014 20:35:00 3.3 C 5.88 g/m*3 3.3 C 4.8 km/h
1415 23-01-2014 20:40:00 3.3 C 5.88 g/m*3 3.3 C 3.2 km/h
1416 23-01-2014 20:45:00 3.3 C 5.88 g/m*3 3.3 C 0 km/h
1417 23-01-2014 20:50:00 3.3 C 5.88 g/m*3 3.3 C 1.6 km/h
1418 23-01-2014 20:55:00 3.3 C 5.88 g/m*3 3.3 C 0 km/h
1419 23-01-2014 21:00:00 3.3 C 5.88 g/m*3 3.3 C 0 km/h
1420 23-01-2014 21:05:00 3.3 C 5.88 g/m*3 3.3 C 0 km/h
1421 23-01-2014 21:10:00 3.3 C 5.88 g/m*3 3.3 C 0 km/h
1422 23-01-2014 21:15:00 3.3 C 5.88 g/m*3 3.3 C 0 km/h
1423 23-01-2014 21:20:00 3.3 C 5.88 g/m*3 3.3 C 0 km/h
1424 23-01-2014 21:25:00 3.3 C 5.88 g/m*3 3.3 C 0 km/h
1425 23-01-2014 21:30:00 3.4 C 5.92 g/m*3 3.4 C 0 km/h
Sensor: Nr:Datum:Temp:Abs-Feuchte:Windchill:Wind:
Aussen-T/F 1426 23-01-2014 21:35:00 3.4 C 5.92 g/m*3 3.4 C 0 km/h
1427 23-01-2014 21:40:00 3.4 C 5.92 g/m*3 3.4 C 0 km/h
1428 23-01-2014 21:45:00 3.4 C 5.92 g/m*3 3.4 C 0 km/h
1429 23-01-2014 21:50:00 3.4 C 5.92 g/m*3 3.4 C 0 km/h
1430 23-01-2014 21:55:00 3.4 C 5.92 g/m*3 3.4 C 0 km/h
1431 23-01-2014 22:00:00 3.4 C 5.92 g/m*3 3.4 C 0 km/h
1432 23-01-2014 22:05:00 3.5 C 5.96 g/m*3 3.5 C 0 km/h
1433 23-01-2014 22:10:00 3.5 C 5.96 g/m*3 3.5 C 1.6 km/h
1434 23-01-2014 22:15:00 3.5 C 5.96 g/m*3 3.5 C 0 km/h
1435 23-01-2014 22:20:00 3.5 C 5.96 g/m*3 3.5 C 1.6 km/h
1436 23-01-2014 22:25:00 3.5 C 5.96 g/m*3 3.5 C 0 km/h
1437 23-01-2014 22:30:00 3.6 C 6 g/m*3 3.6 C 0 km/h
1438 23-01-2014 22:35:00 3.6 C 6 g/m*3 3.6 C 0 km/h
1439 23-01-2014 22:40:00 3.6 C 6 g/m*3 3.6 C 0 km/h
1440 23-01-2014 22:45:00 3.6 C 6 g/m*3 3.6 C 0 km/h
1441 23-01-2014 22:50:00 3.6 C 6 g/m*3 3.6 C 0 km/h
1442 23-01-2014 22:55:00 3.6 C 6 g/m*3 3.6 C 0 km/h
1443 23-01-2014 23:00:00 3.6 C 6 g/m*3 3.6 C 0 km/h
1444 23-01-2014 23:05:00 3.6 C 6 g/m*3 3.6 C 0 km/h
1445 23-01-2014 23:10:00 3.6 C 6 g/m*3 3.6 C 0 km/h
1446 23-01-2014 23:15:00 3.6 C 6 g/m*3 3.6 C 0 km/h
1447 23-01-2014 23:20:00 3.6 C 6 g/m*3 3.6 C 0 km/h
1448 23-01-2014 23:25:00 3.6 C 6 g/m*3 3.6 C 0 km/h
1449 23-01-2014 23:30:00 3.6 C 6 g/m*3 3.6 C 0 km/h
1450 23-01-2014 23:35:00 3.6 C 6 g/m*3 3.6 C 0 km/h
Sensor: Nr:Datum:Temp:Abs-Feuchte:Windchill:Wind:
Aussen-T/F 1451 23-01-2014 23:40:00 3.6 C 6 g/m*3 3.6 C 1.6 km/h
1452 23-01-2014 23:45:00 3.6 C 6 g/m*3 3.6 C 0 km/h
1453 23-01-2014 23:50:00 3.6 C 6 g/m*3 3.6 C 0 km/h
1454 23-01-2014 23:55:00 3.5 C 5.96 g/m*3 3.5 C 4.8 km/h
1455 24-01-2014 00:00:00 3.4 C 5.92 g/m*3 1.23 C 8.1 km/h
1456 24-01-2014 00:05:00 3.3 C 5.88 g/m*3 3.3 C 3.2 km/h
1457 24-01-2014 00:10:00 3.3 C 5.88 g/m*3 3.3 C 3.2 km/h
1458 24-01-2014 00:15:00 3.2 C 5.79 g/m*3 1.51 C 6.4 km/h
1459 24-01-2014 00:20:00 3.1 C 5.75 g/m*3 3.1 C 3.2 km/h
1460 24-01-2014 00:25:00 3.1 C 5.75 g/m*3 3.1 C 4.8 km/h
1461 24-01-2014 00:30:00 3 C 5.71 g/m*3 1.28 C 6.4 km/h
1462 24-01-2014 00:35:00 2.9 C 5.67 g/m*3 0.64 C 8.1 km/h
1463 24-01-2014 00:40:00 2.8 C 5.63 g/m*3 0.52 C 8.1 km/h
1464 24-01-2014 00:45:00 2.8 C 5.63 g/m*3 2.8 C 4.8 km/h
1465 24-01-2014 00:50:00 2.9 C 5.67 g/m*3 1.17 C 6.4 km/h
1466 24-01-2014 00:55:00 2.9 C 5.67 g/m*3 2.9 C 4.8 km/h
1467 24-01-2014 01:00:00 2.9 C 5.67 g/m*3 2.9 C 3.2 km/h
1468 24-01-2014 01:05:00 2.9 C 5.67 g/m*3 2.9 C 1.6 km/h
1469 24-01-2014 01:10:00 2.9 C 5.67 g/m*3 2.9 C 4.8 km/h
1470 24-01-2014 01:15:00 2.9 C 5.67 g/m*3 2.9 C 1.6 km/h
1471 24-01-2014 01:20:00 2.9 C 5.67 g/m*3 2.9 C 3.2 km/h
1472 24-01-2014 01:25:00 2.9 C 5.67 g/m*3 2.9 C 3.2 km/h
1473 24-01-2014 01:30:00 3 C 5.71 g/m*3 3 C 4.8 km/h
1474 24-01-2014 01:35:00 3.1 C 5.75 g/m*3 3.1 C 3.2 km/h
1475 24-01-2014 01:40:00 3.1 C 5.75 g/m*3 3.1 C 3.2 km/h
Sensor: Nr:Datum:Temp:Abs-Feuchte:Windchill:Wind:
Aussen-T/F 1476 24-01-2014 01:45:00 3.2 C 5.79 g/m*3 3.2 C 3.2 km/h
1477 24-01-2014 01:50:00 3.2 C 5.79 g/m*3 3.2 C 4.8 km/h
1478 24-01-2014 01:55:00 3.3 C 5.82 g/m*3 3.3 C 3.2 km/h
1479 24-01-2014 02:00:00 3.3 C 5.82 g/m*3 1.63 C 6.4 km/h
1480 24-01-2014 02:05:00 3.4 C 5.86 g/m*3 1.23 C 8.1 km/h
1481 24-01-2014 02:10:00 3.5 C 5.9 g/m*3 3.5 C 4.8 km/h
1482 24-01-2014 02:15:00 3.6 C 5.94 g/m*3 1.98 C 6.4 km/h
1483 24-01-2014 02:20:00 3.7 C 5.98 g/m*3 0.51 C 12.9 km/h
1484 24-01-2014 02:25:00 3.8 C 5.96 g/m*3 0.94 C 11.3 km/h
1485 24-01-2014 02:30:00 3.9 C 6 g/m*3 2.32 C 6.4 km/h
1486 24-01-2014 02:35:00 4 C 5.98 g/m*3 1.18 C 11.3 km/h
1487 24-01-2014 02:40:00 4.2 C 6.06 g/m*3 0.15 C 19.3 km/h
1488 24-01-2014 02:45:00 4.2 C 5.99 g/m*3 0.15 C 19.3 km/h
1489 24-01-2014 02:50:00 4.3 C 5.97 g/m*3 1.89 C 9.7 km/h
1490 24-01-2014 02:55:00 4.3 C 5.97 g/m*3 4.3 C 4.8 km/h
1491 24-01-2014 03:00:00 4.3 C 6.03 g/m*3 2.78 C 6.4 km/h
1492 24-01-2014 03:05:00 4.3 C 6.03 g/m*3 2.78 C 6.4 km/h
1493 24-01-2014 03:10:00 4.3 C 5.97 g/m*3 2.29 C 8.1 km/h
1494 24-01-2014 03:15:00 4.3 C 6.03 g/m*3 4.3 C 0 km/h
1495 24-01-2014 03:20:00 4.2 C 5.99 g/m*3 2.17 C 8.1 km/h
1496 24-01-2014 03:25:00 4.2 C 5.99 g/m*3 4.2 C 3.2 km/h
1497 24-01-2014 03:30:00 4.2 C 5.99 g/m*3 2.67 C 6.4 km/h
1498 24-01-2014 03:35:00 4.2 C 5.99 g/m*3 2.17 C 8.1 km/h
1499 24-01-2014 03:40:00 4.2 C 5.93 g/m*3 0.84 C 14.5 km/h
1500 24-01-2014 03:45:00 4.2 C 5.93 g/m*3 2.17 C 8.1 km/h
Sensor: Nr:Datum:Temp:Abs-Feuchte:Windchill:Wind:
Aussen-T/F 1501 24-01-2014 03:50:00 4.3 C 5.97 g/m*3 1.89 C 9.7 km/h
1502 24-01-2014 03:55:00 4.3 C 5.97 g/m*3 2.29 C 8.1 km/h
1503 24-01-2014 04:00:00 4.3 C 5.97 g/m*3 4.3 C 4.8 km/h
1504 24-01-2014 04:05:00 4.3 C 5.97 g/m*3 4.3 C 4.8 km/h
1505 24-01-2014 04:10:00 4.3 C 5.97 g/m*3 4.3 C 4.8 km/h
1506 24-01-2014 04:15:00 4.3 C 6.03 g/m*3 4.3 C 3.2 km/h
1507 24-01-2014 04:20:00 4.3 C 6.03 g/m*3 2.78 C 6.4 km/h
1508 24-01-2014 04:25:00 4.3 C 5.97 g/m*3 2.78 C 6.4 km/h
1509 24-01-2014 04:30:00 4.3 C 5.97 g/m*3 2.78 C 6.4 km/h
1510 24-01-2014 04:35:00 4.3 C 5.97 g/m*3 2.29 C 8.1 km/h
1511 24-01-2014 04:40:00 4.3 C 5.97 g/m*3 4.3 C 4.8 km/h
1512 24-01-2014 04:45:00 4.3 C 5.9 g/m*3 4.3 C 4.8 km/h
1513 24-01-2014 04:50:00 4.3 C 5.9 g/m*3 2.78 C 6.4 km/h
1514 24-01-2014 04:55:00 4.3 C 5.9 g/m*3 4.3 C 4.8 km/h
1515 24-01-2014 05:00:00 4.3 C 5.9 g/m*3 2.78 C 6.4 km/h
1516 24-01-2014 05:05:00 4.4 C 5.94 g/m*3 4.4 C 4.8 km/h
1517 24-01-2014 05:10:00 4.4 C 5.94 g/m*3 2.01 C 9.7 km/h
1518 24-01-2014 05:15:00 4.3 C 5.9 g/m*3 2.78 C 6.4 km/h
1519 24-01-2014 05:20:00 4.3 C 5.9 g/m*3 2.78 C 6.4 km/h
1520 24-01-2014 05:25:00 4.3 C 5.9 g/m*3 4.3 C 4.8 km/h
1521 24-01-2014 05:30:00 4.3 C 5.97 g/m*3 4.3 C 3.2 km/h
1522 24-01-2014 05:35:00 4.2 C 5.93 g/m*3 4.2 C 3.2 km/h
1523 24-01-2014 05:40:00 4.2 C 5.93 g/m*3 2.67 C 6.4 km/h
1524 24-01-2014 05:45:00 4.2 C 5.93 g/m*3 4.2 C 4.8 km/h
1525 24-01-2014 05:50:00 4.3 C 5.9 g/m*3 2.29 C 8.1 km/h
Sensor: Nr:Datum:Temp:Abs-Feuchte:Windchill:Wind:
Aussen-T/F 1526 24-01-2014 05:55:00 4.3 C 5.9 g/m*3 4.3 C 4.8 km/h
1527 24-01-2014 06:00:00 4.3 C 5.9 g/m*3 2.78 C 6.4 km/h
1528 24-01-2014 06:05:00 4.3 C 5.9 g/m*3 2.78 C 6.4 km/h
1529 24-01-2014 06:10:00 4.3 C 5.9 g/m*3 2.78 C 6.4 km/h
1530 24-01-2014 06:15:00 4.4 C 5.94 g/m*3 4.4 C 4.8 km/h
1531 24-01-2014 06:20:00 4.4 C 5.94 g/m*3 2.9 C 6.4 km/h
1532 24-01-2014 06:25:00 4.3 C 5.9 g/m*3 4.3 C 4.8 km/h
1533 24-01-2014 06:30:00 4.3 C 5.9 g/m*3 2.29 C 8.1 km/h
1534 24-01-2014 06:35:00 4.2 C 5.86 g/m*3 4.2 C 4.8 km/h
1535 24-01-2014 06:40:00 4.2 C 5.86 g/m*3 4.2 C 4.8 km/h
1536 24-01-2014 06:45:00 4.2 C 5.86 g/m*3 2.17 C 8.1 km/h
1537 24-01-2014 06:50:00 4.2 C 5.86 g/m*3 2.17 C 8.1 km/h
1538 24-01-2014 06:55:00 4.2 C 5.93 g/m*3 2.17 C 8.1 km/h
1539 24-01-2014 07:00:00 4.2 C 5.93 g/m*3 4.2 C 4.8 km/h
1540 24-01-2014 07:05:00 4.1 C 5.89 g/m*3 2.55 C 6.4 km/h
1541 24-01-2014 07:10:00 4 C 5.85 g/m*3 2.44 C 6.4 km/h
1542 24-01-2014 07:15:00 3.9 C 5.81 g/m*3 3.9 C 3.2 km/h
1543 24-01-2014 07:20:00 3.8 C 5.77 g/m*3 3.8 C 4.8 km/h
1544 24-01-2014 07:25:00 3.7 C 5.73 g/m*3 3.7 C 4.8 km/h
1545 24-01-2014 07:30:00 3.7 C 5.73 g/m*3 3.7 C 4.8 km/h
1546 24-01-2014 07:35:00 3.7 C 5.73 g/m*3 3.7 C 3.2 km/h
1547 24-01-2014 07:40:00 3.7 C 5.8 g/m*3 3.7 C 4.8 km/h
1548 24-01-2014 07:45:00 3.7 C 5.8 g/m*3 3.7 C 3.2 km/h
1549 24-01-2014 07:50:00 3.7 C 5.8 g/m*3 3.7 C 3.2 km/h
1550 24-01-2014 07:55:00 3.7 C 5.8 g/m*3 3.7 C 3.2 km/h
Sensor: Nr:Datum:Temp:Abs-Feuchte:Windchill:Wind:
Aussen-T/F 1551 24-01-2014 08:00:00 3.7 C 5.8 g/m*3 3.7 C 3.2 km/h
1552 24-01-2014 08:05:00 3.7 C 5.73 g/m*3 3.7 C 3.2 km/h
1553 24-01-2014 08:10:00 3.8 C 5.77 g/m*3 3.8 C 4.8 km/h
1554 24-01-2014 08:15:00 3.8 C 5.77 g/m*3 3.8 C 4.8 km/h
1555 24-01-2014 08:20:00 3.8 C 5.77 g/m*3 3.8 C 1.6 km/h
1556 24-01-2014 08:25:00 3.8 C 5.77 g/m*3 3.8 C 4.8 km/h
1557 24-01-2014 08:30:00 3.8 C 5.77 g/m*3 3.8 C 3.2 km/h
1558 24-01-2014 08:35:00 3.8 C 5.77 g/m*3 3.8 C 3.2 km/h
1559 24-01-2014 08:40:00 3.9 C 5.75 g/m*3 1.41 C 9.7 km/h
1560 24-01-2014 08:45:00 3.9 C 5.75 g/m*3 2.32 C 6.4 km/h
1561 24-01-2014 08:50:00 4 C 5.72 g/m*3 4 C 4.8 km/h
1562 24-01-2014 08:55:00 4 C 5.72 g/m*3 4 C 1.6 km/h
1563 24-01-2014 09:00:00 4 C 5.79 g/m*3 4 C 0 km/h
1564 24-01-2014 09:05:00 4 C 5.72 g/m*3 4 C 0 km/h
1565 24-01-2014 09:10:00 4 C 5.79 g/m*3 4 C 1.6 km/h
1566 24-01-2014 09:15:00 3.9 C 5.75 g/m*3 3.9 C 4.8 km/h
1567 24-01-2014 09:20:00 3.9 C 5.75 g/m*3 3.9 C 0 km/h
1568 24-01-2014 09:25:00 3.9 C 5.87 g/m*3 3.9 C 0 km/h
1569 24-01-2014 09:30:00 3.9 C 5.87 g/m*3 3.9 C 0 km/h
1570 24-01-2014 09:35:00 3.9 C 5.87 g/m*3 3.9 C 0 km/h
1571 24-01-2014 09:40:00 3.9 C 5.87 g/m*3 3.9 C 0 km/h
1572 24-01-2014 09:45:00 3.9 C 5.87 g/m*3 3.9 C 3.2 km/h
1573 24-01-2014 09:50:00 4 C 5.91 g/m*3 4 C 0 km/h
1574 24-01-2014 09:55:00 4.1 C 5.95 g/m*3 4.1 C 1.6 km/h
1575 24-01-2014 10:00:00 4.1 C 5.95 g/m*3 4.1 C 1.6 km/h
Sensor: Nr:Datum:Temp:Abs-Feuchte:Windchill:Wind:
Aussen-T/F 1576 24-01-2014 10:05:00 4.1 C 5.95 g/m*3 4.1 C 3.2 km/h
1577 24-01-2014 10:10:00 4.1 C 5.95 g/m*3 4.1 C 1.6 km/h
1578 24-01-2014 10:15:00 4.2 C 5.86 g/m*3 4.2 C 3.2 km/h
1579 24-01-2014 10:20:00 4.3 C 5.9 g/m*3 4.3 C 1.6 km/h
1580 24-01-2014 10:25:00 4.3 C 5.9 g/m*3 4.3 C 0 km/h
1581 24-01-2014 10:30:00 4.3 C 5.97 g/m*3 4.3 C 0 km/h
1582 24-01-2014 10:35:00 4.3 C 5.97 g/m*3 4.3 C 0 km/h
1583 24-01-2014 10:40:00 4.3 C 6.03 g/m*3 4.3 C 0 km/h
1584 24-01-2014 10:45:00 4.3 C 6.03 g/m*3 4.3 C 0 km/h
1585 24-01-2014 10:50:00 4.3 C 6.03 g/m*3 4.3 C 0 km/h
1586 24-01-2014 12:40:00 4.8 C 5.97 g/m*3 4.8 C 3.2 km/h
1587 24-01-2014 12:45:00 4.8 C 5.97 g/m*3 4.8 C 3.2 km/h
1588 24-01-2014 12:50:00 4.8 C 5.97 g/m*3 4.8 C 0 km/h
1589 24-01-2014 12:55:00 4.8 C 6.04 g/m*3 4.8 C 0 km/h
1590 24-01-2014 13:00:00 4.8 C 6.04 g/m*3 4.8 C 3.2 km/h
1591 24-01-2014 13:05:00 4.8 C 6.04 g/m*3 4.8 C 1.6 km/h
1592 24-01-2014 13:10:00 4.8 C 6.04 g/m*3 4.8 C 0 km/h
1593 24-01-2014 14:40:00 4.7 C 6 g/m*3 4.7 C 0 km/h
1594 24-01-2014 14:45:00 4.7 C 6 g/m*3 4.7 C 1.6 km/h
1595 24-01-2014 14:50:00 4.7 C 6 g/m*3 4.7 C 1.6 km/h
1596 24-01-2014 14:55:00 4.7 C 6 g/m*3 4.7 C 1.6 km/h
1597 24-01-2014 15:00:00 4.7 C 6 g/m*3 4.7 C 0 km/h
1598 24-01-2014 15:05:00 4.7 C 6 g/m*3 4.7 C 0 km/h
1599 24-01-2014 15:10:00 4.7 C 6 g/m*3 4.7 C 3.2 km/h
1600 24-01-2014 15:15:00 4.7 C 6 g/m*3 4.7 C 3.2 km/h
Sensor: Nr:Datum:Temp:Abs-Feuchte:Windchill:Wind:
Aussen-T/F 1601 24-01-2014 15:20:00 4.7 C 6 g/m*3 4.7 C 3.2 km/h
1602 24-01-2014 17:35:00 4.1 C 6.08 g/m*3 4.1 C 0 km/h
1603 24-01-2014 17:40:00 4.1 C 6.08 g/m*3 4.1 C 0 km/h
1604 24-01-2014 17:45:00 4.1 C 6.08 g/m*3 4.1 C 0 km/h
1605 24-01-2014 17:50:00 4.1 C 6.08 g/m*3 4.1 C 0 km/h
1606 24-01-2014 17:55:00 4.1 C 6.08 g/m*3 4.1 C 1.6 km/h
1607 24-01-2014 18:00:00 4.1 C 6.08 g/m*3 4.1 C 0 km/h
1608 24-01-2014 18:05:00 4.1 C 6.08 g/m*3 4.1 C 0 km/h
1609 24-01-2014 18:10:00 4.1 C 6.08 g/m*3 4.1 C 0 km/h
1610 24-01-2014 18:15:00 4.1 C 6.08 g/m*3 4.1 C 0 km/h
1611 24-01-2014 18:20:00 4.1 C 6.08 g/m*3 4.1 C 0 km/h
1612 24-01-2014 18:25:00 4.1 C 6.08 g/m*3 4.1 C 0 km/h
1613 24-01-2014 18:30:00 4.1 C 6.08 g/m*3 4.1 C 0 km/h
1614 24-01-2014 18:35:00 4.1 C 6.08 g/m*3 4.1 C 0 km/h
1615 24-01-2014 18:40:00 4.1 C 6.08 g/m*3 4.1 C 0 km/h
1616 24-01-2014 18:45:00 4.1 C 6.08 g/m*3 4.1 C 0 km/h
1617 24-01-2014 18:50:00 4.1 C 6.08 g/m*3 4.1 C 0 km/h
1618 24-01-2014 18:55:00 4.1 C 6.08 g/m*3 4.1 C 0 km/h
1619 24-01-2014 19:00:00 4 C 6.04 g/m*3 4 C 0 km/h
1620 24-01-2014 19:05:00 4 C 6.04 g/m*3 4 C 0 km/h
1621 24-01-2014 19:10:00 4 C 6.04 g/m*3 4 C 0 km/h
1622 24-01-2014 19:15:00 4 C 6.04 g/m*3 4 C 0 km/h
1623 24-01-2014 19:20:00 4 C 6.04 g/m*3 4 C 0 km/h
1624 24-01-2014 19:25:00 3.9 C 6 g/m*3 3.9 C 0 km/h
1625 24-01-2014 19:30:00 3.9 C 6 g/m*3 3.9 C 0 km/h
Sensor: Nr:Datum:Temp:Abs-Feuchte:Windchill:Wind:
Aussen-T/F 1626 24-01-2014 19:35:00 3.9 C 6 g/m*3 3.9 C 0 km/h
1627 24-01-2014 19:40:00 3.9 C 6 g/m*3 3.9 C 0 km/h
1628 24-01-2014 19:45:00 3.9 C 6 g/m*3 3.9 C 0 km/h
1629 24-01-2014 19:50:00 3.9 C 6 g/m*3 3.9 C 0 km/h
1630 24-01-2014 19:55:00 3.9 C 6 g/m*3 3.9 C 0 km/h
1631 24-01-2014 20:00:00 3.9 C 6 g/m*3 3.9 C 0 km/h
1632 24-01-2014 20:05:00 3.9 C 6 g/m*3 3.9 C 0 km/h
1633 24-01-2014 20:10:00 3.9 C 6 g/m*3 3.9 C 0 km/h
1634 24-01-2014 20:15:00 3.9 C 6 g/m*3 3.9 C 0 km/h
1635 24-01-2014 20:20:00 3.9 C 6 g/m*3 3.9 C 0 km/h
1636 24-01-2014 20:25:00 3.9 C 6 g/m*3 3.9 C 0 km/h
1637 24-01-2014 20:30:00 3.9 C 6 g/m*3 3.9 C 0 km/h
1638 24-01-2014 20:35:00 3.8 C 5.96 g/m*3 3.8 C 0 km/h
1639 24-01-2014 20:40:00 3.8 C 5.96 g/m*3 3.8 C 0 km/h
1640 24-01-2014 20:45:00 3.8 C 6.02 g/m*3 3.8 C 0 km/h
1641 24-01-2014 20:50:00 3.8 C 6.02 g/m*3 3.8 C 0 km/h
1642 24-01-2014 20:55:00 3.8 C 6.02 g/m*3 3.8 C 0 km/h
1643 24-01-2014 21:00:00 3.8 C 6.02 g/m*3 3.8 C 0 km/h
1644 24-01-2014 21:05:00 3.7 C 5.92 g/m*3 3.7 C 0 km/h
1645 24-01-2014 21:10:00 3.7 C 5.92 g/m*3 3.7 C 0 km/h
1646 24-01-2014 21:15:00 3.7 C 5.92 g/m*3 3.7 C 0 km/h
1647 24-01-2014 21:20:00 3.7 C 5.98 g/m*3 3.7 C 0 km/h
1648 24-01-2014 21:25:00 3.7 C 5.98 g/m*3 3.7 C 0 km/h
1649 24-01-2014 21:30:00 3.7 C 5.98 g/m*3 3.7 C 0 km/h
1650 24-01-2014 21:35:00 3.6 C 5.94 g/m*3 3.6 C 0 km/h
Sensor: Nr:Datum:Temp:Abs-Feuchte:Windchill:Wind:
Aussen-T/F 1651 24-01-2014 21:40:00 3.6 C 5.88 g/m*3 3.6 C 0 km/h
1652 24-01-2014 21:45:00 3.6 C 5.94 g/m*3 3.6 C 0 km/h
1653 24-01-2014 21:50:00 3.6 C 5.94 g/m*3 3.6 C 0 km/h
1654 24-01-2014 21:55:00 3.6 C 5.94 g/m*3 3.6 C 0 km/h
1655 24-01-2014 22:00:00 3.6 C 5.94 g/m*3 3.6 C 0 km/h
1656 24-01-2014 22:05:00 3.6 C 5.94 g/m*3 3.6 C 0 km/h
1657 24-01-2014 22:10:00 3.6 C 5.94 g/m*3 3.6 C 0 km/h
1658 24-01-2014 22:15:00 3.6 C 5.94 g/m*3 3.6 C 0 km/h
1659 24-01-2014 22:20:00 3.5 C 5.9 g/m*3 3.5 C 0 km/h
1660 24-01-2014 22:25:00 3.5 C 5.9 g/m*3 3.5 C 0 km/h
1661 24-01-2014 22:30:00 3.5 C 5.9 g/m*3 3.5 C 0 km/h
1662 24-01-2014 22:35:00 3.5 C 5.9 g/m*3 3.5 C 0 km/h
1663 24-01-2014 22:40:00 3.4 C 5.86 g/m*3 3.4 C 0 km/h
1664 24-01-2014 22:45:00 3.4 C 5.86 g/m*3 3.4 C 0 km/h
1665 24-01-2014 22:50:00 3.4 C 5.86 g/m*3 3.4 C 0 km/h
1666 24-01-2014 22:55:00 3.4 C 5.86 g/m*3 3.4 C 0 km/h
1667 24-01-2014 23:00:00 3.4 C 5.86 g/m*3 3.4 C 0 km/h
1668 24-01-2014 23:05:00 3.4 C 5.86 g/m*3 3.4 C 0 km/h
1669 24-01-2014 23:10:00 3.3 C 5.82 g/m*3 3.3 C 0 km/h
1670 24-01-2014 23:15:00 3.3 C 5.82 g/m*3 3.3 C 0 km/h
1671 24-01-2014 23:20:00 3.2 C 5.79 g/m*3 3.2 C 0 km/h
1672 24-01-2014 23:25:00 3.2 C 5.79 g/m*3 3.2 C 0 km/h
1673 24-01-2014 23:30:00 3.2 C 5.79 g/m*3 3.2 C 0 km/h
1674 24-01-2014 23:35:00 3.1 C 5.75 g/m*3 3.1 C 0 km/h
1675 24-01-2014 23:40:00 3.1 C 5.75 g/m*3 3.1 C 0 km/h
Sensor: Nr:Datum:Temp:Abs-Feuchte:Windchill:Wind:
Aussen-T/F 1676 24-01-2014 23:45:00 3.1 C 5.75 g/m*3 3.1 C 0 km/h
1677 24-01-2014 23:50:00 3.1 C 5.75 g/m*3 3.1 C 0 km/h
1678 24-01-2014 23:55:00 3.1 C 5.75 g/m*3 3.1 C 0 km/h
1679 25-01-2014 00:00:00 3.1 C 5.75 g/m*3 3.1 C 0 km/h
1680 25-01-2014 00:05:00 3.2 C 5.79 g/m*3 3.2 C 0 km/h
1681 25-01-2014 00:10:00 3.2 C 5.79 g/m*3 3.2 C 0 km/h
1682 25-01-2014 00:15:00 3.2 C 5.79 g/m*3 3.2 C 0 km/h
1683 25-01-2014 00:20:00 3.2 C 5.79 g/m*3 3.2 C 0 km/h
1684 25-01-2014 00:25:00 3.2 C 5.79 g/m*3 3.2 C 0 km/h
1685 25-01-2014 00:30:00 3.1 C 5.75 g/m*3 3.1 C 0 km/h
1686 25-01-2014 00:35:00 3.1 C 5.75 g/m*3 3.1 C 0 km/h
1687 25-01-2014 00:40:00 3.1 C 5.75 g/m*3 3.1 C 0 km/h
1688 25-01-2014 00:45:00 3.1 C 5.75 g/m*3 3.1 C 0 km/h
1689 25-01-2014 00:50:00 3.1 C 5.75 g/m*3 3.1 C 0 km/h
1690 25-01-2014 00:55:00 3.1 C 5.75 g/m*3 3.1 C 0 km/h
1691 25-01-2014 01:00:00 3.1 C 5.75 g/m*3 3.1 C 0 km/h
1692 25-01-2014 01:05:00 3.1 C 5.75 g/m*3 3.1 C 0 km/h
1693 25-01-2014 01:10:00 3.1 C 5.75 g/m*3 3.1 C 0 km/h
1694 25-01-2014 01:15:00 3.1 C 5.75 g/m*3 3.1 C 0 km/h
1695 25-01-2014 01:20:00 3.1 C 5.75 g/m*3 3.1 C 0 km/h
1696 25-01-2014 01:25:00 3.1 C 5.75 g/m*3 3.1 C 0 km/h
1697 25-01-2014 01:30:00 3.1 C 5.75 g/m*3 3.1 C 0 km/h
1698 25-01-2014 01:35:00 3.1 C 5.75 g/m*3 3.1 C 0 km/h
1699 25-01-2014 01:40:00 3.1 C 5.75 g/m*3 3.1 C 0 km/h
1700 25-01-2014 01:45:00 3.1 C 5.75 g/m*3 3.1 C 1.6 km/h
Sensor: Nr:Datum:Temp:Abs-Feuchte:Windchill:Wind:
Aussen-T/F 1701 25-01-2014 01:50:00 3.1 C 5.75 g/m*3 3.1 C 0 km/h
1702 25-01-2014 01:55:00 3.1 C 5.75 g/m*3 3.1 C 0 km/h
1703 25-01-2014 02:00:00 3.1 C 5.75 g/m*3 3.1 C 0 km/h
1704 25-01-2014 02:05:00 3.1 C 5.75 g/m*3 3.1 C 0 km/h
1705 25-01-2014 02:10:00 3.2 C 5.79 g/m*3 3.2 C 0 km/h
1706 25-01-2014 02:15:00 3.2 C 5.79 g/m*3 3.2 C 0 km/h
1707 25-01-2014 02:20:00 3.2 C 5.79 g/m*3 3.2 C 0 km/h
1708 25-01-2014 02:25:00 3.2 C 5.79 g/m*3 3.2 C 0 km/h
1709 25-01-2014 02:30:00 3.2 C 5.79 g/m*3 3.2 C 0 km/h
1710 25-01-2014 02:35:00 3.2 C 5.79 g/m*3 3.2 C 0 km/h
1711 25-01-2014 02:40:00 3.2 C 5.79 g/m*3 3.2 C 0 km/h
1712 25-01-2014 02:45:00 3.2 C 5.79 g/m*3 3.2 C 0 km/h
1713 25-01-2014 02:50:00 3.2 C 5.79 g/m*3 3.2 C 0 km/h
1714 25-01-2014 02:55:00 3.2 C 5.79 g/m*3 3.2 C 0 km/h
1715 25-01-2014 03:00:00 3.1 C 5.75 g/m*3 3.1 C 0 km/h
1716 25-01-2014 03:05:00 3.1 C 5.75 g/m*3 3.1 C 0 km/h
1717 25-01-2014 03:10:00 3 C 5.71 g/m*3 3 C 0 km/h
1718 25-01-2014 03:15:00 2.9 C 5.67 g/m*3 2.9 C 0 km/h
1719 25-01-2014 03:20:00 2.9 C 5.67 g/m*3 2.9 C 0 km/h
1720 25-01-2014 03:25:00 2.8 C 5.63 g/m*3 2.8 C 0 km/h
1721 25-01-2014 03:30:00 2.7 C 5.59 g/m*3 2.7 C 0 km/h
1722 25-01-2014 03:35:00 2.4 C 5.42 g/m*3 2.4 C 1.6 km/h
1723 25-01-2014 03:40:00 2.2 C 5.41 g/m*3 2.2 C 0 km/h
1724 25-01-2014 03:45:00 2.1 C 5.37 g/m*3 2.1 C 3.2 km/h
1725 25-01-2014 03:50:00 1.9 C 5.3 g/m*3 1.9 C 3.2 km/h
Sensor: Nr:Datum:Temp:Abs-Feuchte:Windchill:Wind:
Aussen-T/F 1726 25-01-2014 03:55:00 1.8 C 5.26 g/m*3 1.8 C 0 km/h
1727 25-01-2014 04:00:00 1.7 C 5.23 g/m*3 1.7 C 0 km/h
1728 25-01-2014 04:05:00 1.6 C 5.19 g/m*3 1.6 C 3.2 km/h
1729 25-01-2014 04:10:00 1.6 C 5.19 g/m*3 1.6 C 1.6 km/h
1730 25-01-2014 04:15:00 1.6 C 5.19 g/m*3 1.6 C 0 km/h
1731 25-01-2014 04:20:00 1.6 C 5.19 g/m*3 1.6 C 0 km/h
1732 25-01-2014 04:25:00 1.5 C 5.16 g/m*3 1.5 C 0 km/h
1733 25-01-2014 04:30:00 1.4 C 5.12 g/m*3 1.4 C 1.6 km/h
1734 25-01-2014 04:35:00 1.4 C 5.12 g/m*3 1.4 C 0 km/h
1735 25-01-2014 04:40:00 1.4 C 5.12 g/m*3 1.4 C 0 km/h
1736 25-01-2014 04:45:00 1.4 C 5.12 g/m*3 1.4 C 3.2 km/h
1737 25-01-2014 04:50:00 1.4 C 5.17 g/m*3 1.4 C 0 km/h
1738 25-01-2014 04:55:00 1.4 C 5.17 g/m*3 1.4 C 0 km/h
1739 25-01-2014 05:00:00 1.4 C 5.17 g/m*3 1.4 C 1.6 km/h
1740 25-01-2014 05:05:00 1.4 C 5.17 g/m*3 1.4 C 1.6 km/h
1741 25-01-2014 05:10:00 1.5 C 5.21 g/m*3 1.5 C 0 km/h
1742 25-01-2014 05:15:00 1.6 C 5.25 g/m*3 1.6 C 0 km/h
1743 25-01-2014 05:20:00 1.7 C 5.28 g/m*3 1.7 C 0 km/h
1744 25-01-2014 05:25:00 1.8 C 5.32 g/m*3 1.8 C 0 km/h
1745 25-01-2014 05:30:00 1.9 C 5.35 g/m*3 1.9 C 0 km/h
1746 25-01-2014 05:35:00 1.9 C 5.35 g/m*3 1.9 C 0 km/h
1747 25-01-2014 05:40:00 2 C 5.39 g/m*3 2 C 1.6 km/h
1748 25-01-2014 05:45:00 2.1 C 5.43 g/m*3 2.1 C 4.8 km/h
1749 25-01-2014 05:50:00 2.2 C 5.46 g/m*3 2.2 C 4.8 km/h
1750 25-01-2014 05:55:00 2.2 C 5.46 g/m*3 2.2 C 0 km/h
Sensor: Nr:Datum:Temp:Abs-Feuchte:Windchill:Wind:
Aussen-T/F 1751 25-01-2014 06:00:00 2.2 C 5.46 g/m*3 2.2 C 0 km/h
1752 25-01-2014 06:05:00 2.2 C 5.46 g/m*3 2.2 C 0 km/h
1753 25-01-2014 06:10:00 2.3 C 5.5 g/m*3 2.3 C 0 km/h
1754 25-01-2014 06:15:00 2.3 C 5.5 g/m*3 2.3 C 0 km/h
1755 25-01-2014 06:20:00 2.3 C 5.5 g/m*3 2.3 C 0 km/h
1756 25-01-2014 06:25:00 2.3 C 5.5 g/m*3 2.3 C 0 km/h
1757 25-01-2014 06:30:00 2.3 C 5.5 g/m*3 2.3 C 0 km/h
1758 25-01-2014 06:35:00 2.4 C 5.54 g/m*3 2.4 C 0 km/h
1759 25-01-2014 06:40:00 2.4 C 5.54 g/m*3 2.4 C 1.6 km/h
1760 25-01-2014 06:45:00 2.4 C 5.54 g/m*3 2.4 C 0 km/h
1761 25-01-2014 06:50:00 2.4 C 5.54 g/m*3 2.4 C 0 km/h
1762 25-01-2014 06:55:00 2.4 C 5.54 g/m*3 2.4 C 0 km/h
1763 25-01-2014 07:00:00 2.4 C 5.54 g/m*3 2.4 C 0 km/h
1764 25-01-2014 07:05:00 2.4 C 5.54 g/m*3 2.4 C 0 km/h
1765 25-01-2014 07:10:00 2.4 C 5.54 g/m*3 2.4 C 0 km/h
1766 25-01-2014 07:15:00 2.3 C 5.5 g/m*3 2.3 C 0 km/h
1767 25-01-2014 07:20:00 2.3 C 5.5 g/m*3 2.3 C 0 km/h
1768 25-01-2014 07:25:00 2.3 C 5.5 g/m*3 2.3 C 0 km/h
1769 25-01-2014 07:30:00 2.3 C 5.5 g/m*3 2.3 C 0 km/h
1770 25-01-2014 07:35:00 2.3 C 5.5 g/m*3 2.3 C 0 km/h
1771 25-01-2014 07:40:00 2.2 C 5.46 g/m*3 2.2 C 0 km/h
1772 25-01-2014 07:45:00 2.2 C 5.46 g/m*3 2.2 C 0 km/h
1773 25-01-2014 07:50:00 2.2 C 5.46 g/m*3 2.2 C 0 km/h
1774 25-01-2014 07:55:00 2.2 C 5.46 g/m*3 2.2 C 1.6 km/h
1775 25-01-2014 08:00:00 2.1 C 5.43 g/m*3 2.1 C 0 km/h
Sensor: Nr:Datum:Temp:Abs-Feuchte:Windchill:Wind:
Aussen-T/F 1776 25-01-2014 08:05:00 2 C 5.33 g/m*3 2 C 0 km/h
1777 25-01-2014 08:10:00 1.9 C 5.35 g/m*3 1.9 C 0 km/h
1778 25-01-2014 08:15:00 1.9 C 5.35 g/m*3 1.9 C 0 km/h
1779 25-01-2014 08:20:00 1.9 C 5.35 g/m*3 1.9 C 0 km/h
1780 25-01-2014 08:25:00 1.9 C 5.35 g/m*3 1.9 C 0 km/h
1781 25-01-2014 08:30:00 1.9 C 5.35 g/m*3 1.9 C 0 km/h
1782 25-01-2014 08:35:00 1.9 C 5.35 g/m*3 1.9 C 0 km/h
1783 25-01-2014 08:40:00 1.9 C 5.35 g/m*3 1.9 C 0 km/h
1784 25-01-2014 08:45:00 1.9 C 5.35 g/m*3 1.9 C 0 km/h
1785 25-01-2014 08:50:00 1.9 C 5.35 g/m*3 1.9 C 0 km/h
1786 25-01-2014 08:55:00 2 C 5.39 g/m*3 2 C 0 km/h
1787 25-01-2014 09:00:00 2 C 5.39 g/m*3 2 C 3.2 km/h
1788 25-01-2014 09:05:00 2.1 C 5.43 g/m*3 2.1 C 1.6 km/h
1789 25-01-2014 09:10:00 2.1 C 5.43 g/m*3 2.1 C 1.6 km/h
1790 25-01-2014 09:15:00 2.1 C 5.43 g/m*3 2.1 C 3.2 km/h
1791 25-01-2014 09:20:00 2.2 C 5.46 g/m*3 2.2 C 4.8 km/h
1792 25-01-2014 09:25:00 2.2 C 5.46 g/m*3 2.2 C 4.8 km/h
1793 25-01-2014 09:30:00 2.2 C 5.46 g/m*3 2.2 C 4.8 km/h
1794 25-01-2014 09:35:00 2.2 C 5.46 g/m*3 2.2 C 3.2 km/h
1795 25-01-2014 09:40:00 2.2 C 5.41 g/m*3 2.2 C 3.2 km/h
1796 25-01-2014 09:45:00 2.2 C 5.41 g/m*3 2.2 C 4.8 km/h
1797 25-01-2014 09:50:00 2.3 C 5.44 g/m*3 2.3 C 3.2 km/h
1798 25-01-2014 09:55:00 2.3 C 5.44 g/m*3 2.3 C 4.8 km/h
1799 25-01-2014 10:00:00 2.3 C 5.44 g/m*3 2.3 C 3.2 km/h
1800 25-01-2014 10:05:00 2.3 C 5.44 g/m*3 2.3 C 3.2 km/h
Sensor: Nr:Datum:Temp:Abs-Feuchte:Windchill:Wind:
Aussen-T/F 1801 25-01-2014 10:10:00 2.4 C 5.48 g/m*3 2.4 C 1.6 km/h
1802 25-01-2014 10:15:00 2.4 C 5.48 g/m*3 2.4 C 1.6 km/h
1803 25-01-2014 10:20:00 2.5 C 5.52 g/m*3 2.5 C 1.6 km/h
1804 25-01-2014 10:25:00 2.5 C 5.52 g/m*3 2.5 C 3.2 km/h
1805 25-01-2014 10:30:00 2.6 C 5.5 g/m*3 2.6 C 0 km/h
1806 25-01-2014 10:35:00 2.6 C 5.5 g/m*3 2.6 C 0 km/h
1807 25-01-2014 10:40:00 2.6 C 5.5 g/m*3 2.6 C 0 km/h
1808 25-01-2014 10:45:00 2.7 C 5.54 g/m*3 2.7 C 0 km/h
1809 25-01-2014 10:50:00 2.7 C 5.54 g/m*3 2.7 C 0 km/h
1810 25-01-2014 10:55:00 2.7 C 5.54 g/m*3 2.7 C 0 km/h
1811 25-01-2014 11:00:00 2.8 C 5.57 g/m*3 2.8 C 1.6 km/h
1812 25-01-2014 11:05:00 2.8 C 5.57 g/m*3 2.8 C 0 km/h
1813 25-01-2014 11:10:00 3 C 5.65 g/m*3 3 C 3.2 km/h
1814 25-01-2014 11:15:00 3.1 C 5.69 g/m*3 3.1 C 4.8 km/h
1815 25-01-2014 11:20:00 3.2 C 5.66 g/m*3 3.2 C 3.2 km/h
1816 25-01-2014 11:25:00 3.2 C 5.66 g/m*3 3.2 C 3.2 km/h
1817 25-01-2014 11:30:00 3.2 C 5.66 g/m*3 3.2 C 4.8 km/h
1818 25-01-2014 11:35:00 3.3 C 5.7 g/m*3 3.3 C 0 km/h
1819 25-01-2014 11:40:00 3.3 C 5.7 g/m*3 3.3 C 0 km/h
1820 25-01-2014 11:45:00 3.4 C 5.68 g/m*3 3.4 C 0 km/h
1821 25-01-2014 11:50:00 3.4 C 5.68 g/m*3 3.4 C 1.6 km/h
1822 25-01-2014 11:55:00 3.5 C 5.72 g/m*3 3.5 C 4.8 km/h
1823 25-01-2014 12:00:00 3.6 C 5.76 g/m*3 3.6 C 3.2 km/h
1824 25-01-2014 12:05:00 3.6 C 5.76 g/m*3 3.6 C 3.2 km/h
1825 25-01-2014 12:10:00 3.6 C 5.76 g/m*3 3.6 C 3.2 km/h
Sensor: Nr:Datum:Temp:Abs-Feuchte:Windchill:Wind:
Aussen-T/F 1826 25-01-2014 12:15:00 3.6 C 5.69 g/m*3 3.6 C 4.8 km/h
1827 25-01-2014 12:20:00 3.7 C 5.73 g/m*3 3.7 C 4.8 km/h
1828 25-01-2014 12:25:00 3.7 C 5.73 g/m*3 3.7 C 3.2 km/h
1829 25-01-2014 12:30:00 3.7 C 5.8 g/m*3 3.7 C 4.8 km/h
1830 25-01-2014 12:35:00 3.8 C 5.83 g/m*3 3.8 C 1.6 km/h
1831 25-01-2014 12:40:00 3.8 C 5.77 g/m*3 3.8 C 0 km/h
1832 25-01-2014 12:45:00 3.9 C 5.81 g/m*3 3.9 C 3.2 km/h
1833 25-01-2014 12:50:00 4.1 C 5.89 g/m*3 4.1 C 3.2 km/h
1834 25-01-2014 12:55:00 4.2 C 5.86 g/m*3 4.2 C 4.8 km/h
1835 25-01-2014 13:00:00 4.2 C 5.8 g/m*3 4.2 C 4.8 km/h
1836 25-01-2014 13:05:00 4.3 C 5.9 g/m*3 4.3 C 4.8 km/h
1837 25-01-2014 13:10:00 4.3 C 5.84 g/m*3 4.3 C 3.2 km/h
1838 25-01-2014 13:15:00 4.3 C 5.9 g/m*3 4.3 C 3.2 km/h
1839 25-01-2014 13:20:00 4.3 C 5.84 g/m*3 4.3 C 4.8 km/h
1840 25-01-2014 13:25:00 4.4 C 5.88 g/m*3 4.4 C 4.8 km/h
1841 25-01-2014 13:30:00 4.4 C 5.88 g/m*3 4.4 C 3.2 km/h
1842 25-01-2014 13:35:00 4.4 C 5.88 g/m*3 4.4 C 4.8 km/h
1843 25-01-2014 13:40:00 4.5 C 5.92 g/m*3 3.02 C 6.4 km/h
1844 25-01-2014 13:45:00 4.5 C 5.92 g/m*3 4.5 C 4.8 km/h
1845 25-01-2014 13:50:00 4.7 C 5.93 g/m*3 3.25 C 6.4 km/h
1846 25-01-2014 13:55:00 4.7 C 5.86 g/m*3 4.7 C 4.8 km/h
1847 25-01-2014 14:00:00 4.8 C 5.97 g/m*3 4.8 C 4.8 km/h
1848 25-01-2014 14:05:00 4.8 C 5.97 g/m*3 4.8 C 4.8 km/h
1849 25-01-2014 14:10:00 4.8 C 5.97 g/m*3 4.8 C 3.2 km/h
1850 25-01-2014 14:15:00 4.8 C 5.97 g/m*3 4.8 C 4.8 km/h
Sensor: Nr:Datum:Temp:Abs-Feuchte:Windchill:Wind:
Aussen-T/F 1851 25-01-2014 17:35:00 3.3 C 6.07 g/m*3 3.3 C 1.6 km/h
1852 25-01-2014 17:40:00 3.2 C 5.48 g/m*3 3.2 C 3.2 km/h
1853 25-01-2014 17:45:00 3.2 C 5.48 g/m*3 3.2 C 3.2 km/h
1854 25-01-2014 17:50:00 3.2 C 5.54 g/m*3 3.2 C 3.2 km/h
1855 25-01-2014 17:55:00 3.2 C 5.54 g/m*3 3.2 C 3.2 km/h
1856 25-01-2014 18:00:00 3.2 C 5.54 g/m*3 3.2 C 1.6 km/h
1857 25-01-2014 18:05:00 3.3 C 5.58 g/m*3 3.3 C 0 km/h
1858 25-01-2014 18:10:00 3.3 C 5.64 g/m*3 3.3 C 0 km/h
1859 25-01-2014 18:15:00 3.3 C 5.64 g/m*3 3.3 C 0 km/h
1860 25-01-2014 18:20:00 3.2 C 5.6 g/m*3 3.2 C 0 km/h
1861 25-01-2014 18:25:00 3.2 C 5.6 g/m*3 3.2 C 1.6 km/h
1862 25-01-2014 18:30:00 3.2 C 5.6 g/m*3 3.2 C 1.6 km/h
1863 25-01-2014 18:35:00 3.2 C 5.6 g/m*3 3.2 C 1.6 km/h
1864 25-01-2014 22:45:00 3.9 C 5.37 g/m*3 2.32 C 6.4 km/h
1865 25-01-2014 22:50:00 3.6 C 5.39 g/m*3 1.06 C 9.7 km/h
1866 25-01-2014 22:55:00 3.3 C 5.34 g/m*3 0.02 C 12.9 km/h
1867 25-01-2014 23:00:00 3.1 C 5.39 g/m*3 -0.51 C 14.5 km/h
1868 25-01-2014 23:05:00 3.1 C 5.45 g/m*3 -0.77 C 16.1 km/h
1869 25-01-2014 23:10:00 3 C 5.41 g/m*3 -0.9 C 16.1 km/h
1870 25-01-2014 23:15:00 3 C 5.41 g/m*3 -0.02 C 11.3 km/h
1871 25-01-2014 23:20:00 2.9 C 5.37 g/m*3 1.17 C 6.4 km/h
1872 25-01-2014 23:25:00 2.9 C 5.43 g/m*3 0.22 C 9.7 km/h
1873 25-01-2014 23:30:00 2.9 C 5.43 g/m*3 2.9 C 4.8 km/h
1874 25-01-2014 23:35:00 2.8 C 5.4 g/m*3 0.1 C 9.7 km/h
1875 25-01-2014 23:40:00 2.9 C 5.43 g/m*3 -0.14 C 11.3 km/h
Sensor: Nr:Datum:Temp:Abs-Feuchte:Windchill:Wind:
Aussen-T/F 1876 25-01-2014 23:45:00 3 C 5.53 g/m*3 -0.34 C 12.9 km/h
1877 25-01-2014 23:50:00 3.2 C 5.54 g/m*3 -1.51 C 22.5 km/h
1878 25-01-2014 23:55:00 3.3 C 5.52 g/m*3 -1.39 C 22.5 km/h
1879 26-01-2014 00:00:00 3.4 C 5.56 g/m*3 -1.44 C 24.1 km/h
1880 26-01-2014 00:05:00 3.3 C 5.52 g/m*3 -0.76 C 17.7 km/h
1881 26-01-2014 00:10:00 3.3 C 5.52 g/m*3 -0.76 C 17.7 km/h
1882 26-01-2014 00:15:00 3.2 C 5.54 g/m*3 -0.65 C 16.1 km/h
1883 26-01-2014 00:20:00 3.1 C 5.51 g/m*3 -0.22 C 12.9 km/h
1884 26-01-2014 00:25:00 3 C 5.53 g/m*3 0.76 C 8.1 km/h
1885 26-01-2014 00:30:00 2.9 C 5.49 g/m*3 -0.46 C 12.9 km/h
1886 26-01-2014 00:35:00 2.8 C 5.46 g/m*3 -0.88 C 14.5 km/h
1887 26-01-2014 00:40:00 2.8 C 5.51 g/m*3 0.1 C 9.7 km/h
1888 26-01-2014 00:45:00 2.8 C 5.51 g/m*3 -1.14 C 16.1 km/h
1889 26-01-2014 00:50:00 2.8 C 5.51 g/m*3 0.52 C 8.1 km/h
1890 26-01-2014 00:55:00 2.8 C 5.51 g/m*3 -0.26 C 11.3 km/h
1891 26-01-2014 01:00:00 2.9 C 5.55 g/m*3 -0.46 C 12.9 km/h
1892 26-01-2014 01:05:00 3 C 5.59 g/m*3 -0.34 C 12.9 km/h
1893 26-01-2014 01:10:00 3.1 C 5.63 g/m*3 -0.22 C 12.9 km/h
1894 26-01-2014 01:15:00 3.2 C 5.66 g/m*3 -0.1 C 12.9 km/h
1895 26-01-2014 01:20:00 3.3 C 5.7 g/m*3 -0.26 C 14.5 km/h
1896 26-01-2014 01:25:00 3.5 C 5.72 g/m*3 0.27 C 12.9 km/h
1897 26-01-2014 01:30:00 3.6 C 5.76 g/m*3 1.06 C 9.7 km/h
1898 26-01-2014 01:35:00 3.6 C 5.76 g/m*3 3.6 C 4.8 km/h
1899 26-01-2014 01:40:00 3.7 C 5.8 g/m*3 1.18 C 9.7 km/h
1900 26-01-2014 01:45:00 3.7 C 5.8 g/m*3 1.58 C 8.1 km/h
Sensor: Nr:Datum:Temp:Abs-Feuchte:Windchill:Wind:
Aussen-T/F 1901 26-01-2014 01:50:00 3.6 C 5.76 g/m*3 3.6 C 3.2 km/h
1902 26-01-2014 01:55:00 3.6 C 5.82 g/m*3 3.6 C 1.6 km/h
1903 26-01-2014 02:00:00 3.6 C 5.82 g/m*3 3.6 C 3.2 km/h
1904 26-01-2014 02:05:00 3.6 C 5.82 g/m*3 3.6 C 4.8 km/h
1905 26-01-2014 02:10:00 3.6 C 5.88 g/m*3 3.6 C 4.8 km/h
1906 26-01-2014 02:15:00 3.7 C 5.86 g/m*3 1.58 C 8.1 km/h
1907 26-01-2014 02:20:00 4 C 5.91 g/m*3 0.34 C 16.1 km/h
1908 26-01-2014 02:25:00 4.3 C 5.9 g/m*3 1.24 C 12.9 km/h
1909 26-01-2014 02:30:00 4.6 C 5.96 g/m*3 2.25 C 9.7 km/h
1910 26-01-2014 02:35:00 4.7 C 5.93 g/m*3 2.76 C 8.1 km/h
1911 26-01-2014 02:40:00 4.8 C 5.9 g/m*3 2.87 C 8.1 km/h
1912 26-01-2014 02:45:00 4.8 C 5.9 g/m*3 1.34 C 16.1 km/h
1913 26-01-2014 02:50:00 4.8 C 5.9 g/m*3 1.85 C 12.9 km/h
1914 26-01-2014 02:55:00 4.9 C 5.94 g/m*3 2.61 C 9.7 km/h
1915 26-01-2014 03:00:00 4.9 C 5.87 g/m*3 1.24 C 17.7 km/h
1916 26-01-2014 03:05:00 4.8 C 5.9 g/m*3 1.58 C 14.5 km/h
1917 26-01-2014 03:10:00 4.8 C 5.9 g/m*3 1.58 C 14.5 km/h
1918 26-01-2014 03:15:00 4.8 C 5.9 g/m*3 1.11 C 17.7 km/h
1919 26-01-2014 03:20:00 4.9 C 5.94 g/m*3 1.24 C 17.7 km/h
1920 26-01-2014 03:25:00 5 C 5.91 g/m*3 0.61 C 24.1 km/h
1921 26-01-2014 03:30:00 5.1 C 5.95 g/m*3 1.49 C 17.7 km/h
1922 26-01-2014 03:35:00 5.1 C 5.88 g/m*3 1.95 C 14.5 km/h
1923 26-01-2014 03:40:00 5.2 C 5.92 g/m*3 1.4 C 19.3 km/h
1924 26-01-2014 03:45:00 5.2 C 5.85 g/m*3 1.61 C 17.7 km/h
1925 26-01-2014 03:50:00 5.3 C 5.89 g/m*3 2.2 C 14.5 km/h
Sensor: Nr:Datum:Temp:Abs-Feuchte:Windchill:Wind:
Aussen-T/F 1926 26-01-2014 03:55:00 5.4 C 5.86 g/m*3 2.32 C 14.5 km/h
1927 26-01-2014 04:00:00 5.4 C 5.86 g/m*3 1.66 C 19.3 km/h
1928 26-01-2014 04:05:00 5.6 C 5.87 g/m*3 3.11 C 11.3 km/h
1929 26-01-2014 04:10:00 5.6 C 5.87 g/m*3 1.91 C 19.3 km/h
1930 26-01-2014 04:15:00 5.6 C 5.94 g/m*3 2.33 C 16.1 km/h
1931 26-01-2014 04:20:00 5.4 C 5.93 g/m*3 1.86 C 17.7 km/h
1932 26-01-2014 04:25:00 5.2 C 5.92 g/m*3 1.61 C 17.7 km/h
1933 26-01-2014 04:30:00 5.1 C 5.95 g/m*3 1.71 C 16.1 km/h
1934 26-01-2014 04:35:00 5.1 C 5.88 g/m*3 2.22 C 12.9 km/h
1935 26-01-2014 04:40:00 5.1 C 5.88 g/m*3 1.49 C 17.7 km/h
1936 26-01-2014 04:45:00 5.2 C 5.85 g/m*3 1.83 C 16.1 km/h
1937 26-01-2014 04:50:00 5.4 C 5.79 g/m*3 1.86 C 17.7 km/h
1938 26-01-2014 04:55:00 5.6 C 5.87 g/m*3 1.06 C 27.4 km/h
1939 26-01-2014 05:00:00 5.7 C 5.84 g/m*3 2.24 C 17.7 km/h
1940 26-01-2014 05:05:00 5.8 C 5.8 g/m*3 3.07 C 12.9 km/h
1941 26-01-2014 05:10:00 5.8 C 5.73 g/m*3 1.97 C 20.9 km/h
1942 26-01-2014 05:15:00 5.9 C 5.77 g/m*3 1.93 C 22.5 km/h
1943 26-01-2014 05:20:00 5.9 C 5.77 g/m*3 2.29 C 19.3 km/h
1944 26-01-2014 05:25:00 5.9 C 5.7 g/m*3 1.76 C 24.1 km/h
1945 26-01-2014 05:30:00 5.9 C 5.77 g/m*3 1.93 C 22.5 km/h
1946 26-01-2014 05:35:00 5.9 C 5.7 g/m*3 1.76 C 24.1 km/h
1947 26-01-2014 05:40:00 5.9 C 5.77 g/m*3 2.1 C 20.9 km/h
1948 26-01-2014 05:45:00 6 C 5.81 g/m*3 1.73 C 25.7 km/h
1949 26-01-2014 05:50:00 6 C 5.73 g/m*3 1.73 C 25.7 km/h
1950 26-01-2014 05:55:00 6.1 C 5.77 g/m*3 2.73 C 17.7 km/h
Sensor: Nr:Datum:Temp:Abs-Feuchte:Windchill:Wind:
Aussen-T/F 1951 26-01-2014 06:00:00 6.1 C 5.77 g/m*3 1.86 C 25.7 km/h
1952 26-01-2014 06:05:00 6.1 C 5.77 g/m*3 2.18 C 22.5 km/h
1953 26-01-2014 06:10:00 6.1 C 5.84 g/m*3 1.57 C 29 km/h
1954 26-01-2014 06:15:00 6 C 5.81 g/m*3 2.41 C 19.3 km/h
1955 26-01-2014 06:20:00 5.9 C 5.77 g/m*3 2.29 C 19.3 km/h
1956 26-01-2014 06:25:00 6 C 5.73 g/m*3 1.18 C 32.2 km/h
1957 26-01-2014 06:30:00 6.1 C 5.77 g/m*3 2.02 C 24.1 km/h
1958 26-01-2014 06:35:00 6 C 5.73 g/m*3 2.41 C 19.3 km/h
1959 26-01-2014 06:40:00 6 C 5.73 g/m*3 1.58 C 27.4 km/h
1960 26-01-2014 06:45:00 6 C 5.73 g/m*3 2.61 C 17.7 km/h
1961 26-01-2014 06:50:00 6 C 5.81 g/m*3 2.82 C 16.1 km/h
1962 26-01-2014 06:55:00 5.9 C 5.77 g/m*3 2.93 C 14.5 km/h
1963 26-01-2014 07:00:00 5.9 C 5.77 g/m*3 2.29 C 19.3 km/h
1964 26-01-2014 07:05:00 6 C 5.73 g/m*3 2.82 C 16.1 km/h
1965 26-01-2014 07:10:00 6.1 C 5.77 g/m*3 3.43 C 12.9 km/h
1966 26-01-2014 07:15:00 6.1 C 5.77 g/m*3 2.35 C 20.9 km/h
1967 26-01-2014 07:20:00 6.1 C 5.77 g/m*3 4.04 C 9.7 km/h
1968 26-01-2014 07:25:00 6.1 C 5.7 g/m*3 2.35 C 20.9 km/h
1969 26-01-2014 07:30:00 6.1 C 5.77 g/m*3 3.72 C 11.3 km/h
1970 26-01-2014 07:35:00 6.1 C 5.77 g/m*3 3.18 C 14.5 km/h
1971 26-01-2014 07:40:00 6 C 5.73 g/m*3 2.05 C 22.5 km/h
1972 26-01-2014 07:45:00 6 C 5.81 g/m*3 4.28 C 8.1 km/h
1973 26-01-2014 07:50:00 5.9 C 5.77 g/m*3 2.93 C 14.5 km/h
1974 26-01-2014 07:55:00 5.9 C 5.77 g/m*3 2.93 C 14.5 km/h
1975 26-01-2014 08:00:00 5.9 C 5.7 g/m*3 3.48 C 11.3 km/h
Sensor: Nr:Datum:Temp:Abs-Feuchte:Windchill:Wind:
Aussen-T/F 1976 26-01-2014 08:05:00 5.9 C 5.77 g/m*3 3.8 C 9.7 km/h
1977 26-01-2014 08:10:00 5.8 C 5.73 g/m*3 4.52 C 6.4 km/h
1978 26-01-2014 08:15:00 5.8 C 5.73 g/m*3 4.05 C 8.1 km/h
1979 26-01-2014 08:20:00 5.8 C 5.73 g/m*3 3.36 C 11.3 km/h
1980 26-01-2014 08:25:00 5.9 C 5.77 g/m*3 3.48 C 11.3 km/h
1981 26-01-2014 08:30:00 5.8 C 5.73 g/m*3 3.07 C 12.9 km/h
1982 26-01-2014 08:35:00 5.8 C 5.73 g/m*3 3.36 C 11.3 km/h
1983 26-01-2014 08:40:00 5.8 C 5.73 g/m*3 4.52 C 6.4 km/h
1984 26-01-2014 08:45:00 5.7 C 5.76 g/m*3 3.56 C 9.7 km/h
1985 26-01-2014 08:50:00 5.7 C 5.76 g/m*3 3.93 C 8.1 km/h
1986 26-01-2014 08:55:00 5.7 C 5.76 g/m*3 3.56 C 9.7 km/h
1987 26-01-2014 09:00:00 5.6 C 5.73 g/m*3 2.57 C 14.5 km/h
1988 26-01-2014 09:05:00 5.6 C 5.73 g/m*3 3.11 C 11.3 km/h
1989 26-01-2014 09:10:00 5.6 C 5.66 g/m*3 2.33 C 16.1 km/h
1990 26-01-2014 09:15:00 5.7 C 5.76 g/m*3 2.95 C 12.9 km/h
1991 26-01-2014 09:20:00 5.6 C 5.66 g/m*3 3.81 C 8.1 km/h
1992 26-01-2014 09:25:00 5.7 C 5.69 g/m*3 2.95 C 12.9 km/h
1993 26-01-2014 09:30:00 5.7 C 5.69 g/m*3 2.24 C 17.7 km/h
1994 26-01-2014 09:35:00 5.7 C 5.69 g/m*3 3.93 C 8.1 km/h
1995 26-01-2014 09:40:00 5.7 C 5.69 g/m*3 2.24 C 17.7 km/h
1996 26-01-2014 09:45:00 5.7 C 5.76 g/m*3 2.24 C 17.7 km/h
1997 26-01-2014 09:50:00 5.6 C 5.73 g/m*3 2.57 C 14.5 km/h
1998 26-01-2014 09:55:00 5.6 C 5.73 g/m*3 3.11 C 11.3 km/h
1999 26-01-2014 10:00:00 5.6 C 5.73 g/m*3 2.83 C 12.9 km/h
2000 26-01-2014 10:05:00 5.6 C 5.8 g/m*3 2.57 C 14.5 km/h
Sensor: Nr:Datum:Temp:Abs-Feuchte:Windchill:Wind:
Aussen-T/F 2001 26-01-2014 10:10:00 5.6 C 5.8 g/m*3 2.57 C 14.5 km/h
2002 26-01-2014 10:15:00 5.6 C 5.73 g/m*3 3.11 C 11.3 km/h
2003 26-01-2014 10:20:00 5.6 C 5.73 g/m*3 2.11 C 17.7 km/h
2004 26-01-2014 10:25:00 5.7 C 5.69 g/m*3 2.45 C 16.1 km/h
2005 26-01-2014 10:30:00 5.7 C 5.69 g/m*3 2.24 C 17.7 km/h
2006 26-01-2014 10:35:00 5.7 C 5.69 g/m*3 2.69 C 14.5 km/h
2007 26-01-2014 10:40:00 5.7 C 5.69 g/m*3 2.69 C 14.5 km/h
2008 26-01-2014 10:45:00 5.7 C 5.69 g/m*3 3.23 C 11.3 km/h
2009 26-01-2014 10:50:00 5.7 C 5.69 g/m*3 2.95 C 12.9 km/h
2010 26-01-2014 10:55:00 5.7 C 5.69 g/m*3 2.69 C 14.5 km/h
2011 26-01-2014 11:00:00 5.7 C 5.69 g/m*3 1.85 C 20.9 km/h
2012 26-01-2014 11:05:00 5.7 C 5.62 g/m*3 1.67 C 22.5 km/h
2013 26-01-2014 11:10:00 5.7 C 5.62 g/m*3 3.56 C 9.7 km/h
2014 26-01-2014 11:15:00 5.8 C 5.66 g/m*3 3.68 C 9.7 km/h
2015 26-01-2014 11:20:00 5.8 C 5.73 g/m*3 3.07 C 12.9 km/h
2016 26-01-2014 11:25:00 5.8 C 5.73 g/m*3 4.05 C 8.1 km/h
2017 26-01-2014 11:30:00 5.8 C 5.66 g/m*3 3.36 C 11.3 km/h
2018 26-01-2014 11:35:00 5.9 C 5.77 g/m*3 3.19 C 12.9 km/h
2019 26-01-2014 11:40:00 5.9 C 5.7 g/m*3 3.19 C 12.9 km/h
2020 26-01-2014 11:45:00 5.9 C 5.7 g/m*3 3.19 C 12.9 km/h
2021 26-01-2014 11:50:00 6 C 5.66 g/m*3 2.61 C 17.7 km/h
2022 26-01-2014 11:55:00 6 C 5.59 g/m*3 3.6 C 11.3 km/h
2023 26-01-2014 12:00:00 6 C 5.59 g/m*3 3.92 C 9.7 km/h
2024 26-01-2014 12:05:00 6 C 5.59 g/m*3 3.92 C 9.7 km/h
2025 26-01-2014 12:10:00 6.1 C 5.63 g/m*3 3.72 C 11.3 km/h
Sensor: Nr:Datum:Temp:Abs-Feuchte:Windchill:Wind:
Aussen-T/F 2026 26-01-2014 12:15:00 6.1 C 5.55 g/m*3 2.73 C 17.7 km/h
2027 26-01-2014 12:20:00 6.1 C 5.55 g/m*3 3.72 C 11.3 km/h
2028 26-01-2014 13:00:00 6.1 C 5.63 g/m*3 3.72 C 11.3 km/h
2029 26-01-2014 13:05:00 6.2 C 5.74 g/m*3 3.84 C 11.3 km/h
2030 26-01-2014 13:10:00 6.2 C 5.66 g/m*3 3.3 C 14.5 km/h
2031 26-01-2014 13:15:00 6.2 C 5.66 g/m*3 3.3 C 14.5 km/h
2032 26-01-2014 13:20:00 6.1 C 5.63 g/m*3 3.43 C 12.9 km/h
2033 26-01-2014 13:25:00 6.1 C 5.7 g/m*3 3.72 C 11.3 km/h
2034 26-01-2014 13:30:00 6.1 C 5.7 g/m*3 3.72 C 11.3 km/h
2035 26-01-2014 13:35:00 6.1 C 5.41 g/m*3 2.95 C 16.1 km/h
2036 26-01-2014 13:40:00 6.1 C 5.33 g/m*3 3.18 C 14.5 km/h
2037 26-01-2014 13:45:00 6.2 C 5.37 g/m*3 3.56 C 12.9 km/h
2038 26-01-2014 13:50:00 6.2 C 5.52 g/m*3 4.52 C 8.1 km/h
2039 26-01-2014 13:55:00 6.2 C 5.44 g/m*3 4.98 C 6.4 km/h
2040 26-01-2014 14:00:00 6.2 C 5.44 g/m*3 3.84 C 11.3 km/h
2041 26-01-2014 14:05:00 6.2 C 5.52 g/m*3 3.84 C 11.3 km/h
2042 26-01-2014 14:10:00 6.2 C 5.44 g/m*3 3.84 C 11.3 km/h
2043 26-01-2014 14:15:00 6.2 C 5.52 g/m*3 4.98 C 6.4 km/h
2044 26-01-2014 14:20:00 6.2 C 5.52 g/m*3 4.15 C 9.7 km/h
2045 26-01-2014 14:25:00 6.2 C 5.52 g/m*3 4.15 C 9.7 km/h
2046 26-01-2014 14:30:00 6.2 C 5.44 g/m*3 3.84 C 11.3 km/h
2047 26-01-2014 14:35:00 6.2 C 5.44 g/m*3 3.56 C 12.9 km/h
2048 26-01-2014 14:40:00 6.2 C 5.44 g/m*3 2.86 C 17.7 km/h
2049 26-01-2014 14:45:00 6.2 C 5.52 g/m*3 4.15 C 9.7 km/h
2050 26-01-2014 14:50:00 6.2 C 5.44 g/m*3 4.98 C 6.4 km/h
Sensor: Nr:Datum:Temp:Abs-Feuchte:Windchill:Wind:
Aussen-T/F 2051 26-01-2014 14:55:00 6.2 C 5.44 g/m*3 4.52 C 8.1 km/h
2052 26-01-2014 15:00:00 6.2 C 5.44 g/m*3 4.15 C 9.7 km/h
2053 26-01-2014 15:05:00 6.2 C 5.44 g/m*3 3.84 C 11.3 km/h
2054 26-01-2014 15:10:00 6.2 C 5.44 g/m*3 4.52 C 8.1 km/h
2055 26-01-2014 15:15:00 6.2 C 5.44 g/m*3 4.15 C 9.7 km/h
2056 26-01-2014 15:20:00 6.2 C 5.52 g/m*3 6.2 C 3.2 km/h
2057 26-01-2014 15:25:00 6.2 C 5.44 g/m*3 4.15 C 9.7 km/h
2058 26-01-2014 15:30:00 6.2 C 5.44 g/m*3 6.2 C 4.8 km/h
2059 26-01-2014 15:35:00 6.2 C 5.52 g/m*3 4.52 C 8.1 km/h
2060 26-01-2014 15:40:00 6.1 C 5.48 g/m*3 4.4 C 8.1 km/h
2061 26-01-2014 15:45:00 6.1 C 5.41 g/m*3 3.43 C 12.9 km/h
2062 26-01-2014 15:50:00 6.1 C 5.41 g/m*3 6.1 C 4.8 km/h
2063 26-01-2014 15:55:00 6.1 C 5.41 g/m*3 6.1 C 4.8 km/h
2064 26-01-2014 16:00:00 5.9 C 5.34 g/m*3 4.63 C 6.4 km/h
2065 26-01-2014 16:05:00 5.9 C 5.34 g/m*3 5.9 C 3.2 km/h
2066 26-01-2014 16:10:00 5.9 C 5.34 g/m*3 5.9 C 4.8 km/h
2067 26-01-2014 16:15:00 5.9 C 5.34 g/m*3 5.9 C 3.2 km/h
2068 26-01-2014 16:20:00 5.8 C 5.37 g/m*3 5.8 C 3.2 km/h
2069 26-01-2014 16:25:00 5.8 C 5.23 g/m*3 4.52 C 6.4 km/h
2070 26-01-2014 16:30:00 5.8 C 5.23 g/m*3 5.8 C 3.2 km/h
2071 26-01-2014 16:35:00 5.8 C 5.37 g/m*3 3.68 C 9.7 km/h
2072 26-01-2014 16:40:00 5.7 C 5.34 g/m*3 5.7 C 1.6 km/h
2073 26-01-2014 16:45:00 5.7 C 5.34 g/m*3 5.7 C 1.6 km/h
2074 26-01-2014 16:50:00 5.6 C 5.3 g/m*3 5.6 C 4.8 km/h
2075 26-01-2014 16:55:00 5.6 C 5.51 g/m*3 5.6 C 1.6 km/h
Sensor: Nr:Datum:Temp:Abs-Feuchte:Windchill:Wind:
Aussen-T/F 2076 26-01-2014 17:00:00 5.6 C 5.3 g/m*3 3.44 C 9.7 km/h
2077 26-01-2014 17:05:00 5.6 C 5.3 g/m*3 3.81 C 8.1 km/h
2078 26-01-2014 17:10:00 5.6 C 5.37 g/m*3 3.81 C 8.1 km/h
2079 26-01-2014 17:15:00 5.5 C 5.34 g/m*3 5.5 C 4.8 km/h
2080 26-01-2014 17:20:00 5.4 C 5.3 g/m*3 5.4 C 4.8 km/h
2081 26-01-2014 17:25:00 5.5 C 5.41 g/m*3 5.5 C 4.8 km/h
2082 26-01-2014 17:30:00 5.5 C 5.41 g/m*3 4.17 C 6.4 km/h
2083 26-01-2014 17:35:00 5.5 C 5.41 g/m*3 5.5 C 4.8 km/h
2084 26-01-2014 17:40:00 5.5 C 5.34 g/m*3 5.5 C 4.8 km/h
2085 26-01-2014 17:45:00 5.5 C 5.55 g/m*3 5.5 C 1.6 km/h
2086 26-01-2014 17:50:00 5.4 C 5.44 g/m*3 5.4 C 3.2 km/h
2087 26-01-2014 17:55:00 5.4 C 5.44 g/m*3 4.06 C 6.4 km/h
2088 26-01-2014 18:00:00 5.4 C 5.44 g/m*3 5.4 C 1.6 km/h
2089 26-01-2014 18:05:00 5.4 C 5.44 g/m*3 4.06 C 6.4 km/h
2090 26-01-2014 18:10:00 5.4 C 5.37 g/m*3 5.4 C 3.2 km/h
2091 26-01-2014 18:15:00 5.4 C 5.44 g/m*3 5.4 C 1.6 km/h
2092 26-01-2014 18:20:00 5.4 C 5.51 g/m*3 5.4 C 0 km/h
2093 26-01-2014 18:25:00 5.3 C 5.61 g/m*3 5.3 C 0 km/h
2094 26-01-2014 18:30:00 5.2 C 5.65 g/m*3 5.2 C 3.2 km/h
2095 26-01-2014 18:35:00 5.1 C 5.54 g/m*3 5.1 C 1.6 km/h
2096 26-01-2014 18:40:00 5 C 5.5 g/m*3 5 C 1.6 km/h
2097 26-01-2014 18:45:00 5 C 5.57 g/m*3 5 C 1.6 km/h
2098 26-01-2014 18:50:00 4.9 C 5.54 g/m*3 4.9 C 0 km/h
2099 26-01-2014 18:55:00 4.9 C 5.54 g/m*3 4.9 C 1.6 km/h
2100 26-01-2014 19:00:00 4.9 C 5.67 g/m*3 4.9 C 0 km/h
Sensor: Nr:Datum:Temp:Abs-Feuchte:Windchill:Wind:
Aussen-T/F 2101 26-01-2014 19:05:00 4.8 C 5.63 g/m*3 4.8 C 0 km/h
2102 26-01-2014 19:10:00 4.8 C 5.63 g/m*3 4.8 C 1.6 km/h
2103 26-01-2014 19:15:00 4.8 C 5.63 g/m*3 4.8 C 3.2 km/h
2104 26-01-2014 19:20:00 4.8 C 5.63 g/m*3 4.8 C 4.8 km/h
2105 26-01-2014 19:25:00 4.8 C 5.57 g/m*3 3.36 C 6.4 km/h
2106 26-01-2014 19:30:00 4.9 C 5.74 g/m*3 4.9 C 3.2 km/h
2107 26-01-2014 19:35:00 4.9 C 5.67 g/m*3 4.9 C 3.2 km/h
2108 26-01-2014 19:40:00 4.9 C 5.74 g/m*3 4.9 C 4.8 km/h
2109 26-01-2014 19:45:00 4.9 C 5.74 g/m*3 4.9 C 1.6 km/h
2110 26-01-2014 19:50:00 4.8 C 5.7 g/m*3 4.8 C 4.8 km/h
2111 26-01-2014 19:55:00 4.8 C 5.77 g/m*3 4.8 C 3.2 km/h
2112 26-01-2014 20:00:00 4.8 C 5.9 g/m*3 4.8 C 3.2 km/h
2113 26-01-2014 20:05:00 4.7 C 5.93 g/m*3 4.7 C 4.8 km/h
2114 26-01-2014 20:10:00 4.6 C 5.89 g/m*3 4.6 C 3.2 km/h
2115 26-01-2014 20:15:00 4.5 C 5.92 g/m*3 4.5 C 3.2 km/h
2116 26-01-2014 20:20:00 4.4 C 5.94 g/m*3 2.9 C 6.4 km/h
2117 26-01-2014 20:25:00 4.3 C 5.9 g/m*3 2.78 C 6.4 km/h
2118 26-01-2014 20:30:00 4.2 C 5.93 g/m*3 4.2 C 3.2 km/h
2119 26-01-2014 20:35:00 4.1 C 5.89 g/m*3 2.55 C 6.4 km/h
2120 26-01-2014 20:40:00 4.1 C 5.89 g/m*3 4.1 C 3.2 km/h
2121 26-01-2014 20:45:00 4 C 5.85 g/m*3 4 C 4.8 km/h
2122 26-01-2014 20:50:00 4 C 5.85 g/m*3 4 C 3.2 km/h
2123 26-01-2014 20:55:00 3.9 C 5.87 g/m*3 3.9 C 1.6 km/h
2124 26-01-2014 21:00:00 3.9 C 5.87 g/m*3 3.9 C 0 km/h
2125 26-01-2014 21:05:00 3.9 C 5.87 g/m*3 3.9 C 3.2 km/h
Sensor: Nr:Datum:Temp:Abs-Feuchte:Windchill:Wind:
Aussen-T/F 2126 26-01-2014 21:10:00 3.8 C 5.83 g/m*3 3.8 C 0 km/h
2127 26-01-2014 21:15:00 3.8 C 5.83 g/m*3 3.8 C 1.6 km/h
2128 26-01-2014 21:20:00 3.8 C 5.83 g/m*3 3.8 C 3.2 km/h
2129 26-01-2014 21:25:00 3.7 C 5.86 g/m*3 3.7 C 1.6 km/h
2130 26-01-2014 21:30:00 3.7 C 5.86 g/m*3 3.7 C 3.2 km/h
2131 26-01-2014 21:35:00 3.7 C 5.86 g/m*3 3.7 C 4.8 km/h
2132 26-01-2014 21:40:00 3.7 C 5.86 g/m*3 3.7 C 3.2 km/h
2133 26-01-2014 21:45:00 3.7 C 5.86 g/m*3 3.7 C 4.8 km/h
2134 26-01-2014 21:50:00 3.7 C 5.86 g/m*3 3.7 C 3.2 km/h
2135 26-01-2014 21:55:00 3.7 C 5.86 g/m*3 3.7 C 3.2 km/h
2136 26-01-2014 22:00:00 3.7 C 5.86 g/m*3 2.09 C 6.4 km/h
2137 26-01-2014 22:05:00 3.7 C 5.86 g/m*3 3.7 C 4.8 km/h
2138 26-01-2014 22:10:00 3.7 C 5.86 g/m*3 3.7 C 0 km/h
2139 26-01-2014 22:15:00 3.7 C 5.86 g/m*3 3.7 C 0 km/h
2140 26-01-2014 22:20:00 3.7 C 5.86 g/m*3 3.7 C 4.8 km/h
2141 26-01-2014 22:25:00 3.7 C 5.86 g/m*3 3.7 C 3.2 km/h
2142 26-01-2014 22:30:00 3.7 C 5.86 g/m*3 3.7 C 1.6 km/h
2143 26-01-2014 22:35:00 3.6 C 5.82 g/m*3 3.6 C 3.2 km/h
2144 26-01-2014 22:40:00 3.6 C 5.82 g/m*3 3.6 C 4.8 km/h
2145 26-01-2014 22:45:00 3.6 C 5.82 g/m*3 3.6 C 4.8 km/h
2146 26-01-2014 22:50:00 3.6 C 5.82 g/m*3 3.6 C 1.6 km/h
2147 26-01-2014 22:55:00 3.7 C 5.86 g/m*3 3.7 C 3.2 km/h
2148 26-01-2014 23:00:00 3.7 C 5.86 g/m*3 3.7 C 4.8 km/h
2149 26-01-2014 23:05:00 3.7 C 5.86 g/m*3 2.09 C 6.4 km/h
2150 26-01-2014 23:10:00 3.7 C 5.86 g/m*3 3.7 C 0 km/h
Sensor: Nr:Datum:Temp:Abs-Feuchte:Windchill:Wind:
Aussen-T/F 2151 26-01-2014 23:15:00 3.8 C 5.9 g/m*3 2.21 C 6.4 km/h
2152 26-01-2014 23:20:00 3.8 C 5.9 g/m*3 3.8 C 3.2 km/h
2153 26-01-2014 23:25:00 3.8 C 5.9 g/m*3 3.8 C 1.6 km/h
2154 26-01-2014 23:30:00 3.8 C 5.9 g/m*3 3.8 C 1.6 km/h
2155 26-01-2014 23:35:00 3.8 C 5.9 g/m*3 3.8 C 1.6 km/h
2156 26-01-2014 23:40:00 3.8 C 5.96 g/m*3 1.7 C 8.1 km/h
2157 26-01-2014 23:45:00 3.8 C 5.9 g/m*3 2.21 C 6.4 km/h
2158 26-01-2014 23:50:00 3.8 C 5.9 g/m*3 1.7 C 8.1 km/h
2159 26-01-2014 23:55:00 3.9 C 5.94 g/m*3 3.9 C 4.8 km/h
2160 27-01-2014 00:00:00 4 C 5.98 g/m*3 1.93 C 8.1 km/h
2161 27-01-2014 00:05:00 4.1 C 5.95 g/m*3 2.05 C 8.1 km/h
2162 27-01-2014 00:10:00 4.1 C 5.95 g/m*3 4.1 C 4.8 km/h
2163 27-01-2014 00:15:00 4.1 C 5.95 g/m*3 4.1 C 3.2 km/h
2164 27-01-2014 00:20:00 4.1 C 5.95 g/m*3 4.1 C 3.2 km/h
2165 27-01-2014 00:55:00 4.2 C 6.06 g/m*3 4.2 C 1.6 km/h
2166 27-01-2014 01:00:00 4.2 C 6.06 g/m*3 4.2 C 0 km/h
2167 27-01-2014 01:05:00 4.2 C 6.12 g/m*3 2.67 C 6.4 km/h
2168 27-01-2014 01:10:00 4.2 C 6.12 g/m*3 4.2 C 1.6 km/h
2169 27-01-2014 01:15:00 4.2 C 6.12 g/m*3 4.2 C 4.8 km/h
2170 27-01-2014 01:20:00 4.2 C 6.12 g/m*3 4.2 C 1.6 km/h
2171 27-01-2014 01:25:00 4.2 C 6.12 g/m*3 4.2 C 1.6 km/h
2172 27-01-2014 01:30:00 4.3 C 6.16 g/m*3 4.3 C 1.6 km/h
2173 27-01-2014 01:35:00 4.3 C 6.16 g/m*3 4.3 C 1.6 km/h
2174 27-01-2014 01:40:00 4.3 C 6.16 g/m*3 4.3 C 4.8 km/h
2175 27-01-2014 01:45:00 4.3 C 6.16 g/m*3 4.3 C 3.2 km/h
Sensor: Nr:Datum:Temp:Abs-Feuchte:Windchill:Wind:
Aussen-T/F 2176 27-01-2014 01:50:00 4.2 C 6.12 g/m*3 4.2 C 4.8 km/h
2177 27-01-2014 01:55:00 4.3 C 6.16 g/m*3 2.78 C 6.4 km/h
2178 27-01-2014 02:00:00 4.3 C 6.16 g/m*3 4.3 C 4.8 km/h
2179 27-01-2014 02:05:00 4.6 C 6.35 g/m*3 1.61 C 12.9 km/h
2180 27-01-2014 02:10:00 4.6 C 6.29 g/m*3 4.6 C 4.8 km/h
2181 27-01-2014 02:15:00 4.5 C 6.18 g/m*3 2.52 C 8.1 km/h
2182 27-01-2014 02:20:00 4.4 C 6.14 g/m*3 4.4 C 4.8 km/h
2183 27-01-2014 02:25:00 4.2 C 6.06 g/m*3 4.2 C 4.8 km/h
2184 27-01-2014 02:30:00 4.2 C 6.12 g/m*3 4.2 C 3.2 km/h
2185 27-01-2014 02:35:00 4.2 C 6.12 g/m*3 4.2 C 3.2 km/h
2186 27-01-2014 02:40:00 4.2 C 6.12 g/m*3 2.67 C 6.4 km/h
2187 27-01-2014 02:45:00 4.1 C 6.08 g/m*3 4.1 C 3.2 km/h
2188 27-01-2014 02:50:00 4.2 C 6.19 g/m*3 2.67 C 6.4 km/h
2189 27-01-2014 02:55:00 4.3 C 6.16 g/m*3 2.78 C 6.4 km/h
2190 27-01-2014 03:00:00 4.5 C 6.31 g/m*3 2.52 C 8.1 km/h
2191 27-01-2014 03:05:00 4.8 C 6.37 g/m*3 2.15 C 11.3 km/h
2192 27-01-2014 03:10:00 4.9 C 6.35 g/m*3 1.7 C 14.5 km/h
2193 27-01-2014 03:15:00 5.2 C 6.33 g/m*3 2.07 C 14.5 km/h
2194 27-01-2014 03:20:00 5.2 C 6.27 g/m*3 3.34 C 8.1 km/h
2195 27-01-2014 03:25:00 5.3 C 6.24 g/m*3 2.75 C 11.3 km/h
2196 27-01-2014 03:30:00 5.2 C 6.27 g/m*3 2.96 C 9.7 km/h
2197 27-01-2014 03:35:00 5.2 C 6.27 g/m*3 3.34 C 8.1 km/h
2198 27-01-2014 03:40:00 5 C 6.18 g/m*3 3.11 C 8.1 km/h
2199 27-01-2014 03:45:00 4.9 C 6.14 g/m*3 2.61 C 9.7 km/h
2200 27-01-2014 03:50:00 4.9 C 6.14 g/m*3 3.48 C 6.4 km/h
Sensor: Nr:Datum:Temp:Abs-Feuchte:Windchill:Wind:
Aussen-T/F 2201 27-01-2014 03:55:00 4.9 C 6.14 g/m*3 3.48 C 6.4 km/h
2202 27-01-2014 04:00:00 4.9 C 6.08 g/m*3 2.27 C 11.3 km/h
2203 27-01-2014 04:05:00 4.8 C 6.04 g/m*3 3.36 C 6.4 km/h
2204 27-01-2014 04:10:00 4.7 C 6 g/m*3 2.76 C 8.1 km/h
2205 27-01-2014 04:15:00 4.5 C 5.98 g/m*3 3.02 C 6.4 km/h
2206 27-01-2014 04:20:00 4.3 C 5.9 g/m*3 4.3 C 3.2 km/h
2207 27-01-2014 04:25:00 4.2 C 5.86 g/m*3 1.77 C 9.7 km/h
2208 27-01-2014 04:30:00 3.9 C 5.81 g/m*3 3.9 C 4.8 km/h
2209 27-01-2014 04:35:00 3.8 C 5.83 g/m*3 3.8 C 3.2 km/h
2210 27-01-2014 04:40:00 3.8 C 5.9 g/m*3 3.8 C 1.6 km/h
2211 27-01-2014 04:45:00 3.8 C 5.9 g/m*3 3.8 C 0 km/h
2212 27-01-2014 04:50:00 3.8 C 5.96 g/m*3 3.8 C 0 km/h
2213 27-01-2014 04:55:00 3.8 C 5.96 g/m*3 3.8 C 0 km/h
2214 27-01-2014 05:00:00 3.9 C 6 g/m*3 3.9 C 0 km/h
2215 27-01-2014 05:05:00 3.9 C 6 g/m*3 3.9 C 4.8 km/h
2216 27-01-2014 05:10:00 3.9 C 6 g/m*3 1.82 C 8.1 km/h
2217 27-01-2014 05:15:00 4.2 C 6.06 g/m*3 1.43 C 11.3 km/h
2218 27-01-2014 05:20:00 4.4 C 6.07 g/m*3 4.4 C 4.8 km/h
2219 27-01-2014 05:25:00 4.4 C 5.94 g/m*3 1.09 C 14.5 km/h
2220 27-01-2014 05:30:00 4.4 C 5.88 g/m*3 2.4 C 8.1 km/h
2221 27-01-2014 05:35:00 4.5 C 5.92 g/m*3 4.5 C 4.8 km/h
2222 27-01-2014 05:40:00 4.4 C 5.88 g/m*3 2.9 C 6.4 km/h
2223 27-01-2014 05:45:00 4.4 C 5.81 g/m*3 4.4 C 4.8 km/h
2224 27-01-2014 05:50:00 4.5 C 5.78 g/m*3 4.5 C 4.8 km/h
2225 27-01-2014 05:55:00 4.5 C 5.78 g/m*3 4.5 C 3.2 km/h
Sensor: Nr:Datum:Temp:Abs-Feuchte:Windchill:Wind:
Aussen-T/F 2226 27-01-2014 06:00:00 4.5 C 5.85 g/m*3 4.5 C 3.2 km/h
2227 27-01-2014 06:05:00 4.4 C 5.81 g/m*3 4.4 C 4.8 km/h
2228 27-01-2014 06:10:00 4.3 C 5.84 g/m*3 4.3 C 4.8 km/h
2229 27-01-2014 06:15:00 4.3 C 5.84 g/m*3 2.78 C 6.4 km/h
2230 27-01-2014 06:20:00 4.2 C 5.8 g/m*3 4.2 C 3.2 km/h
2231 27-01-2014 06:25:00 4.2 C 5.8 g/m*3 4.2 C 3.2 km/h
2232 27-01-2014 06:30:00 4.2 C 5.86 g/m*3 4.2 C 3.2 km/h
2233 27-01-2014 06:35:00 4 C 5.79 g/m*3 4 C 4.8 km/h
2234 27-01-2014 06:40:00 3.9 C 5.68 g/m*3 3.9 C 4.8 km/h
2235 27-01-2014 06:45:00 3.9 C 5.68 g/m*3 3.9 C 3.2 km/h
2236 27-01-2014 06:50:00 3.8 C 5.65 g/m*3 3.8 C 3.2 km/h
2237 27-01-2014 06:55:00 3.7 C 5.67 g/m*3 3.7 C 3.2 km/h
2238 27-01-2014 07:00:00 3.6 C 5.63 g/m*3 3.6 C 3.2 km/h
2239 27-01-2014 07:05:00 3.4 C 5.62 g/m*3 3.4 C 4.8 km/h
2240 27-01-2014 07:10:00 3.3 C 5.58 g/m*3 3.3 C 3.2 km/h
2241 27-01-2014 07:15:00 3.2 C 5.54 g/m*3 3.2 C 1.6 km/h
2242 27-01-2014 07:20:00 3.1 C 5.51 g/m*3 3.1 C 1.6 km/h
2243 27-01-2014 07:25:00 3 C 5.53 g/m*3 3 C 3.2 km/h
2244 27-01-2014 07:30:00 2.8 C 5.46 g/m*3 2.8 C 1.6 km/h
2245 27-01-2014 07:35:00 2.8 C 5.46 g/m*3 2.8 C 1.6 km/h
2246 27-01-2014 07:40:00 2.8 C 5.51 g/m*3 2.8 C 4.8 km/h
2247 27-01-2014 07:45:00 3.1 C 5.57 g/m*3 3.1 C 3.2 km/h
2248 27-01-2014 07:50:00 3.2 C 5.54 g/m*3 3.2 C 3.2 km/h
2249 27-01-2014 07:55:00 3.4 C 5.5 g/m*3 1.75 C 6.4 km/h
2250 27-01-2014 08:00:00 3.6 C 5.51 g/m*3 1.06 C 9.7 km/h
Sensor: Nr:Datum:Temp:Abs-Feuchte:Windchill:Wind:
Aussen-T/F 2251 27-01-2014 08:05:00 3.7 C 5.48 g/m*3 1.58 C 8.1 km/h
2252 27-01-2014 08:10:00 3.8 C 5.52 g/m*3 3.8 C 4.8 km/h
2253 27-01-2014 08:15:00 3.8 C 5.52 g/m*3 3.8 C 4.8 km/h
2254 27-01-2014 08:20:00 3.8 C 5.52 g/m*3 2.21 C 6.4 km/h
2255 27-01-2014 08:25:00 3.8 C 5.4 g/m*3 0.94 C 11.3 km/h
2256 27-01-2014 08:30:00 3.9 C 5.43 g/m*3 0.47 C 14.5 km/h
2257 27-01-2014 08:35:00 4.2 C 5.54 g/m*3 1.43 C 11.3 km/h
2258 27-01-2014 08:40:00 4.2 C 5.54 g/m*3 4.2 C 4.8 km/h
2259 27-01-2014 08:45:00 4.2 C 5.54 g/m*3 1.12 C 12.9 km/h
2260 27-01-2014 08:50:00 4.2 C 5.54 g/m*3 2.17 C 8.1 km/h
2261 27-01-2014 08:55:00 4.1 C 5.5 g/m*3 2.55 C 6.4 km/h
2262 27-01-2014 09:00:00 4.1 C 5.5 g/m*3 4.1 C 3.2 km/h
2263 27-01-2014 09:05:00 4.1 C 5.5 g/m*3 2.55 C 6.4 km/h
2264 27-01-2014 09:10:00 4.1 C 5.5 g/m*3 4.1 C 4.8 km/h
2265 27-01-2014 12:05:00 4.9 C 5.47 g/m*3 4.9 C 4.8 km/h
2266 27-01-2014 12:10:00 5 C 5.5 g/m*3 3.59 C 6.4 km/h
2267 27-01-2014 12:15:00 5.1 C 5.54 g/m*3 3.23 C 8.1 km/h
2268 27-01-2014 12:20:00 5.2 C 5.58 g/m*3 2.34 C 12.9 km/h
2269 27-01-2014 12:25:00 5.3 C 5.48 g/m*3 1.96 C 16.1 km/h
2270 27-01-2014 12:30:00 5.3 C 5.48 g/m*3 2.2 C 14.5 km/h
2271 27-01-2014 12:35:00 5.3 C 5.41 g/m*3 2.46 C 12.9 km/h
2272 27-01-2014 12:40:00 5.2 C 5.3 g/m*3 1.61 C 17.7 km/h
2273 27-01-2014 12:45:00 5.1 C 5.34 g/m*3 1.49 C 17.7 km/h
2274 27-01-2014 12:50:00 5 C 5.3 g/m*3 2.39 C 11.3 km/h
2275 27-01-2014 12:55:00 5 C 5.37 g/m*3 2.72 C 9.7 km/h
Sensor: Nr:Datum:Temp:Abs-Feuchte:Windchill:Wind:
Aussen-T/F 2276 27-01-2014 13:00:00 5 C 5.44 g/m*3 1.36 C 17.7 km/h
2277 27-01-2014 13:05:00 4.7 C 5.66 g/m*3 1.21 C 16.1 km/h
2278 27-01-2014 13:10:00 4.3 C 5.64 g/m*3 2.29 C 8.1 km/h
2279 27-01-2014 13:15:00 4.2 C 5.67 g/m*3 2.17 C 8.1 km/h
2280 27-01-2014 13:20:00 4.2 C 5.61 g/m*3 2.67 C 6.4 km/h
2281 27-01-2014 13:25:00 4.2 C 5.67 g/m*3 4.2 C 4.8 km/h
2282 27-01-2014 13:30:00 4.2 C 5.73 g/m*3 4.2 C 3.2 km/h
2283 27-01-2014 13:35:00 4.3 C 5.77 g/m*3 4.3 C 1.6 km/h
2284 27-01-2014 13:40:00 4.4 C 5.75 g/m*3 4.4 C 1.6 km/h
2285 27-01-2014 13:45:00 4.5 C 5.72 g/m*3 4.5 C 4.8 km/h
2286 27-01-2014 13:50:00 4.7 C 5.53 g/m*3 1.73 C 12.9 km/h
2287 27-01-2014 13:55:00 4.8 C 5.5 g/m*3 2.49 C 9.7 km/h
2288 27-01-2014 14:00:00 4.9 C 5.4 g/m*3 2.61 C 9.7 km/h
2289 27-01-2014 14:05:00 5.1 C 5.34 g/m*3 1.49 C 17.7 km/h
2290 27-01-2014 14:10:00 5.1 C 5.4 g/m*3 2.51 C 11.3 km/h
2291 27-01-2014 14:15:00 5.2 C 5.44 g/m*3 2.63 C 11.3 km/h
2292 27-01-2014 14:20:00 5.2 C 5.37 g/m*3 2.07 C 14.5 km/h
2293 27-01-2014 14:25:00 5.2 C 5.37 g/m*3 2.34 C 12.9 km/h
2294 27-01-2014 14:30:00 5.1 C 5.4 g/m*3 2.84 C 9.7 km/h
2295 27-01-2014 14:35:00 5.1 C 5.34 g/m*3 3.71 C 6.4 km/h
2296 27-01-2014 14:40:00 5.1 C 5.34 g/m*3 2.51 C 11.3 km/h
2297 27-01-2014 14:45:00 5 C 5.3 g/m*3 2.39 C 11.3 km/h
2298 27-01-2014 14:50:00 5 C 5.3 g/m*3 5 C 4.8 km/h
2299 27-01-2014 14:55:00 5 C 5.3 g/m*3 3.59 C 6.4 km/h
2300 27-01-2014 15:00:00 5.3 C 5.48 g/m*3 5.3 C 3.2 km/h
Sensor: Nr:Datum:Temp:Abs-Feuchte:Windchill:Wind:
Aussen-T/F 2301 27-01-2014 15:05:00 5.3 C 5.41 g/m*3 2.75 C 11.3 km/h
2302 27-01-2014 15:10:00 5.3 C 5.34 g/m*3 2.46 C 12.9 km/h
2303 27-01-2014 15:15:00 5.3 C 5.34 g/m*3 3.94 C 6.4 km/h
2304 27-01-2014 15:20:00 5.3 C 5.34 g/m*3 5.3 C 3.2 km/h
2305 27-01-2014 15:25:00 5.3 C 5.27 g/m*3 5.3 C 3.2 km/h
2306 27-01-2014 15:30:00 5.3 C 5.34 g/m*3 5.3 C 3.2 km/h
2307 27-01-2014 15:35:00 5.3 C 5.2 g/m*3 3.08 C 9.7 km/h
2308 27-01-2014 15:40:00 5.4 C 5.3 g/m*3 3.58 C 8.1 km/h
2309 27-01-2014 15:45:00 5.3 C 5.27 g/m*3 2.75 C 11.3 km/h
2310 27-01-2014 15:50:00 5.3 C 5.27 g/m*3 3.94 C 6.4 km/h
2311 27-01-2014 15:55:00 5.3 C 5.2 g/m*3 3.46 C 8.1 km/h
2312 27-01-2014 16:00:00 5.2 C 5.23 g/m*3 2.63 C 11.3 km/h
2313 27-01-2014 16:05:00 5.2 C 5.23 g/m*3 5.2 C 3.2 km/h
2314 27-01-2014 16:10:00 5.2 C 5.23 g/m*3 5.2 C 4.8 km/h
2315 27-01-2014 16:15:00 5.1 C 5.34 g/m*3 5.1 C 1.6 km/h
2316 27-01-2014 16:20:00 5.1 C 5.34 g/m*3 5.1 C 3.2 km/h
2317 27-01-2014 16:25:00 5.1 C 5.34 g/m*3 3.23 C 8.1 km/h
2318 27-01-2014 16:30:00 5 C 5.23 g/m*3 5 C 3.2 km/h
2319 27-01-2014 16:35:00 5 C 5.23 g/m*3 3.11 C 8.1 km/h
2320 27-01-2014 16:40:00 5 C 5.16 g/m*3 5 C 1.6 km/h
2321 27-01-2014 16:45:00 4.9 C 5.47 g/m*3 4.9 C 1.6 km/h
2322 27-01-2014 16:50:00 4.9 C 5.6 g/m*3 3.48 C 6.4 km/h
2323 27-01-2014 16:55:00 4.8 C 5.57 g/m*3 4.8 C 1.6 km/h
2324 27-01-2014 17:00:00 4.7 C 5.53 g/m*3 4.7 C 0 km/h
2325 27-01-2014 17:05:00 4.6 C 5.23 g/m*3 4.6 C 4.8 km/h
Sensor: Nr:Datum:Temp:Abs-Feuchte:Windchill:Wind:
Aussen-T/F 2326 27-01-2014 17:10:00 4.6 C 5.29 g/m*3 2.64 C 8.1 km/h
2327 27-01-2014 17:15:00 4.6 C 5.36 g/m*3 4.6 C 1.6 km/h
2328 27-01-2014 17:20:00 4.4 C 5.48 g/m*3 4.4 C 3.2 km/h
2329 27-01-2014 17:25:00 4.3 C 5.38 g/m*3 4.3 C 4.8 km/h
2330 27-01-2014 17:30:00 4.2 C 5.41 g/m*3 4.2 C 1.6 km/h
2331 27-01-2014 17:35:00 4.1 C 5.38 g/m*3 4.1 C 3.2 km/h
2332 27-01-2014 17:40:00 4 C 5.4 g/m*3 4 C 0 km/h
2333 27-01-2014 17:45:00 3.9 C 5.43 g/m*3 3.9 C 1.6 km/h
2334 27-01-2014 17:50:00 3.9 C 5.43 g/m*3 3.9 C 1.6 km/h
2335 27-01-2014 17:55:00 3.8 C 5.33 g/m*3 3.8 C 4.8 km/h
2336 27-01-2014 18:00:00 3.9 C 5.18 g/m*3 3.9 C 3.2 km/h
2337 27-01-2014 18:05:00 4.2 C 5.28 g/m*3 4.2 C 4.8 km/h
2338 27-01-2014 18:10:00 4.3 C 5.32 g/m*3 4.3 C 3.2 km/h
2339 27-01-2014 18:15:00 4.3 C 5.25 g/m*3 4.3 C 0 km/h
2340 27-01-2014 18:20:00 4.3 C 5.45 g/m*3 4.3 C 0 km/h
2341 27-01-2014 18:25:00 4.1 C 5.38 g/m*3 4.1 C 0 km/h
2342 27-01-2014 18:30:00 4 C 5.47 g/m*3 4 C 3.2 km/h
2343 27-01-2014 18:35:00 3.9 C 5.37 g/m*3 3.9 C 1.6 km/h
2344 27-01-2014 18:40:00 3.9 C 5.31 g/m*3 3.9 C 3.2 km/h
2345 27-01-2014 18:45:00 3.9 C 5.31 g/m*3 3.9 C 3.2 km/h
2346 27-01-2014 18:50:00 3.9 C 5.31 g/m*3 3.9 C 4.8 km/h
2347 27-01-2014 21:40:00 4.4 C 6.53 g/m*3 2.9 C 6.4 km/h
2348 27-01-2014 21:45:00 4.4 C 6.53 g/m*3 2.01 C 9.7 km/h
2349 27-01-2014 21:50:00 4.4 C 6.53 g/m*3 2.01 C 9.7 km/h
2350 27-01-2014 21:55:00 4.4 C 6.53 g/m*3 4.4 C 4.8 km/h
Sensor: Nr:Datum:Temp:Abs-Feuchte:Windchill:Wind:
Aussen-T/F 2351 28-01-2014 08:30:00 1.4 C 4.96 g/m*3 1.4 C 3.2 km/h
2352 28-01-2014 08:35:00 1.4 C 4.96 g/m*3 1.4 C 1.6 km/h
2353 28-01-2014 08:40:00 1.4 C 4.96 g/m*3 1.4 C 1.6 km/h
2354 28-01-2014 10:45:00 3.6 C 5.32 g/m*3 3.6 C 1.6 km/h
2355 28-01-2014 10:50:00 3.6 C 5.26 g/m*3 3.6 C 3.2 km/h
2356 28-01-2014 10:55:00 3.7 C 5.17 g/m*3 1.58 C 8.1 km/h
2357 28-01-2014 11:00:00 3.8 C 5.33 g/m*3 3.8 C 1.6 km/h
2358 28-01-2014 11:05:00 3.8 C 5.33 g/m*3 3.8 C 4.8 km/h
2359 28-01-2014 11:10:00 3.7 C 5.3 g/m*3 3.7 C 4.8 km/h
2360 28-01-2014 11:15:00 3.7 C 5.11 g/m*3 1.58 C 8.1 km/h
2361 28-01-2014 11:20:00 3.8 C 5.27 g/m*3 3.8 C 1.6 km/h
2362 28-01-2014 11:25:00 3.7 C 5.3 g/m*3 3.7 C 4.8 km/h
2363 28-01-2014 11:30:00 3.5 C 5.29 g/m*3 3.5 C 4.8 km/h
2364 28-01-2014 11:35:00 3.4 C 5.37 g/m*3 3.4 C 4.8 km/h
2365 28-01-2014 11:40:00 3.5 C 5.29 g/m*3 3.5 C 4.8 km/h
2366 28-01-2014 11:45:00 4.1 C 5.31 g/m*3 1 C 12.9 km/h
2367 28-01-2014 11:50:00 4.5 C 5.26 g/m*3 1.48 C 12.9 km/h
2368 28-01-2014 11:55:00 4.8 C 5.36 g/m*3 4.8 C 3.2 km/h
2369 28-01-2014 12:00:00 4.7 C 5.26 g/m*3 4.7 C 4.8 km/h
2370 28-01-2014 12:05:00 4.8 C 5.23 g/m*3 3.36 C 6.4 km/h
2371 28-01-2014 12:10:00 4.9 C 5.33 g/m*3 2.61 C 9.7 km/h
2372 28-01-2014 12:15:00 5.1 C 5.27 g/m*3 2.51 C 11.3 km/h
2373 28-01-2014 12:20:00 5.3 C 5.41 g/m*3 2.75 C 11.3 km/h
2374 28-01-2014 12:25:00 5.4 C 5.3 g/m*3 2.58 C 12.9 km/h
2375 28-01-2014 12:30:00 5.4 C 5.23 g/m*3 3.2 C 9.7 km/h
Sensor: Nr:Datum:Temp:Abs-Feuchte:Windchill:Wind:
Aussen-T/F 2376 28-01-2014 12:35:00 5.4 C 5.23 g/m*3 4.06 C 6.4 km/h
2377 28-01-2014 16:00:00 6.6 C 5.66 g/m*3 5.44 C 6.4 km/h
2378 28-01-2014 16:05:00 6.6 C 5.66 g/m*3 6.6 C 4.8 km/h
2379 28-01-2014 16:10:00 6.6 C 5.66 g/m*3 6.6 C 4.8 km/h
2380 28-01-2014 17:40:00 4.1 C 5.5 g/m*3 4.1 C 3.2 km/h
2381 28-01-2014 17:45:00 3.8 C 5.4 g/m*3 3.8 C 3.2 km/h
2382 28-01-2014 17:50:00 3.6 C 5.45 g/m*3 3.6 C 3.2 km/h
2383 28-01-2014 17:55:00 3.3 C 5.34 g/m*3 3.3 C 3.2 km/h
2384 28-01-2014 18:00:00 3.2 C 5.36 g/m*3 3.2 C 3.2 km/h
2385 28-01-2014 18:05:00 3 C 5.29 g/m*3 3 C 3.2 km/h
2386 28-01-2014 18:10:00 2.9 C 5.26 g/m*3 2.9 C 3.2 km/h
2387 28-01-2014 18:15:00 2.9 C 5.26 g/m*3 2.9 C 3.2 km/h
2388 28-01-2014 18:20:00 2.8 C 5.22 g/m*3 2.8 C 3.2 km/h
2389 28-01-2014 18:25:00 2.8 C 5.22 g/m*3 2.8 C 1.6 km/h
2390 28-01-2014 18:30:00 2.7 C 5.19 g/m*3 2.7 C 3.2 km/h
2391 28-01-2014 18:35:00 2.6 C 5.21 g/m*3 2.6 C 3.2 km/h
2392 28-01-2014 18:40:00 2.4 C 5.14 g/m*3 2.4 C 4.8 km/h
2393 28-01-2014 18:45:00 2.4 C 5.14 g/m*3 2.4 C 3.2 km/h
2394 28-01-2014 18:50:00 2.3 C 5.16 g/m*3 2.3 C 4.8 km/h
2395 28-01-2014 18:55:00 2.3 C 5.1 g/m*3 2.3 C 4.8 km/h
2396 28-01-2014 19:00:00 2.2 C 5.07 g/m*3 2.2 C 4.8 km/h
2397 28-01-2014 19:05:00 2.2 C 5.07 g/m*3 2.2 C 3.2 km/h
2398 28-01-2014 19:10:00 2.1 C 5.04 g/m*3 2.1 C 3.2 km/h
2399 28-01-2014 19:15:00 2 C 5.06 g/m*3 2 C 3.2 km/h
2400 28-01-2014 19:20:00 1.9 C 5.02 g/m*3 1.9 C 3.2 km/h
Sensor: Nr:Datum:Temp:Abs-Feuchte:Windchill:Wind:
Aussen-T/F 2401 28-01-2014 19:25:00 1.9 C 5.02 g/m*3 1.9 C 3.2 km/h
2402 28-01-2014 19:30:00 1.9 C 5.02 g/m*3 1.9 C 3.2 km/h
2403 28-01-2014 19:35:00 1.8 C 4.99 g/m*3 1.8 C 3.2 km/h
2404 28-01-2014 19:40:00 1.8 C 4.99 g/m*3 1.8 C 3.2 km/h
2405 28-01-2014 19:45:00 1.8 C 4.99 g/m*3 1.8 C 1.6 km/h
2406 28-01-2014 19:50:00 1.8 C 4.99 g/m*3 1.8 C 4.8 km/h
2407 28-01-2014 19:55:00 1.7 C 4.95 g/m*3 1.7 C 3.2 km/h
2408 28-01-2014 20:00:00 1.7 C 5.01 g/m*3 1.7 C 3.2 km/h
2409 28-01-2014 20:05:00 1.7 C 4.95 g/m*3 1.7 C 3.2 km/h
2410 28-01-2014 20:10:00 1.6 C 4.97 g/m*3 1.6 C 1.6 km/h
2411 28-01-2014 20:15:00 1.6 C 4.97 g/m*3 1.6 C 3.2 km/h
2412 28-01-2014 20:20:00 1.5 C 4.94 g/m*3 1.5 C 4.8 km/h
2413 28-01-2014 20:25:00 1.5 C 4.94 g/m*3 1.5 C 1.6 km/h
2414 28-01-2014 20:30:00 1.4 C 4.91 g/m*3 1.4 C 3.2 km/h
2415 28-01-2014 20:35:00 1.4 C 4.91 g/m*3 1.4 C 3.2 km/h
2416 28-01-2014 20:40:00 1.4 C 4.91 g/m*3 1.4 C 1.6 km/h
2417 28-01-2014 20:45:00 1.3 C 4.87 g/m*3 1.3 C 3.2 km/h
2418 28-01-2014 20:50:00 1.3 C 4.87 g/m*3 1.3 C 3.2 km/h
2419 28-01-2014 20:55:00 1.2 C 4.84 g/m*3 1.2 C 3.2 km/h
2420 28-01-2014 21:00:00 1.2 C 4.84 g/m*3 1.2 C 3.2 km/h
2421 28-01-2014 21:05:00 1.2 C 4.84 g/m*3 1.2 C 3.2 km/h
2422 28-01-2014 21:10:00 1.2 C 4.89 g/m*3 1.2 C 3.2 km/h
2423 28-01-2014 21:15:00 1.1 C 4.86 g/m*3 1.1 C 3.2 km/h
2424 28-01-2014 21:20:00 1.1 C 4.86 g/m*3 1.1 C 3.2 km/h
2425 28-01-2014 21:25:00 1.1 C 4.86 g/m*3 1.1 C 1.6 km/h
Sensor: Nr:Datum:Temp:Abs-Feuchte:Windchill:Wind:
Aussen-T/F 2426 28-01-2014 21:30:00 1 C 4.83 g/m*3 1 C 1.6 km/h
2427 28-01-2014 21:35:00 1 C 4.83 g/m*3 1 C 1.6 km/h
2428 28-01-2014 21:40:00 0.9 C 4.79 g/m*3 0.9 C 1.6 km/h
2429 28-01-2014 21:45:00 0.9 C 4.85 g/m*3 0.9 C 3.2 km/h
2430 28-01-2014 21:50:00 0.9 C 4.79 g/m*3 0.9 C 3.2 km/h
2431 28-01-2014 21:55:00 0.9 C 4.79 g/m*3 0.9 C 3.2 km/h
2432 28-01-2014 22:00:00 0.9 C 4.79 g/m*3 0.9 C 3.2 km/h
2433 28-01-2014 22:05:00 0.9 C 4.79 g/m*3 0.9 C 3.2 km/h
2434 28-01-2014 22:10:00 0.9 C 4.85 g/m*3 0.9 C 1.6 km/h
2435 28-01-2014 22:15:00 0.9 C 4.79 g/m*3 0.9 C 4.8 km/h
2436 28-01-2014 22:20:00 0.8 C 4.81 g/m*3 0.8 C 3.2 km/h
2437 28-01-2014 22:25:00 0.8 C 4.76 g/m*3 0.8 C 3.2 km/h
2438 28-01-2014 22:30:00 0.8 C 4.76 g/m*3 0.8 C 3.2 km/h
2439 28-01-2014 22:35:00 0.8 C 4.76 g/m*3 0.8 C 1.6 km/h
2440 28-01-2014 22:40:00 0.8 C 4.76 g/m*3 0.8 C 3.2 km/h
2441 28-01-2014 22:45:00 0.7 C 4.73 g/m*3 0.7 C 3.2 km/h
2442 28-01-2014 22:50:00 0.7 C 4.73 g/m*3 0.7 C 3.2 km/h
2443 28-01-2014 22:55:00 0.7 C 4.73 g/m*3 0.7 C 3.2 km/h
2444 28-01-2014 23:00:00 0.7 C 4.73 g/m*3 0.7 C 3.2 km/h
2445 28-01-2014 23:35:00 0.4 C 4.98 g/m*3 0.4 C 3.2 km/h
2446 28-01-2014 23:40:00 0.4 C 4.68 g/m*3 0.4 C 3.2 km/h
2447 28-01-2014 23:45:00 0.3 C 4.65 g/m*3 0.3 C 3.2 km/h
2448 28-01-2014 23:50:00 0.3 C 4.65 g/m*3 0.3 C 3.2 km/h
2449 28-01-2014 23:55:00 0.2 C 4.62 g/m*3 0.2 C 3.2 km/h
2450 29-01-2014 00:00:00 0.2 C 4.62 g/m*3 0.2 C 3.2 km/h
Sensor: Nr:Datum:Temp:Abs-Feuchte:Windchill:Wind:
Aussen-T/F 2451 29-01-2014 00:05:00 0.1 C 4.59 g/m*3 0.1 C 1.6 km/h
2452 29-01-2014 00:10:00 0.2 C 4.62 g/m*3 0.2 C 3.2 km/h
2453 29-01-2014 00:15:00 0.1 C 4.59 g/m*3 0.1 C 3.2 km/h
2454 29-01-2014 00:20:00 0.2 C 4.67 g/m*3 0.2 C 1.6 km/h
2455 29-01-2014 00:25:00 0.2 C 4.67 g/m*3 0.2 C 3.2 km/h
2456 29-01-2014 00:30:00 0.1 C 4.59 g/m*3 0.1 C 3.2 km/h
2457 29-01-2014 00:35:00 0.1 C 4.59 g/m*3 0.1 C 1.6 km/h
2458 29-01-2014 00:40:00 0.1 C 4.63 g/m*3 0.1 C 3.2 km/h
2459 29-01-2014 00:45:00 0 C 4.6 g/m*3 0 C 3.2 km/h
2460 29-01-2014 00:50:00 0 C 4.6 g/m*3 0 C 3.2 km/h
2461 29-01-2014 00:55:00 0.1 C 4.63 g/m*3 0.1 C 3.2 km/h
2462 29-01-2014 01:00:00 -0.1 C 4.52 g/m*3 -0.1 C 1.6 km/h
2463 29-01-2014 01:05:00 -0.1 C 4.57 g/m*3 -0.1 C 3.2 km/h
2464 29-01-2014 01:10:00 -0.2 C 4.54 g/m*3 -0.2 C 3.2 km/h
2465 29-01-2014 01:15:00 -0.2 C 4.54 g/m*3 -0.2 C 3.2 km/h
2466 29-01-2014 01:20:00 -0.2 C 4.54 g/m*3 -0.2 C 3.2 km/h
2467 29-01-2014 01:25:00 -0.2 C 4.54 g/m*3 -0.2 C 3.2 km/h
2468 29-01-2014 01:30:00 -0.2 C 4.54 g/m*3 -0.2 C 3.2 km/h
2469 29-01-2014 01:35:00 -0.2 C 4.54 g/m*3 -0.2 C 3.2 km/h
2470 29-01-2014 01:40:00 -0.3 C 4.51 g/m*3 -0.3 C 3.2 km/h
2471 29-01-2014 01:45:00 -0.3 C 4.51 g/m*3 -0.3 C 3.2 km/h
2472 29-01-2014 01:50:00 -0.3 C 4.51 g/m*3 -0.3 C 3.2 km/h
2473 29-01-2014 01:55:00 -0.2 C 4.54 g/m*3 -0.2 C 3.2 km/h
2474 29-01-2014 02:00:00 -0.1 C 4.57 g/m*3 -0.1 C 3.2 km/h
2475 29-01-2014 02:05:00 0.1 C 4.68 g/m*3 0.1 C 3.2 km/h
Sensor: Nr:Datum:Temp:Abs-Feuchte:Windchill:Wind:
Aussen-T/F 2476 29-01-2014 02:10:00 0.2 C 4.72 g/m*3 0.2 C 3.2 km/h
2477 29-01-2014 02:15:00 0.3 C 4.75 g/m*3 0.3 C 3.2 km/h
2478 29-01-2014 02:20:00 0.4 C 4.78 g/m*3 0.4 C 1.6 km/h
2479 29-01-2014 02:25:00 0.3 C 4.7 g/m*3 0.3 C 3.2 km/h
2480 29-01-2014 02:30:00 0.3 C 4.7 g/m*3 0.3 C 1.6 km/h
2481 29-01-2014 02:35:00 0.2 C 4.67 g/m*3 0.2 C 1.6 km/h
2482 29-01-2014 02:40:00 0.2 C 4.67 g/m*3 0.2 C 1.6 km/h
2483 29-01-2014 02:45:00 0.2 C 4.67 g/m*3 0.2 C 3.2 km/h
2484 29-01-2014 02:50:00 0.2 C 4.67 g/m*3 0.2 C 1.6 km/h
2485 29-01-2014 02:55:00 0.2 C 4.67 g/m*3 0.2 C 3.2 km/h
2486 29-01-2014 03:00:00 0.2 C 4.67 g/m*3 0.2 C 3.2 km/h
2487 29-01-2014 03:05:00 0.2 C 4.67 g/m*3 0.2 C 3.2 km/h
2488 29-01-2014 04:15:00 1 C 4.88 g/m*3 1 C 3.2 km/h
2489 29-01-2014 04:20:00 1.1 C 4.86 g/m*3 1.1 C 3.2 km/h
2490 29-01-2014 04:25:00 1.1 C 4.86 g/m*3 1.1 C 1.6 km/h
2491 29-01-2014 04:30:00 1.2 C 4.89 g/m*3 1.2 C 4.8 km/h
2492 29-01-2014 04:35:00 1.2 C 4.89 g/m*3 1.2 C 1.6 km/h
2493 29-01-2014 04:40:00 1.3 C 4.87 g/m*3 1.3 C 0 km/h
2494 29-01-2014 04:45:00 1.3 C 4.87 g/m*3 1.3 C 4.8 km/h
2495 29-01-2014 04:50:00 1.3 C 4.87 g/m*3 1.3 C 3.2 km/h
2496 29-01-2014 04:55:00 1.3 C 4.82 g/m*3 1.3 C 1.6 km/h
2497 29-01-2014 05:00:00 1.3 C 4.82 g/m*3 1.3 C 1.6 km/h
2498 29-01-2014 05:05:00 1.4 C 4.85 g/m*3 1.4 C 3.2 km/h
2499 29-01-2014 05:10:00 1.4 C 4.85 g/m*3 1.4 C 3.2 km/h
2500 29-01-2014 07:15:00 1.6 C 4.7 g/m*3 1.6 C 1.6 km/h
Sensor: Nr:Datum:Temp:Abs-Feuchte:Windchill:Wind:
Aussen-T/F 2501 29-01-2014 07:20:00 1.6 C 4.7 g/m*3 1.6 C 1.6 km/h
2502 29-01-2014 07:25:00 1.6 C 4.7 g/m*3 1.6 C 1.6 km/h
2503 29-01-2014 07:30:00 1.6 C 4.7 g/m*3 1.6 C 4.8 km/h
2504 29-01-2014 07:35:00 1.6 C 4.76 g/m*3 1.6 C 0 km/h
2505 29-01-2014 07:40:00 1.6 C 4.76 g/m*3 1.6 C 4.8 km/h
2506 29-01-2014 07:45:00 1.6 C 4.76 g/m*3 -0.33 C 6.4 km/h
2507 29-01-2014 07:50:00 1.7 C 4.74 g/m*3 1.7 C 3.2 km/h
2508 29-01-2014 07:55:00 1.7 C 4.74 g/m*3 1.7 C 0 km/h
2509 29-01-2014 08:00:00 1.7 C 4.79 g/m*3 1.7 C 0 km/h
2510 29-01-2014 08:05:00 1.7 C 4.74 g/m*3 1.7 C 3.2 km/h
2511 29-01-2014 08:10:00 1.7 C 4.68 g/m*3 1.7 C 4.8 km/h
2512 29-01-2014 08:15:00 1.7 C 4.68 g/m*3 1.7 C 1.6 km/h
2513 29-01-2014 08:20:00 1.7 C 4.68 g/m*3 1.7 C 1.6 km/h
2514 29-01-2014 08:25:00 1.7 C 4.68 g/m*3 1.7 C 4.8 km/h
2515 29-01-2014 08:30:00 1.8 C 4.77 g/m*3 1.8 C 0 km/h
2516 29-01-2014 08:35:00 1.8 C 4.82 g/m*3 1.8 C 0 km/h
2517 29-01-2014 08:40:00 1.8 C 4.82 g/m*3 1.8 C 4.8 km/h
2518 29-01-2014 08:45:00 1.8 C 4.77 g/m*3 1.8 C 4.8 km/h
2519 29-01-2014 08:50:00 1.9 C 4.69 g/m*3 1.9 C 3.2 km/h
2520 29-01-2014 08:55:00 1.9 C 4.75 g/m*3 1.9 C 1.6 km/h
2521 29-01-2014 09:00:00 1.9 C 4.69 g/m*3 0.01 C 6.4 km/h
2522 29-01-2014 09:05:00 2 C 4.72 g/m*3 2 C 3.2 km/h
2523 29-01-2014 09:10:00 2.1 C 4.76 g/m*3 2.1 C 3.2 km/h
2524 29-01-2014 09:15:00 2.1 C 4.76 g/m*3 -1.11 C 11.3 km/h
2525 29-01-2014 09:20:00 2.1 C 4.76 g/m*3 -0.73 C 9.7 km/h
Sensor: Nr:Datum:Temp:Abs-Feuchte:Windchill:Wind:
Aussen-T/F 2526 29-01-2014 09:25:00 2.1 C 4.76 g/m*3 2.1 C 4.8 km/h
2527 29-01-2014 13:35:00 4 C 4.83 g/m*3 4 C 4.8 km/h
2528 29-01-2014 13:40:00 4.1 C 4.8 g/m*3 1.31 C 11.3 km/h
2529 29-01-2014 13:45:00 4.1 C 4.8 g/m*3 1.31 C 11.3 km/h
2530 29-01-2014 14:45:00 3.9 C 4.61 g/m*3 1.06 C 11.3 km/h
2531 29-01-2014 14:50:00 3.9 C 4.61 g/m*3 3.9 C 0 km/h
2532 29-01-2014 14:55:00 3.8 C 4.71 g/m*3 3.8 C 4.8 km/h
2533 29-01-2014 15:00:00 3.8 C 4.64 g/m*3 3.8 C 4.8 km/h
2534 29-01-2014 15:05:00 3.8 C 4.64 g/m*3 3.8 C 1.6 km/h
2535 29-01-2014 16:55:00 2.9 C 4.49 g/m*3 -0.46 C 12.9 km/h
2536 29-01-2014 17:20:00 2.8 C 4.46 g/m*3 2.8 C 3.2 km/h
2537 29-01-2014 17:25:00 2.7 C 4.43 g/m*3 2.7 C 3.2 km/h
2538 29-01-2014 17:30:00 2.7 C 4.49 g/m*3 2.7 C 3.2 km/h
2539 29-01-2014 17:35:00 2.7 C 4.43 g/m*3 2.7 C 1.6 km/h
2540 29-01-2014 17:40:00 2.6 C 4.57 g/m*3 2.6 C 3.2 km/h
2541 29-01-2014 17:45:00 2.6 C 4.51 g/m*3 0.82 C 6.4 km/h
2542 29-01-2014 17:50:00 2.5 C 4.48 g/m*3 2.5 C 3.2 km/h
2543 29-01-2014 17:55:00 2.4 C 4.45 g/m*3 2.4 C 4.8 km/h
2544 29-01-2014 18:00:00 2.4 C 4.45 g/m*3 2.4 C 1.6 km/h
2545 29-01-2014 18:05:00 2.4 C 4.51 g/m*3 2.4 C 0 km/h
2546 29-01-2014 18:10:00 2.3 C 4.54 g/m*3 2.3 C 0 km/h
2547 29-01-2014 18:15:00 2.2 C 4.51 g/m*3 2.2 C 1.6 km/h
2548 29-01-2014 18:20:00 2.2 C 4.56 g/m*3 2.2 C 0 km/h
2549 29-01-2014 18:25:00 2 C 4.56 g/m*3 2 C 1.6 km/h
2550 29-01-2014 18:30:00 1.9 C 4.58 g/m*3 1.9 C 0 km/h
Sensor: Nr:Datum:Temp:Abs-Feuchte:Windchill:Wind:
Aussen-T/F 2551 29-01-2014 18:35:00 1.8 C 4.55 g/m*3 1.8 C 0 km/h
2552 29-01-2014 18:40:00 1.8 C 4.55 g/m*3 1.8 C 4.8 km/h
2553 29-01-2014 18:45:00 1.8 C 4.55 g/m*3 1.8 C 3.2 km/h
2554 29-01-2014 18:50:00 1.7 C 4.57 g/m*3 1.7 C 0 km/h
2555 29-01-2014 18:55:00 1.7 C 4.57 g/m*3 1.7 C 0 km/h
2556 29-01-2014 19:00:00 1.7 C 4.63 g/m*3 1.7 C 1.6 km/h
2557 29-01-2014 19:05:00 1.6 C 4.54 g/m*3 1.6 C 3.2 km/h
2558 29-01-2014 19:10:00 1.6 C 4.54 g/m*3 1.6 C 0 km/h
2559 29-01-2014 19:15:00 1.6 C 4.49 g/m*3 1.6 C 3.2 km/h
2560 29-01-2014 19:20:00 1.7 C 4.57 g/m*3 1.7 C 0 km/h
2561 29-01-2014 19:25:00 1.7 C 4.57 g/m*3 1.7 C 0 km/h
2562 29-01-2014 19:30:00 1.7 C 4.57 g/m*3 -0.22 C 6.4 km/h
2563 29-01-2014 19:35:00 1.8 C 4.55 g/m*3 -0.1 C 6.4 km/h
2564 29-01-2014 19:40:00 1.8 C 4.49 g/m*3 1.8 C 3.2 km/h
2565 29-01-2014 19:45:00 1.9 C 4.58 g/m*3 0.01 C 6.4 km/h
2566 29-01-2014 19:50:00 2.1 C 4.53 g/m*3 0.24 C 6.4 km/h
2567 29-01-2014 19:55:00 2.2 C 4.45 g/m*3 2.2 C 3.2 km/h
2568 29-01-2014 20:00:00 2.3 C 4.54 g/m*3 2.3 C 3.2 km/h
2569 29-01-2014 20:05:00 2.4 C 4.51 g/m*3 2.4 C 3.2 km/h
2570 29-01-2014 20:10:00 2.4 C 4.51 g/m*3 2.4 C 1.6 km/h
2571 29-01-2014 20:15:00 2.3 C 4.54 g/m*3 2.3 C 0 km/h
2572 29-01-2014 20:20:00 2.3 C 4.48 g/m*3 2.3 C 3.2 km/h
2573 29-01-2014 20:25:00 2.3 C 4.48 g/m*3 -0.07 C 8.1 km/h
2574 29-01-2014 20:30:00 2.3 C 4.48 g/m*3 -0.49 C 9.7 km/h
2575 29-01-2014 20:35:00 2.2 C 4.56 g/m*3 2.2 C 3.2 km/h
Sensor: Nr:Datum:Temp:Abs-Feuchte:Windchill:Wind:
Aussen-T/F 2576 29-01-2014 20:40:00 2.2 C 4.51 g/m*3 2.2 C 3.2 km/h
2577 29-01-2014 20:45:00 2.1 C 4.48 g/m*3 2.1 C 1.6 km/h
2578 29-01-2014 20:50:00 2 C 4.5 g/m*3 2 C 1.6 km/h
2579 29-01-2014 20:55:00 2 C 4.39 g/m*3 -0.85 C 9.7 km/h
2580 29-01-2014 21:00:00 2.1 C 4.42 g/m*3 2.1 C 0 km/h
2581 29-01-2014 21:05:00 2.1 C 4.53 g/m*3 2.1 C 1.6 km/h
2582 29-01-2014 21:10:00 1.9 C 4.53 g/m*3 1.9 C 1.6 km/h
2583 29-01-2014 21:15:00 1.8 C 4.55 g/m*3 1.8 C 0 km/h
2584 29-01-2014 21:20:00 1.7 C 4.46 g/m*3 1.7 C 4.8 km/h
2585 29-01-2014 21:25:00 1.9 C 4.47 g/m*3 1.9 C 1.6 km/h
2586 29-01-2014 21:30:00 1.9 C 4.53 g/m*3 1.9 C 1.6 km/h
2587 29-01-2014 21:35:00 1.9 C 4.47 g/m*3 1.9 C 4.8 km/h
2588 29-01-2014 21:40:00 1.9 C 4.47 g/m*3 1.9 C 3.2 km/h
2589 29-01-2014 21:45:00 1.9 C 4.47 g/m*3 1.9 C 3.2 km/h
2590 29-01-2014 21:50:00 1.9 C 4.42 g/m*3 1.9 C 3.2 km/h
2591 29-01-2014 21:55:00 2.1 C 4.48 g/m*3 2.1 C 4.8 km/h
2592 29-01-2014 22:00:00 2.1 C 4.53 g/m*3 2.1 C 1.6 km/h
2593 29-01-2014 22:05:00 2.1 C 4.59 g/m*3 2.1 C 0 km/h
2594 29-01-2014 22:10:00 2 C 4.56 g/m*3 2 C 1.6 km/h
2595 29-01-2014 22:15:00 1.9 C 4.53 g/m*3 1.9 C 1.6 km/h
2596 29-01-2014 22:20:00 1.9 C 4.47 g/m*3 1.9 C 4.8 km/h
2597 29-01-2014 22:25:00 2 C 4.45 g/m*3 2 C 4.8 km/h
2598 29-01-2014 22:30:00 2 C 4.56 g/m*3 2 C 0 km/h
2599 29-01-2014 22:35:00 1.9 C 4.47 g/m*3 1.9 C 1.6 km/h
2600 29-01-2014 22:40:00 1.8 C 4.49 g/m*3 1.8 C 1.6 km/h
Sensor: Nr:Datum:Temp:Abs-Feuchte:Windchill:Wind:
Aussen-T/F 2601 29-01-2014 22:45:00 1.7 C 4.52 g/m*3 1.7 C 1.6 km/h
2602 29-01-2014 22:50:00 1.6 C 4.54 g/m*3 1.6 C 1.6 km/h
2603 29-01-2014 22:55:00 1.4 C 4.53 g/m*3 1.4 C 1.6 km/h
2604 29-01-2014 23:00:00 1.3 C 4.5 g/m*3 1.3 C 0 km/h
2605 29-01-2014 23:05:00 1.1 C 4.49 g/m*3 1.1 C 0 km/h
2606 29-01-2014 23:10:00 1.1 C 4.55 g/m*3 1.1 C 1.6 km/h
2607 29-01-2014 23:15:00 1.2 C 4.53 g/m*3 1.2 C 3.2 km/h
2608 29-01-2014 23:20:00 1.3 C 4.56 g/m*3 1.3 C 3.2 km/h
2609 29-01-2014 23:25:00 1.4 C 4.53 g/m*3 1.4 C 4.8 km/h
2610 29-01-2014 23:30:00 1.6 C 4.49 g/m*3 1.6 C 0 km/h
2611 29-01-2014 23:35:00 1.7 C 4.63 g/m*3 1.7 C 0 km/h
2612 29-01-2014 23:40:00 1.7 C 4.63 g/m*3 1.7 C 0 km/h
2613 29-01-2014 23:45:00 1.7 C 4.63 g/m*3 1.7 C 1.6 km/h
2614 29-01-2014 23:50:00 1.8 C 4.55 g/m*3 1.8 C 1.6 km/h
2615 29-01-2014 23:55:00 1.8 C 4.55 g/m*3 1.8 C 3.2 km/h
2616 30-01-2014 00:00:00 2 C 4.5 g/m*3 2 C 4.8 km/h
2617 30-01-2014 00:05:00 2.1 C 4.59 g/m*3 2.1 C 0 km/h
2618 30-01-2014 00:10:00 2.1 C 4.53 g/m*3 2.1 C 4.8 km/h
2619 30-01-2014 00:15:00 2.1 C 4.59 g/m*3 2.1 C 3.2 km/h
2620 30-01-2014 00:20:00 2.1 C 4.53 g/m*3 0.24 C 6.4 km/h
2621 30-01-2014 00:25:00 2.1 C 4.48 g/m*3 2.1 C 3.2 km/h
2622 30-01-2014 00:30:00 2.1 C 4.48 g/m*3 2.1 C 0 km/h
2623 30-01-2014 00:35:00 2.1 C 4.64 g/m*3 2.1 C 0 km/h
2624 30-01-2014 00:40:00 2.1 C 4.64 g/m*3 2.1 C 0 km/h
2625 30-01-2014 00:45:00 1.9 C 4.58 g/m*3 1.9 C 0 km/h
Sensor: Nr:Datum:Temp:Abs-Feuchte:Windchill:Wind:
Aussen-T/F 2626 30-01-2014 00:50:00 1.9 C 4.64 g/m*3 1.9 C 0 km/h
2627 30-01-2014 00:55:00 1.8 C 4.6 g/m*3 1.8 C 0 km/h
2628 30-01-2014 01:00:00 1.8 C 4.6 g/m*3 1.8 C 0 km/h
2629 30-01-2014 01:05:00 1.8 C 4.6 g/m*3 1.8 C 0 km/h
2630 30-01-2014 01:10:00 1.7 C 4.63 g/m*3 1.7 C 0 km/h
2631 30-01-2014 01:15:00 1.7 C 4.63 g/m*3 1.7 C 0 km/h
2632 30-01-2014 01:20:00 1.7 C 4.63 g/m*3 1.7 C 0 km/h
2633 30-01-2014 01:25:00 1.7 C 4.57 g/m*3 1.7 C 1.6 km/h
2634 30-01-2014 01:30:00 1.8 C 4.55 g/m*3 1.8 C 1.6 km/h
2635 30-01-2014 01:35:00 1.8 C 4.55 g/m*3 1.8 C 0 km/h
2636 30-01-2014 01:40:00 1.8 C 4.55 g/m*3 1.8 C 0 km/h
2637 30-01-2014 01:45:00 1.9 C 4.64 g/m*3 1.9 C 0 km/h
2638 30-01-2014 01:50:00 1.9 C 4.64 g/m*3 1.9 C 0 km/h
2639 30-01-2014 01:55:00 1.9 C 4.64 g/m*3 1.9 C 0 km/h
2640 30-01-2014 02:00:00 1.8 C 4.6 g/m*3 1.8 C 0 km/h
2641 30-01-2014 02:05:00 1.8 C 4.6 g/m*3 1.8 C 0 km/h
2642 30-01-2014 02:10:00 1.8 C 4.55 g/m*3 1.8 C 0 km/h
2643 30-01-2014 02:15:00 1.9 C 4.69 g/m*3 1.9 C 0 km/h
2644 30-01-2014 02:20:00 1.9 C 4.69 g/m*3 1.9 C 0 km/h
2645 30-01-2014 02:25:00 1.9 C 4.58 g/m*3 1.9 C 1.6 km/h
2646 30-01-2014 02:30:00 1.9 C 4.58 g/m*3 1.9 C 3.2 km/h
2647 30-01-2014 02:35:00 1.9 C 4.58 g/m*3 1.9 C 3.2 km/h
2648 30-01-2014 02:40:00 1.9 C 4.58 g/m*3 1.9 C 0 km/h
2649 30-01-2014 02:45:00 1.9 C 4.58 g/m*3 1.9 C 0 km/h
2650 30-01-2014 02:50:00 1.9 C 4.58 g/m*3 1.9 C 1.6 km/h
Sensor: Nr:Datum:Temp:Abs-Feuchte:Windchill:Wind:
Aussen-T/F 2651 30-01-2014 02:55:00 1.9 C 4.64 g/m*3 1.9 C 0 km/h
2652 30-01-2014 03:00:00 1.9 C 4.58 g/m*3 1.9 C 0 km/h
2653 30-01-2014 03:05:00 1.9 C 4.58 g/m*3 1.9 C 0 km/h
2654 30-01-2014 03:10:00 1.9 C 4.58 g/m*3 1.9 C 0 km/h
2655 30-01-2014 03:15:00 1.9 C 4.58 g/m*3 1.9 C 3.2 km/h
2656 30-01-2014 03:20:00 1.9 C 4.58 g/m*3 1.9 C 0 km/h
2657 30-01-2014 03:25:00 1.9 C 4.58 g/m*3 1.9 C 0 km/h
2658 30-01-2014 03:30:00 1.9 C 4.58 g/m*3 1.9 C 0 km/h
2659 30-01-2014 03:35:00 1.9 C 4.58 g/m*3 1.9 C 0 km/h
2660 30-01-2014 03:40:00 1.9 C 4.58 g/m*3 1.9 C 1.6 km/h
2661 30-01-2014 03:45:00 1.9 C 4.47 g/m*3 1.9 C 0 km/h
2662 30-01-2014 03:50:00 1.9 C 4.53 g/m*3 1.9 C 3.2 km/h
2663 30-01-2014 03:55:00 1.9 C 4.47 g/m*3 1.9 C 1.6 km/h
2664 30-01-2014 04:00:00 1.9 C 4.47 g/m*3 1.9 C 4.8 km/h
2665 30-01-2014 04:05:00 1.9 C 4.47 g/m*3 1.9 C 4.8 km/h
2666 30-01-2014 04:10:00 1.9 C 4.47 g/m*3 1.9 C 4.8 km/h
2667 30-01-2014 04:15:00 1.9 C 4.47 g/m*3 1.9 C 1.6 km/h
2668 30-01-2014 04:20:00 2 C 4.56 g/m*3 2 C 0 km/h
2669 30-01-2014 04:25:00 1.9 C 4.53 g/m*3 1.9 C 0 km/h
2670 30-01-2014 04:30:00 1.9 C 4.53 g/m*3 1.9 C 1.6 km/h
2671 30-01-2014 04:35:00 1.9 C 4.58 g/m*3 1.9 C 3.2 km/h
2672 30-01-2014 04:40:00 1.9 C 4.64 g/m*3 1.9 C 0 km/h
2673 30-01-2014 04:45:00 1.9 C 4.64 g/m*3 1.9 C 0 km/h
2674 30-01-2014 04:50:00 1.8 C 4.55 g/m*3 1.8 C 0 km/h
2675 30-01-2014 04:55:00 1.8 C 4.49 g/m*3 1.8 C 1.6 km/h
Sensor: Nr:Datum:Temp:Abs-Feuchte:Windchill:Wind:
Aussen-T/F 2676 30-01-2014 05:00:00 1.9 C 4.53 g/m*3 1.9 C 0 km/h
2677 30-01-2014 05:05:00 1.9 C 4.58 g/m*3 1.9 C 0 km/h
2678 30-01-2014 05:10:00 1.9 C 4.58 g/m*3 1.9 C 0 km/h
2679 30-01-2014 05:15:00 1.9 C 4.53 g/m*3 1.9 C 0 km/h
2680 30-01-2014 05:20:00 1.9 C 4.53 g/m*3 1.9 C 0 km/h
2681 30-01-2014 05:25:00 1.9 C 4.53 g/m*3 1.9 C 0 km/h
2682 30-01-2014 05:30:00 1.9 C 4.58 g/m*3 1.9 C 0 km/h
2683 30-01-2014 05:35:00 1.9 C 4.58 g/m*3 1.9 C 1.6 km/h
2684 30-01-2014 05:40:00 1.9 C 4.53 g/m*3 1.9 C 0 km/h
2685 30-01-2014 05:45:00 1.9 C 4.58 g/m*3 1.9 C 0 km/h
2686 30-01-2014 05:50:00 1.9 C 4.58 g/m*3 1.9 C 0 km/h
2687 30-01-2014 05:55:00 1.8 C 4.6 g/m*3 1.8 C 0 km/h
2688 30-01-2014 06:00:00 1.8 C 4.6 g/m*3 1.8 C 0 km/h
2689 30-01-2014 06:05:00 1.8 C 4.6 g/m*3 1.8 C 3.2 km/h
2690 30-01-2014 06:10:00 1.8 C 4.6 g/m*3 1.8 C 0 km/h
2691 30-01-2014 06:15:00 1.8 C 4.6 g/m*3 1.8 C 0 km/h
2692 30-01-2014 06:20:00 1.6 C 4.54 g/m*3 1.6 C 0 km/h
2693 30-01-2014 06:25:00 1.5 C 4.57 g/m*3 1.5 C 0 km/h
2694 30-01-2014 06:30:00 1.3 C 4.5 g/m*3 1.3 C 0 km/h
2695 30-01-2014 06:35:00 1.2 C 4.47 g/m*3 1.2 C 1.6 km/h
2696 30-01-2014 06:40:00 1.1 C 4.44 g/m*3 1.1 C 1.6 km/h
2697 30-01-2014 06:45:00 0.9 C 4.38 g/m*3 0.9 C 0 km/h
2698 30-01-2014 06:50:00 0.8 C 4.4 g/m*3 0.8 C 1.6 km/h
2699 30-01-2014 06:55:00 0.7 C 4.37 g/m*3 0.7 C 0 km/h
2700 30-01-2014 07:00:00 0.5 C 4.36 g/m*3 0.5 C 1.6 km/h
Sensor: Nr:Datum:Temp:Abs-Feuchte:Windchill:Wind:
Aussen-T/F 2701 30-01-2014 07:05:00 0.4 C 4.33 g/m*3 0.4 C 3.2 km/h
2702 30-01-2014 07:10:00 0.3 C 4.3 g/m*3 0.3 C 1.6 km/h
2703 30-01-2014 07:15:00 0.3 C 4.3 g/m*3 0.3 C 0 km/h
2704 30-01-2014 07:20:00 0.2 C 4.27 g/m*3 0.2 C 1.6 km/h
2705 30-01-2014 07:25:00 0.1 C 4.29 g/m*3 0.1 C 1.6 km/h
2706 30-01-2014 07:30:00 0 C 4.26 g/m*3 0 C 3.2 km/h
2707 30-01-2014 07:35:00 0 C 4.26 g/m*3 0 C 1.6 km/h
2708 30-01-2014 07:40:00 0 C 4.31 g/m*3 0 C 1.6 km/h
2709 30-01-2014 07:45:00 0.1 C 4.34 g/m*3 0.1 C 1.6 km/h
2710 30-01-2014 07:50:00 0.1 C 4.34 g/m*3 0.1 C 0 km/h
2711 30-01-2014 07:55:00 0.2 C 4.37 g/m*3 0.2 C 0 km/h
2712 30-01-2014 08:00:00 0.3 C 4.4 g/m*3 0.3 C 0 km/h
2713 30-01-2014 08:05:00 0.3 C 4.4 g/m*3 0.3 C 0 km/h
2714 30-01-2014 08:10:00 0.4 C 4.43 g/m*3 0.4 C 0 km/h
2715 30-01-2014 08:15:00 0.4 C 4.43 g/m*3 0.4 C 0 km/h
2716 30-01-2014 08:20:00 0.5 C 4.41 g/m*3 0.5 C 0 km/h
2717 30-01-2014 08:25:00 0.6 C 4.44 g/m*3 0.6 C 0 km/h
2718 30-01-2014 08:30:00 0.6 C 4.49 g/m*3 0.6 C 0 km/h
2719 30-01-2014 08:35:00 0.7 C 4.53 g/m*3 0.7 C 0 km/h
2720 30-01-2014 08:40:00 0.7 C 4.47 g/m*3 0.7 C 0 km/h
2721 30-01-2014 08:45:00 0.7 C 4.47 g/m*3 0.7 C 0 km/h
2722 30-01-2014 08:50:00 0.8 C 4.45 g/m*3 0.8 C 3.2 km/h
2723 30-01-2014 08:55:00 0.8 C 4.45 g/m*3 0.8 C 0 km/h
2724 30-01-2014 09:00:00 0.9 C 4.48 g/m*3 0.9 C 1.6 km/h
2725 30-01-2014 09:05:00 0.9 C 4.48 g/m*3 0.9 C 1.6 km/h
Sensor: Nr:Datum:Temp:Abs-Feuchte:Windchill:Wind:
Aussen-T/F 2726 30-01-2014 09:10:00 1 C 4.46 g/m*3 1 C 1.6 km/h
2727 30-01-2014 09:15:00 1.1 C 4.49 g/m*3 1.1 C 1.6 km/h
2728 30-01-2014 09:20:00 1.1 C 4.49 g/m*3 1.1 C 1.6 km/h
2729 30-01-2014 09:25:00 1.2 C 4.47 g/m*3 1.2 C 0 km/h
2730 30-01-2014 09:30:00 1.3 C 4.5 g/m*3 1.3 C 0 km/h
2731 30-01-2014 09:35:00 1.3 C 4.45 g/m*3 1.3 C 0 km/h
2732 30-01-2014 09:40:00 1.4 C 4.53 g/m*3 1.4 C 0 km/h
2733 30-01-2014 09:45:00 1.4 C 4.48 g/m*3 1.4 C 0 km/h
2734 30-01-2014 09:50:00 1.5 C 4.46 g/m*3 1.5 C 1.6 km/h
2735 30-01-2014 09:55:00 1.6 C 4.49 g/m*3 1.6 C 1.6 km/h
2736 30-01-2014 10:00:00 1.7 C 4.52 g/m*3 1.7 C 0 km/h
2737 30-01-2014 10:05:00 1.7 C 4.46 g/m*3 1.7 C 1.6 km/h
2738 30-01-2014 10:10:00 1.8 C 4.49 g/m*3 1.8 C 4.8 km/h
2739 30-01-2014 10:15:00 1.9 C 4.53 g/m*3 1.9 C 4.8 km/h
2740 30-01-2014 10:20:00 2 C 4.56 g/m*3 2 C 3.2 km/h
2741 30-01-2014 10:25:00 2.1 C 4.53 g/m*3 2.1 C 3.2 km/h
2742 30-01-2014 10:30:00 2.1 C 4.48 g/m*3 2.1 C 0 km/h
2743 30-01-2014 10:35:00 2.2 C 4.56 g/m*3 2.2 C 3.2 km/h
2744 30-01-2014 10:40:00 2.3 C 4.59 g/m*3 2.3 C 4.8 km/h
2745 30-01-2014 10:45:00 2.4 C 4.57 g/m*3 2.4 C 3.2 km/h
2746 30-01-2014 10:50:00 2.5 C 4.66 g/m*3 0.71 C 6.4 km/h
2747 30-01-2014 10:55:00 2.6 C 4.57 g/m*3 2.6 C 0 km/h
2748 30-01-2014 11:00:00 2.7 C 4.6 g/m*3 2.7 C 3.2 km/h
2749 30-01-2014 11:05:00 2.8 C 4.63 g/m*3 2.8 C 4.8 km/h
2750 30-01-2014 11:10:00 2.9 C 4.61 g/m*3 2.9 C 4.8 km/h
Sensor: Nr:Datum:Temp:Abs-Feuchte:Windchill:Wind:
Aussen-T/F 2751 30-01-2014 11:15:00 3.1 C 4.67 g/m*3 3.1 C 4.8 km/h
2752 30-01-2014 11:20:00 3.1 C 4.67 g/m*3 3.1 C 4.8 km/h
2753 30-01-2014 11:25:00 3.1 C 4.67 g/m*3 3.1 C 4.8 km/h
2754 30-01-2014 11:30:00 3.1 C 4.67 g/m*3 3.1 C 1.6 km/h
2755 30-01-2014 11:35:00 3.2 C 4.64 g/m*3 3.2 C 4.8 km/h
2756 30-01-2014 11:40:00 3.2 C 4.64 g/m*3 1.51 C 6.4 km/h
2757 30-01-2014 11:45:00 3.2 C 4.58 g/m*3 3.2 C 4.8 km/h
2758 30-01-2014 11:50:00 3.2 C 4.58 g/m*3 3.2 C 1.6 km/h
2759 30-01-2014 11:55:00 3.2 C 4.64 g/m*3 3.2 C 1.6 km/h
2760 30-01-2014 12:00:00 3.2 C 4.58 g/m*3 3.2 C 3.2 km/h
2761 30-01-2014 12:05:00 3.2 C 4.7 g/m*3 3.2 C 1.6 km/h
2762 30-01-2014 12:10:00 3.2 C 4.7 g/m*3 1.51 C 6.4 km/h
2763 30-01-2014 12:15:00 3.2 C 4.64 g/m*3 3.2 C 1.6 km/h
2764 30-01-2014 12:20:00 3.3 C 4.67 g/m*3 3.3 C 4.8 km/h
2765 30-01-2014 12:25:00 3.4 C 4.64 g/m*3 3.4 C 3.2 km/h
2766 30-01-2014 12:30:00 3.5 C 4.8 g/m*3 3.5 C 3.2 km/h
2767 30-01-2014 12:35:00 3.5 C 4.8 g/m*3 3.5 C 3.2 km/h
2768 30-01-2014 12:40:00 3.5 C 4.8 g/m*3 3.5 C 4.8 km/h
2769 30-01-2014 12:45:00 3.5 C 4.86 g/m*3 3.5 C 3.2 km/h
2770 30-01-2014 12:50:00 3.4 C 4.89 g/m*3 3.4 C 3.2 km/h
2771 30-01-2014 12:55:00 3.3 C 4.85 g/m*3 3.3 C 3.2 km/h
2772 30-01-2014 13:00:00 3.4 C 4.89 g/m*3 3.4 C 1.6 km/h
2773 30-01-2014 13:05:00 3.4 C 5.01 g/m*3 3.4 C 1.6 km/h
2774 30-01-2014 13:10:00 3.4 C 5.01 g/m*3 3.4 C 1.6 km/h
2775 30-01-2014 13:15:00 3.5 C 4.92 g/m*3 3.5 C 4.8 km/h
Sensor: Nr:Datum:Temp:Abs-Feuchte:Windchill:Wind:
Aussen-T/F 2776 30-01-2014 13:20:00 3.6 C 4.89 g/m*3 3.6 C 4.8 km/h
2777 30-01-2014 13:25:00 3.9 C 4.86 g/m*3 3.9 C 4.8 km/h
2778 30-01-2014 13:30:00 4.2 C 4.9 g/m*3 2.67 C 6.4 km/h
2779 30-01-2014 13:35:00 4.6 C 4.96 g/m*3 3.13 C 6.4 km/h
2780 30-01-2014 13:40:00 4.6 C 5.16 g/m*3 4.6 C 1.6 km/h
2781 30-01-2014 13:45:00 4.7 C 4.93 g/m*3 2.76 C 8.1 km/h
2782 30-01-2014 13:50:00 4.9 C 4.93 g/m*3 2.99 C 8.1 km/h
2783 30-01-2014 13:55:00 5.1 C 4.92 g/m*3 5.1 C 3.2 km/h
2784 30-01-2014 14:00:00 5.2 C 4.96 g/m*3 5.2 C 3.2 km/h
2785 30-01-2014 14:05:00 5.4 C 5.02 g/m*3 5.4 C 3.2 km/h
2786 30-01-2014 14:10:00 5.5 C 5.06 g/m*3 5.5 C 4.8 km/h
2787 30-01-2014 14:15:00 5.5 C 4.92 g/m*3 5.5 C 3.2 km/h
2788 30-01-2014 14:20:00 5.5 C 5.06 g/m*3 5.5 C 3.2 km/h
2789 30-01-2014 14:25:00 5.4 C 5.02 g/m*3 5.4 C 4.8 km/h
2790 30-01-2014 14:30:00 5.4 C 5.16 g/m*3 4.06 C 6.4 km/h
2791 30-01-2014 14:35:00 5.3 C 5.27 g/m*3 5.3 C 4.8 km/h
2792 30-01-2014 14:40:00 5.2 C 5.16 g/m*3 5.2 C 3.2 km/h
2793 30-01-2014 14:45:00 5.3 C 4.99 g/m*3 5.3 C 4.8 km/h
2794 30-01-2014 14:50:00 5.4 C 5.16 g/m*3 5.4 C 1.6 km/h
2795 30-01-2014 14:55:00 5.2 C 5.37 g/m*3 5.2 C 0 km/h
2796 30-01-2014 15:00:00 5.1 C 5.27 g/m*3 5.1 C 0 km/h
2797 30-01-2014 15:05:00 4.8 C 5.3 g/m*3 4.8 C 1.6 km/h
2798 30-01-2014 15:10:00 4.7 C 5.33 g/m*3 4.7 C 1.6 km/h
2799 30-01-2014 15:15:00 4.7 C 5.33 g/m*3 4.7 C 1.6 km/h
2800 30-01-2014 15:20:00 4.8 C 5.3 g/m*3 4.8 C 3.2 km/h
Sensor: Nr:Datum:Temp:Abs-Feuchte:Windchill:Wind:
Aussen-T/F 2801 30-01-2014 15:25:00 4.7 C 5.46 g/m*3 4.7 C 0 km/h
2802 30-01-2014 15:30:00 4.7 C 5.4 g/m*3 4.7 C 0 km/h
2803 30-01-2014 15:35:00 4.7 C 5.46 g/m*3 4.7 C 0 km/h
2804 30-01-2014 15:40:00 4.8 C 5.43 g/m*3 4.8 C 0 km/h
2805 30-01-2014 15:45:00 4.8 C 5.5 g/m*3 4.8 C 0 km/h
2806 30-01-2014 15:50:00 4.8 C 5.23 g/m*3 4.8 C 4.8 km/h
2807 30-01-2014 15:55:00 4.8 C 5.36 g/m*3 4.8 C 0 km/h
2808 30-01-2014 16:00:00 4.9 C 5.47 g/m*3 4.9 C 0 km/h
2809 30-01-2014 16:05:00 4.8 C 5.43 g/m*3 4.8 C 0 km/h
2810 30-01-2014 16:10:00 4.7 C 5.46 g/m*3 4.7 C 0 km/h
2811 30-01-2014 16:15:00 4.7 C 5.46 g/m*3 4.7 C 1.6 km/h
2812 30-01-2014 16:20:00 4.6 C 5.49 g/m*3 4.6 C 0 km/h
2813 30-01-2014 16:25:00 4.5 C 5.39 g/m*3 4.5 C 1.6 km/h
2814 30-01-2014 16:30:00 4.4 C 5.35 g/m*3 4.4 C 0 km/h
2815 30-01-2014 16:35:00 4.3 C 5.38 g/m*3 4.3 C 1.6 km/h
2816 30-01-2014 16:40:00 4.1 C 5.38 g/m*3 4.1 C 1.6 km/h
2817 30-01-2014 16:45:00 3.9 C 5.24 g/m*3 3.9 C 1.6 km/h
2818 30-01-2014 16:50:00 3.7 C 5.23 g/m*3 3.7 C 3.2 km/h
2819 30-01-2014 16:55:00 3.4 C 5.19 g/m*3 3.4 C 3.2 km/h
2820 30-01-2014 17:00:00 3.2 C 5.12 g/m*3 3.2 C 1.6 km/h
2821 30-01-2014 17:05:00 3.1 C 5.09 g/m*3 3.1 C 1.6 km/h
2822 30-01-2014 17:10:00 2.9 C 5.08 g/m*3 2.9 C 1.6 km/h
2823 30-01-2014 17:15:00 2.8 C 5.04 g/m*3 2.8 C 1.6 km/h
2824 30-01-2014 17:20:00 2.7 C 5.01 g/m*3 2.7 C 3.2 km/h
2825 30-01-2014 17:25:00 2.6 C 4.98 g/m*3 2.6 C 1.6 km/h
Sensor: Nr:Datum:Temp:Abs-Feuchte:Windchill:Wind:
Aussen-T/F 2826 30-01-2014 17:30:00 2.4 C 4.97 g/m*3 2.4 C 3.2 km/h
2827 30-01-2014 17:35:00 2.3 C 4.93 g/m*3 2.3 C 3.2 km/h
2828 30-01-2014 17:40:00 2.2 C 4.9 g/m*3 2.2 C 3.2 km/h
2829 30-01-2014 17:45:00 2.1 C 4.87 g/m*3 2.1 C 3.2 km/h
2830 30-01-2014 17:50:00 2 C 4.83 g/m*3 2 C 3.2 km/h
2831 30-01-2014 17:55:00 1.9 C 4.86 g/m*3 1.9 C 1.6 km/h
2832 30-01-2014 18:00:00 1.8 C 4.82 g/m*3 1.8 C 3.2 km/h
2833 30-01-2014 18:05:00 1.8 C 4.82 g/m*3 1.8 C 1.6 km/h
2834 30-01-2014 18:10:00 1.7 C 4.79 g/m*3 1.7 C 3.2 km/h
2835 30-01-2014 18:15:00 1.6 C 4.76 g/m*3 1.6 C 3.2 km/h
2836 30-01-2014 18:20:00 1.6 C 4.81 g/m*3 1.6 C 4.8 km/h
2837 30-01-2014 18:25:00 1.6 C 4.76 g/m*3 1.6 C 3.2 km/h
2838 30-01-2014 18:30:00 1.6 C 4.76 g/m*3 1.6 C 3.2 km/h
2839 30-01-2014 18:35:00 1.5 C 4.78 g/m*3 1.5 C 3.2 km/h
2840 30-01-2014 18:40:00 1.4 C 4.75 g/m*3 1.4 C 3.2 km/h
2841 30-01-2014 18:45:00 1.4 C 4.8 g/m*3 1.4 C 1.6 km/h
2842 30-01-2014 18:50:00 1.3 C 4.77 g/m*3 1.3 C 1.6 km/h
2843 30-01-2014 18:55:00 1.2 C 4.68 g/m*3 1.2 C 3.2 km/h
2844 30-01-2014 19:00:00 1.2 C 4.68 g/m*3 1.2 C 3.2 km/h
2845 30-01-2014 19:05:00 1.1 C 4.7 g/m*3 1.1 C 1.6 km/h
2846 30-01-2014 19:10:00 1.1 C 4.7 g/m*3 1.1 C 3.2 km/h
2847 30-01-2014 19:15:00 1 C 4.67 g/m*3 1 C 3.2 km/h
2848 30-01-2014 19:20:00 0.9 C 4.59 g/m*3 0.9 C 4.8 km/h
2849 30-01-2014 19:25:00 0.9 C 4.64 g/m*3 0.9 C 3.2 km/h
2850 30-01-2014 19:30:00 0.8 C 4.61 g/m*3 0.8 C 3.2 km/h
Sensor: Nr:Datum:Temp:Abs-Feuchte:Windchill:Wind:
Aussen-T/F 2851 30-01-2014 19:35:00 0.8 C 4.61 g/m*3 0.8 C 3.2 km/h
2852 30-01-2014 19:40:00 0.8 C 4.61 g/m*3 0.8 C 3.2 km/h
2853 30-01-2014 19:45:00 0.8 C 4.61 g/m*3 0.8 C 1.6 km/h
2854 30-01-2014 19:50:00 0.8 C 4.61 g/m*3 0.8 C 3.2 km/h
2855 30-01-2014 19:55:00 0.8 C 4.61 g/m*3 0.8 C 1.6 km/h
2856 30-01-2014 20:00:00 0.7 C 4.58 g/m*3 0.7 C 3.2 km/h
2857 30-01-2014 20:05:00 0.7 C 4.58 g/m*3 0.7 C 3.2 km/h
2858 30-01-2014 20:10:00 0.7 C 4.58 g/m*3 0.7 C 3.2 km/h
2859 30-01-2014 20:15:00 0.7 C 4.58 g/m*3 0.7 C 3.2 km/h
2860 30-01-2014 20:20:00 0.6 C 4.54 g/m*3 0.6 C 3.2 km/h
2861 30-01-2014 20:25:00 0.7 C 4.58 g/m*3 0.7 C 1.6 km/h
2862 30-01-2014 20:30:00 0.6 C 4.54 g/m*3 0.6 C 1.6 km/h
2863 30-01-2014 20:35:00 0.6 C 4.54 g/m*3 0.6 C 1.6 km/h
2864 30-01-2014 20:40:00 0.5 C 4.51 g/m*3 0.5 C 1.6 km/h
2865 30-01-2014 20:45:00 0.4 C 4.48 g/m*3 0.4 C 3.2 km/h
2866 30-01-2014 20:50:00 0.4 C 4.48 g/m*3 0.4 C 3.2 km/h
2867 30-01-2014 20:55:00 0.4 C 4.48 g/m*3 0.4 C 1.6 km/h
2868 30-01-2014 21:00:00 0.4 C 4.48 g/m*3 0.4 C 1.6 km/h
2869 30-01-2014 21:05:00 0.3 C 4.45 g/m*3 0.3 C 0 km/h
2870 30-01-2014 21:10:00 0.3 C 4.45 g/m*3 0.3 C 1.6 km/h
2871 30-01-2014 21:15:00 0.3 C 4.45 g/m*3 0.3 C 1.6 km/h
2872 30-01-2014 21:20:00 0.3 C 4.45 g/m*3 0.3 C 1.6 km/h
2873 30-01-2014 21:25:00 0.2 C 4.42 g/m*3 0.2 C 0 km/h
2874 30-01-2014 21:30:00 0.2 C 4.42 g/m*3 0.2 C 1.6 km/h
2875 30-01-2014 21:35:00 0.2 C 4.42 g/m*3 0.2 C 3.2 km/h
Sensor: Nr:Datum:Temp:Abs-Feuchte:Windchill:Wind:
Aussen-T/F 2876 30-01-2014 21:40:00 0.2 C 4.42 g/m*3 0.2 C 3.2 km/h
2877 30-01-2014 21:45:00 0.1 C 4.39 g/m*3 0.1 C 0 km/h
2878 30-01-2014 21:50:00 0.1 C 4.39 g/m*3 0.1 C 1.6 km/h
2879 30-01-2014 21:55:00 0.1 C 4.39 g/m*3 0.1 C 1.6 km/h
2880 30-01-2014 22:00:00 0.1 C 4.39 g/m*3 0.1 C 1.6 km/h
2881 30-01-2014 22:05:00 0.1 C 4.39 g/m*3 0.1 C 1.6 km/h
2882 30-01-2014 22:10:00 0.1 C 4.39 g/m*3 0.1 C 1.6 km/h
2883 30-01-2014 22:15:00 0.1 C 4.39 g/m*3 0.1 C 1.6 km/h
2884 30-01-2014 22:20:00 0 C 4.36 g/m*3 0 C 1.6 km/h
2885 30-01-2014 22:25:00 0 C 4.41 g/m*3 0 C 1.6 km/h
2886 30-01-2014 22:30:00 -0.1 C 4.38 g/m*3 -0.1 C 0 km/h
2887 30-01-2014 22:35:00 -0.1 C 4.38 g/m*3 -0.1 C 0 km/h
2888 30-01-2014 22:40:00 -0.1 C 4.43 g/m*3 -0.1 C 0 km/h
2889 30-01-2014 22:45:00 -0.1 C 4.43 g/m*3 -0.1 C 1.6 km/h
2890 30-01-2014 22:50:00 0 C 4.46 g/m*3 0 C 0 km/h
2891 30-01-2014 22:55:00 0 C 4.46 g/m*3 0 C 1.6 km/h
2892 30-01-2014 23:00:00 0 C 4.46 g/m*3 0 C 0 km/h
2893 30-01-2014 23:05:00 0 C 4.46 g/m*3 0 C 0 km/h
2894 30-01-2014 23:10:00 0 C 4.46 g/m*3 0 C 0 km/h
2895 30-01-2014 23:15:00 0 C 4.46 g/m*3 0 C 0 km/h
2896 30-01-2014 23:20:00 0 C 4.46 g/m*3 0 C 0 km/h
2897 30-01-2014 23:25:00 0 C 4.46 g/m*3 0 C 0 km/h
2898 30-01-2014 23:30:00 0 C 4.46 g/m*3 0 C 0 km/h
2899 30-01-2014 23:35:00 0.1 C 4.49 g/m*3 0.1 C 0 km/h
2900 30-01-2014 23:40:00 0.1 C 4.49 g/m*3 0.1 C 0 km/h
Sensor: Nr:Datum:Temp:Abs-Feuchte:Windchill:Wind:
Aussen-T/F 2901 30-01-2014 23:45:00 0.1 C 4.49 g/m*3 0.1 C 0 km/h
2902 30-01-2014 23:50:00 0.2 C 4.52 g/m*3 0.2 C 0 km/h
2903 30-01-2014 23:55:00 0.2 C 4.52 g/m*3 0.2 C 0 km/h
2904 31-01-2014 00:00:00 0.2 C 4.52 g/m*3 0.2 C 0 km/h
2905 31-01-2014 00:05:00 0.2 C 4.52 g/m*3 0.2 C 0 km/h
2906 31-01-2014 00:10:00 0.2 C 4.52 g/m*3 0.2 C 0 km/h
2907 31-01-2014 00:15:00 0.2 C 4.52 g/m*3 0.2 C 0 km/h
2908 31-01-2014 00:20:00 0.2 C 4.52 g/m*3 0.2 C 0 km/h
2909 31-01-2014 00:25:00 0.2 C 4.52 g/m*3 0.2 C 0 km/h
2910 31-01-2014 00:30:00 0.2 C 4.52 g/m*3 0.2 C 0 km/h
2911 31-01-2014 00:35:00 0.2 C 4.52 g/m*3 0.2 C 0 km/h
2912 31-01-2014 00:40:00 0.3 C 4.55 g/m*3 0.3 C 0 km/h
2913 31-01-2014 00:45:00 0.3 C 4.55 g/m*3 0.3 C 0 km/h
2914 31-01-2014 00:50:00 0.3 C 4.55 g/m*3 0.3 C 0 km/h
2915 31-01-2014 00:55:00 0.3 C 4.55 g/m*3 0.3 C 0 km/h
2916 31-01-2014 01:00:00 0.3 C 4.55 g/m*3 0.3 C 0 km/h
2917 31-01-2014 01:05:00 0.3 C 4.55 g/m*3 0.3 C 0 km/h
2918 31-01-2014 01:10:00 0.3 C 4.55 g/m*3 0.3 C 0 km/h
2919 31-01-2014 01:15:00 0.3 C 4.55 g/m*3 0.3 C 0 km/h
2920 31-01-2014 01:20:00 0.3 C 4.5 g/m*3 0.3 C 0 km/h
2921 31-01-2014 01:25:00 0.4 C 4.53 g/m*3 0.4 C 0 km/h
2922 31-01-2014 01:30:00 0.4 C 4.53 g/m*3 0.4 C 0 km/h
2923 31-01-2014 01:35:00 0.4 C 4.53 g/m*3 0.4 C 0 km/h
2924 31-01-2014 01:40:00 0.4 C 4.53 g/m*3 0.4 C 0 km/h
2925 31-01-2014 01:45:00 0.3 C 4.5 g/m*3 0.3 C 0 km/h
Sensor: Nr:Datum:Temp:Abs-Feuchte:Windchill:Wind:
Aussen-T/F 2926 31-01-2014 01:50:00 0.3 C 4.5 g/m*3 0.3 C 0 km/h
2927 31-01-2014 01:55:00 0.3 C 4.5 g/m*3 0.3 C 0 km/h
2928 31-01-2014 02:00:00 0.2 C 4.47 g/m*3 0.2 C 0 km/h
2929 31-01-2014 02:05:00 0.2 C 4.47 g/m*3 0.2 C 0 km/h
2930 31-01-2014 02:10:00 0.2 C 4.47 g/m*3 0.2 C 0 km/h
2931 31-01-2014 02:15:00 0.2 C 4.47 g/m*3 0.2 C 0 km/h
2932 31-01-2014 02:20:00 0.2 C 4.52 g/m*3 0.2 C 0 km/h
2933 31-01-2014 02:25:00 0.2 C 4.52 g/m*3 0.2 C 0 km/h
2934 31-01-2014 02:30:00 0.3 C 4.5 g/m*3 0.3 C 0 km/h
2935 31-01-2014 02:35:00 0.3 C 4.5 g/m*3 0.3 C 0 km/h
2936 31-01-2014 02:40:00 0.3 C 4.5 g/m*3 0.3 C 0 km/h
2937 31-01-2014 02:45:00 0.3 C 4.5 g/m*3 0.3 C 0 km/h
2938 31-01-2014 02:50:00 0.2 C 4.47 g/m*3 0.2 C 0 km/h
2939 31-01-2014 02:55:00 0.1 C 4.44 g/m*3 0.1 C 0 km/h
2940 31-01-2014 03:00:00 0.1 C 4.44 g/m*3 0.1 C 0 km/h
2941 31-01-2014 03:05:00 -0.1 C 4.38 g/m*3 -0.1 C 0 km/h
2942 31-01-2014 03:10:00 -0.2 C 4.35 g/m*3 -0.2 C 0 km/h
2943 31-01-2014 03:15:00 -0.2 C 4.35 g/m*3 -0.2 C 0 km/h
2944 31-01-2014 03:20:00 -0.2 C 4.35 g/m*3 -0.2 C 0 km/h
2945 31-01-2014 03:25:00 -0.1 C 4.38 g/m*3 -0.1 C 0 km/h
2946 31-01-2014 03:30:00 -0.1 C 4.43 g/m*3 -0.1 C 0 km/h
2947 31-01-2014 03:35:00 0 C 4.46 g/m*3 0 C 0 km/h
2948 31-01-2014 03:40:00 0.1 C 4.49 g/m*3 0.1 C 0 km/h
2949 31-01-2014 03:45:00 0.1 C 4.44 g/m*3 0.1 C 0 km/h
2950 31-01-2014 03:50:00 0.2 C 4.47 g/m*3 0.2 C 0 km/h
Sensor: Nr:Datum:Temp:Abs-Feuchte:Windchill:Wind:
Aussen-T/F 2951 31-01-2014 03:55:00 0.2 C 4.47 g/m*3 0.2 C 0 km/h
2952 31-01-2014 04:00:00 0.2 C 4.47 g/m*3 0.2 C 0 km/h
2953 31-01-2014 04:05:00 0.2 C 4.47 g/m*3 0.2 C 0 km/h
2954 31-01-2014 04:10:00 0.2 C 4.47 g/m*3 0.2 C 0 km/h
2955 31-01-2014 04:15:00 0.3 C 4.5 g/m*3 0.3 C 0 km/h
2956 31-01-2014 04:20:00 0.3 C 4.5 g/m*3 0.3 C 0 km/h
2957 31-01-2014 04:25:00 0.3 C 4.5 g/m*3 0.3 C 0 km/h
2958 31-01-2014 04:30:00 0.3 C 4.5 g/m*3 0.3 C 0 km/h
2959 31-01-2014 04:35:00 0.3 C 4.5 g/m*3 0.3 C 0 km/h
2960 31-01-2014 04:40:00 0.3 C 4.5 g/m*3 0.3 C 0 km/h
2961 31-01-2014 04:45:00 0.3 C 4.5 g/m*3 0.3 C 0 km/h
2962 31-01-2014 04:50:00 0.3 C 4.5 g/m*3 0.3 C 0 km/h
2963 31-01-2014 04:55:00 0.3 C 4.5 g/m*3 0.3 C 0 km/h
2964 31-01-2014 05:00:00 0.3 C 4.5 g/m*3 0.3 C 0 km/h
2965 31-01-2014 05:05:00 0.3 C 4.5 g/m*3 0.3 C 0 km/h
2966 31-01-2014 05:10:00 0.3 C 4.5 g/m*3 0.3 C 0 km/h
2967 31-01-2014 05:15:00 0.3 C 4.5 g/m*3 0.3 C 0 km/h
2968 31-01-2014 05:20:00 0.2 C 4.47 g/m*3 0.2 C 0 km/h
2969 31-01-2014 05:25:00 0.2 C 4.47 g/m*3 0.2 C 0 km/h
2970 31-01-2014 05:30:00 0.1 C 4.44 g/m*3 0.1 C 0 km/h
2971 31-01-2014 05:35:00 0 C 4.41 g/m*3 0 C 1.6 km/h
2972 31-01-2014 05:40:00 -0.1 C 4.38 g/m*3 -0.1 C 0 km/h
2973 31-01-2014 05:45:00 0 C 4.41 g/m*3 0 C 0 km/h
2974 31-01-2014 05:50:00 0 C 4.41 g/m*3 0 C 1.6 km/h
2975 31-01-2014 05:55:00 0 C 4.41 g/m*3 0 C 0 km/h
Sensor: Nr:Datum:Temp:Abs-Feuchte:Windchill:Wind:
Aussen-T/F 2976 31-01-2014 06:00:00 0.1 C 4.44 g/m*3 0.1 C 0 km/h
2977 31-01-2014 06:05:00 0 C 4.41 g/m*3 0 C 0 km/h
2978 31-01-2014 06:10:00 -0.1 C 4.38 g/m*3 -0.1 C 0 km/h
2979 31-01-2014 06:15:00 -0.1 C 4.38 g/m*3 -0.1 C 0 km/h
2980 31-01-2014 06:20:00 -0.2 C 4.35 g/m*3 -0.2 C 0 km/h
2981 31-01-2014 06:25:00 -0.3 C 4.32 g/m*3 -0.3 C 0 km/h
2982 31-01-2014 06:30:00 -0.3 C 4.37 g/m*3 -0.3 C 0 km/h
2983 31-01-2014 06:35:00 -0.4 C 4.34 g/m*3 -0.4 C 0 km/h
2984 31-01-2014 06:40:00 -0.4 C 4.34 g/m*3 -0.4 C 1.6 km/h
2985 31-01-2014 06:45:00 -0.5 C 4.35 g/m*3 -0.5 C 1.6 km/h
2986 31-01-2014 06:50:00 -0.6 C 4.28 g/m*3 -0.6 C 0 km/h
2987 31-01-2014 06:55:00 -0.6 C 4.32 g/m*3 -0.6 C 0 km/h
2988 31-01-2014 07:00:00 -0.7 C 4.29 g/m*3 -0.7 C 0 km/h
2989 31-01-2014 07:05:00 -0.8 C 4.26 g/m*3 -0.8 C 0 km/h
2990 31-01-2014 07:10:00 -0.8 C 4.26 g/m*3 -0.8 C 0 km/h
2991 31-01-2014 07:15:00 -0.8 C 4.26 g/m*3 -0.8 C 0 km/h
2992 31-01-2014 07:20:00 -0.8 C 4.26 g/m*3 -0.8 C 0 km/h
2993 31-01-2014 07:25:00 -0.9 C 4.23 g/m*3 -0.9 C 0 km/h
2994 31-01-2014 07:30:00 -1 C 4.2 g/m*3 -1 C 1.6 km/h
2995 31-01-2014 07:35:00 -1.1 C 4.17 g/m*3 -1.1 C 0 km/h
2996 31-01-2014 07:40:00 -1.1 C 4.22 g/m*3 -1.1 C 0 km/h
2997 31-01-2014 07:45:00 -1.1 C 4.17 g/m*3 -1.1 C 0 km/h
2998 31-01-2014 07:50:00 -1.1 C 4.17 g/m*3 -1.1 C 0 km/h
2999 31-01-2014 07:55:00 -1.2 C 4.19 g/m*3 -1.2 C 0 km/h
3000 31-01-2014 08:00:00 -1.2 C 4.19 g/m*3 -1.2 C 0 km/h
Sensor: Nr:Datum:Temp:Abs-Feuchte:Windchill:Wind:
Aussen-T/F 3001 31-01-2014 08:05:00 -1.2 C 4.19 g/m*3 -1.2 C 0 km/h
3002 31-01-2014 08:10:00 -1.1 C 4.22 g/m*3 -1.1 C 0 km/h
3003 31-01-2014 08:15:00 -1.2 C 4.15 g/m*3 -1.2 C 0 km/h
3004 31-01-2014 08:20:00 -1.1 C 4.17 g/m*3 -1.1 C 0 km/h
3005 31-01-2014 08:25:00 -1.1 C 4.17 g/m*3 -1.1 C 0 km/h
3006 31-01-2014 08:30:00 -1.1 C 4.17 g/m*3 -1.1 C 0 km/h
3007 31-01-2014 08:35:00 -1.1 C 4.17 g/m*3 -1.1 C 0 km/h
3008 31-01-2014 08:40:00 -1.1 C 4.17 g/m*3 -1.1 C 0 km/h
3009 31-01-2014 08:45:00 -1.2 C 4.15 g/m*3 -1.2 C 0 km/h
3010 31-01-2014 08:50:00 -1.2 C 4.15 g/m*3 -1.2 C 0 km/h
3011 31-01-2014 08:55:00 -1.2 C 4.19 g/m*3 -1.2 C 0 km/h
3012 31-01-2014 09:00:00 -1.2 C 4.19 g/m*3 -1.2 C 0 km/h
3013 31-01-2014 09:05:00 -1.1 C 4.22 g/m*3 -1.1 C 0 km/h
3014 31-01-2014 09:10:00 -1.1 C 4.22 g/m*3 -1.1 C 0 km/h
3015 31-01-2014 09:15:00 -1.1 C 4.22 g/m*3 -1.1 C 0 km/h
3016 31-01-2014 09:20:00 -1.1 C 4.22 g/m*3 -1.1 C 0 km/h
3017 31-01-2014 09:25:00 -1.1 C 4.22 g/m*3 -1.1 C 0 km/h
3018 31-01-2014 09:30:00 -1.1 C 4.22 g/m*3 -1.1 C 0 km/h
3019 31-01-2014 09:35:00 -1.1 C 4.22 g/m*3 -1.1 C 0 km/h
3020 31-01-2014 09:40:00 -1.1 C 4.22 g/m*3 -1.1 C 0 km/h
3021 31-01-2014 09:45:00 -1 C 4.25 g/m*3 -1 C 0 km/h
3022 31-01-2014 09:50:00 -0.9 C 4.28 g/m*3 -0.9 C 0 km/h
3023 31-01-2014 09:55:00 -0.9 C 4.32 g/m*3 -0.9 C 0 km/h
3024 31-01-2014 10:00:00 -0.8 C 4.31 g/m*3 -0.8 C 0 km/h
3025 31-01-2014 10:05:00 -0.8 C 4.31 g/m*3 -0.8 C 0 km/h
Sensor: Nr:Datum:Temp:Abs-Feuchte:Windchill:Wind:
Aussen-T/F 3026 31-01-2014 10:10:00 -0.7 C 4.39 g/m*3 -0.7 C 0 km/h
3027 31-01-2014 10:15:00 -0.7 C 4.34 g/m*3 -0.7 C 0 km/h
3028 31-01-2014 10:20:00 -0.6 C 4.42 g/m*3 -0.6 C 0 km/h
3029 31-01-2014 10:25:00 -0.6 C 4.37 g/m*3 -0.6 C 0 km/h
3030 31-01-2014 10:30:00 -0.4 C 4.43 g/m*3 -0.4 C 0 km/h
3031 31-01-2014 10:35:00 -0.4 C 4.43 g/m*3 -0.4 C 0 km/h
3032 31-01-2014 10:40:00 -0.3 C 4.46 g/m*3 -0.3 C 0 km/h
3033 31-01-2014 10:45:00 -0.3 C 4.46 g/m*3 -0.3 C 0 km/h
3034 31-01-2014 10:50:00 -0.2 C 4.49 g/m*3 -0.2 C 0 km/h
3035 31-01-2014 10:55:00 -0.2 C 4.49 g/m*3 -0.2 C 0 km/h
3036 31-01-2014 11:00:00 -0.1 C 4.52 g/m*3 -0.1 C 0 km/h
3037 31-01-2014 11:05:00 0 C 4.55 g/m*3 0 C 0 km/h
3038 31-01-2014 11:10:00 0.1 C 4.59 g/m*3 0.1 C 0 km/h
3039 31-01-2014 11:15:00 0.1 C 4.59 g/m*3 0.1 C 0 km/h
3040 31-01-2014 11:20:00 0.2 C 4.62 g/m*3 0.2 C 0 km/h
3041 31-01-2014 11:25:00 0.3 C 4.65 g/m*3 0.3 C 1.6 km/h
3042 31-01-2014 11:30:00 0.3 C 4.65 g/m*3 0.3 C 1.6 km/h
3043 31-01-2014 11:35:00 0.4 C 4.68 g/m*3 0.4 C 3.2 km/h
3044 31-01-2014 11:40:00 0.6 C 4.75 g/m*3 0.6 C 3.2 km/h
3045 31-01-2014 11:45:00 0.7 C 4.73 g/m*3 0.7 C 1.6 km/h
3046 31-01-2014 11:50:00 0.8 C 4.76 g/m*3 0.8 C 1.6 km/h
3047 31-01-2014 11:55:00 0.8 C 4.76 g/m*3 0.8 C 1.6 km/h
3048 31-01-2014 12:00:00 0.9 C 4.79 g/m*3 0.9 C 1.6 km/h
3049 31-01-2014 12:05:00 1 C 4.83 g/m*3 1 C 1.6 km/h
3050 31-01-2014 12:10:00 1.1 C 4.81 g/m*3 1.1 C 3.2 km/h
Sensor: Nr:Datum:Temp:Abs-Feuchte:Windchill:Wind:
Aussen-T/F 3051 31-01-2014 12:15:00 1.2 C 4.84 g/m*3 1.2 C 1.6 km/h
3052 31-01-2014 12:20:00 1.3 C 4.87 g/m*3 1.3 C 3.2 km/h
3053 31-01-2014 12:25:00 1.3 C 4.87 g/m*3 1.3 C 3.2 km/h
3054 31-01-2014 12:30:00 1.4 C 4.91 g/m*3 1.4 C 1.6 km/h
3055 31-01-2014 12:35:00 1.5 C 4.89 g/m*3 1.5 C 1.6 km/h
3056 31-01-2014 12:40:00 1.6 C 4.97 g/m*3 1.6 C 1.6 km/h
3057 31-01-2014 12:45:00 1.6 C 4.92 g/m*3 1.6 C 0 km/h
3058 31-01-2014 12:50:00 1.7 C 4.95 g/m*3 1.7 C 0 km/h
3059 31-01-2014 12:55:00 1.7 C 4.95 g/m*3 1.7 C 0 km/h
3060 31-01-2014 13:00:00 1.8 C 4.93 g/m*3 1.8 C 1.6 km/h
3061 31-01-2014 13:05:00 1.9 C 4.97 g/m*3 1.9 C 0 km/h
3062 31-01-2014 13:10:00 1.9 C 4.97 g/m*3 1.9 C 0 km/h
3063 31-01-2014 13:15:00 1.9 C 4.97 g/m*3 1.9 C 3.2 km/h
3064 31-01-2014 13:20:00 2.1 C 5.09 g/m*3 2.1 C 1.6 km/h
3065 31-01-2014 13:25:00 2.1 C 5.04 g/m*3 2.1 C 0 km/h
3066 31-01-2014 13:30:00 2.2 C 5.07 g/m*3 2.2 C 3.2 km/h
3067 31-01-2014 13:35:00 2.2 C 5.07 g/m*3 2.2 C 3.2 km/h
3068 31-01-2014 13:40:00 2.3 C 5.1 g/m*3 2.3 C 3.2 km/h
3069 31-01-2014 13:45:00 2.4 C 5.14 g/m*3 2.4 C 1.6 km/h
3070 31-01-2014 13:50:00 2.5 C 5.17 g/m*3 2.5 C 3.2 km/h
3071 31-01-2014 13:55:00 2.6 C 5.21 g/m*3 2.6 C 1.6 km/h
3072 31-01-2014 14:00:00 2.6 C 5.21 g/m*3 2.6 C 3.2 km/h
3073 31-01-2014 14:05:00 2.6 C 5.21 g/m*3 2.6 C 3.2 km/h
3074 31-01-2014 14:10:00 2.7 C 5.19 g/m*3 2.7 C 1.6 km/h
3075 31-01-2014 14:15:00 2.7 C 5.24 g/m*3 2.7 C 1.6 km/h
Sensor: Nr:Datum:Temp:Abs-Feuchte:Windchill:Wind:
Aussen-T/F 3076 31-01-2014 14:20:00 2.8 C 5.28 g/m*3 2.8 C 1.6 km/h
3077 31-01-2014 14:25:00 2.8 C 5.28 g/m*3 2.8 C 3.2 km/h
3078 31-01-2014 14:30:00 2.9 C 5.26 g/m*3 2.9 C 4.8 km/h
3079 31-01-2014 14:35:00 3 C 5.29 g/m*3 3 C 3.2 km/h
3080 31-01-2014 14:40:00 3.2 C 5.36 g/m*3 3.2 C 1.6 km/h
3081 31-01-2014 14:45:00 3.2 C 5.36 g/m*3 3.2 C 1.6 km/h
3082 31-01-2014 14:50:00 3.2 C 5.36 g/m*3 3.2 C 3.2 km/h
3083 31-01-2014 14:55:00 3.3 C 5.4 g/m*3 3.3 C 1.6 km/h
3084 31-01-2014 15:00:00 3.4 C 5.37 g/m*3 3.4 C 1.6 km/h
3085 31-01-2014 15:05:00 3.4 C 5.37 g/m*3 3.4 C 1.6 km/h
3086 31-01-2014 15:10:00 3.6 C 5.45 g/m*3 3.6 C 1.6 km/h
3087 31-01-2014 15:15:00 3.6 C 5.45 g/m*3 3.6 C 1.6 km/h
3088 31-01-2014 15:20:00 3.6 C 5.45 g/m*3 3.6 C 1.6 km/h
3089 31-01-2014 15:25:00 3.6 C 5.45 g/m*3 3.6 C 3.2 km/h
3090 31-01-2014 15:30:00 3.7 C 5.48 g/m*3 3.7 C 3.2 km/h
3091 31-01-2014 15:35:00 3.8 C 5.52 g/m*3 3.8 C 4.8 km/h
3092 31-01-2014 15:40:00 3.8 C 5.46 g/m*3 3.8 C 3.2 km/h
3093 31-01-2014 15:45:00 3.8 C 5.46 g/m*3 3.8 C 4.8 km/h
3094 31-01-2014 15:50:00 3.8 C 5.46 g/m*3 3.8 C 3.2 km/h
3095 31-01-2014 15:55:00 3.8 C 5.52 g/m*3 3.8 C 3.2 km/h
3096 31-01-2014 16:00:00 3.9 C 5.43 g/m*3 1.82 C 8.1 km/h
3097 31-01-2014 16:05:00 4.1 C 5.5 g/m*3 4.1 C 3.2 km/h
3098 31-01-2014 16:10:00 4.2 C 5.48 g/m*3 4.2 C 3.2 km/h
3099 31-01-2014 16:15:00 4.3 C 5.51 g/m*3 4.3 C 4.8 km/h
3100 31-01-2014 16:20:00 4.2 C 5.48 g/m*3 4.2 C 3.2 km/h
Sensor: Nr:Datum:Temp:Abs-Feuchte:Windchill:Wind:
Aussen-T/F 3101 31-01-2014 16:25:00 4.1 C 5.44 g/m*3 4.1 C 4.8 km/h
3102 31-01-2014 16:30:00 4 C 5.4 g/m*3 4 C 4.8 km/h
3103 31-01-2014 16:35:00 4.1 C 5.44 g/m*3 4.1 C 3.2 km/h
3104 31-01-2014 16:40:00 3.9 C 5.37 g/m*3 2.32 C 6.4 km/h
3105 31-01-2014 16:45:00 3.7 C 5.36 g/m*3 3.7 C 3.2 km/h
3106 31-01-2014 16:50:00 3.6 C 5.39 g/m*3 3.6 C 3.2 km/h
3107 31-01-2014 16:55:00 3.4 C 5.31 g/m*3 3.4 C 3.2 km/h
3108 31-01-2014 17:00:00 3.4 C 5.31 g/m*3 1.75 C 6.4 km/h
3109 31-01-2014 17:05:00 3.3 C 5.28 g/m*3 1.11 C 8.1 km/h
3110 31-01-2014 17:10:00 3.4 C 5.25 g/m*3 3.4 C 4.8 km/h
3111 31-01-2014 17:15:00 3.7 C 5.3 g/m*3 2.09 C 6.4 km/h
3112 31-01-2014 17:20:00 3.6 C 5.26 g/m*3 1.46 C 8.1 km/h
3113 31-01-2014 17:25:00 3.7 C 5.23 g/m*3 1.58 C 8.1 km/h
3114 31-01-2014 17:30:00 3.6 C 5.2 g/m*3 3.6 C 3.2 km/h
3115 31-01-2014 17:35:00 3.3 C 5.16 g/m*3 3.3 C 1.6 km/h
3116 31-01-2014 17:40:00 3.1 C 5.15 g/m*3 3.1 C 3.2 km/h
3117 31-01-2014 17:45:00 2.9 C 5.14 g/m*3 2.9 C 4.8 km/h
3118 31-01-2014 17:50:00 2.9 C 5.14 g/m*3 2.9 C 1.6 km/h
3119 31-01-2014 17:55:00 2.7 C 5.07 g/m*3 2.7 C 3.2 km/h
3120 31-01-2014 18:00:00 2.4 C 5.02 g/m*3 2.4 C 3.2 km/h
3121 31-01-2014 18:05:00 2.3 C 5.05 g/m*3 2.3 C 3.2 km/h
3122 31-01-2014 18:10:00 2.2 C 5.07 g/m*3 2.2 C 1.6 km/h
3123 31-01-2014 18:15:00 2.1 C 5.04 g/m*3 2.1 C 3.2 km/h
3124 31-01-2014 18:20:00 2 C 5 g/m*3 2 C 3.2 km/h
3125 31-01-2014 18:25:00 1.9 C 4.97 g/m*3 1.9 C 3.2 km/h
Sensor: Nr:Datum:Temp:Abs-Feuchte:Windchill:Wind:
Aussen-T/F 3126 31-01-2014 18:30:00 1.8 C 4.93 g/m*3 1.8 C 3.2 km/h
3127 31-01-2014 18:35:00 1.8 C 4.99 g/m*3 1.8 C 4.8 km/h
3128 31-01-2014 18:40:00 1.8 C 4.93 g/m*3 1.8 C 3.2 km/h
3129 31-01-2014 18:45:00 1.8 C 4.99 g/m*3 1.8 C 4.8 km/h
3130 31-01-2014 18:50:00 1.7 C 4.95 g/m*3 1.7 C 3.2 km/h
3131 31-01-2014 18:55:00 1.7 C 4.95 g/m*3 1.7 C 3.2 km/h
3132 31-01-2014 19:00:00 1.7 C 4.95 g/m*3 1.7 C 3.2 km/h
3133 31-01-2014 19:05:00 1.7 C 4.95 g/m*3 1.7 C 3.2 km/h
3134 31-01-2014 19:10:00 1.6 C 4.92 g/m*3 1.6 C 1.6 km/h
3135 31-01-2014 19:15:00 1.6 C 4.97 g/m*3 1.6 C 3.2 km/h
3136 31-01-2014 19:20:00 1.4 C 4.85 g/m*3 1.4 C 1.6 km/h
3137 31-01-2014 19:25:00 1.3 C 4.87 g/m*3 1.3 C 3.2 km/h
3138 31-01-2014 19:30:00 1.3 C 4.87 g/m*3 1.3 C 3.2 km/h
3139 31-01-2014 19:35:00 1.3 C 4.87 g/m*3 1.3 C 3.2 km/h
3140 31-01-2014 19:40:00 1.2 C 4.84 g/m*3 1.2 C 4.8 km/h
3141 31-01-2014 19:45:00 1.2 C 4.89 g/m*3 1.2 C 3.2 km/h
3142 31-01-2014 19:50:00 1.2 C 4.89 g/m*3 1.2 C 3.2 km/h
3143 31-01-2014 19:55:00 1.2 C 4.89 g/m*3 1.2 C 1.6 km/h
3144 31-01-2014 20:00:00 1.1 C 4.86 g/m*3 1.1 C 1.6 km/h
3145 31-01-2014 20:05:00 1.1 C 4.86 g/m*3 1.1 C 3.2 km/h
3146 31-01-2014 20:10:00 1.1 C 4.86 g/m*3 1.1 C 3.2 km/h
3147 31-01-2014 20:15:00 1.2 C 4.89 g/m*3 1.2 C 3.2 km/h
3148 31-01-2014 20:20:00 1.3 C 4.93 g/m*3 1.3 C 1.6 km/h
3149 31-01-2014 20:25:00 1.4 C 4.96 g/m*3 1.4 C 4.8 km/h
3150 31-01-2014 20:30:00 1.6 C 5.03 g/m*3 1.6 C 3.2 km/h
Sensor: Nr:Datum:Temp:Abs-Feuchte:Windchill:Wind:
Aussen-T/F 3151 31-01-2014 20:35:00 1.9 C 5.13 g/m*3 -0.54 C 8.1 km/h
3152 31-01-2014 20:40:00 2.2 C 5.18 g/m*3 2.2 C 4.8 km/h
3153 31-01-2014 20:45:00 2.2 C 5.13 g/m*3 -0.18 C 8.1 km/h
3154 31-01-2014 20:50:00 2.3 C 5.1 g/m*3 2.3 C 4.8 km/h
3155 31-01-2014 20:55:00 2.3 C 5.1 g/m*3 2.3 C 4.8 km/h
3156 31-01-2014 21:00:00 2.3 C 5.1 g/m*3 -0.07 C 8.1 km/h
3157 31-01-2014 21:05:00 2.5 C 5.17 g/m*3 2.5 C 4.8 km/h
3158 31-01-2014 21:10:00 2.8 C 5.22 g/m*3 0.52 C 8.1 km/h
3159 31-01-2014 21:15:00 2.9 C 5.2 g/m*3 -0.14 C 11.3 km/h
3160 31-01-2014 21:20:00 3 C 5.17 g/m*3 -0.34 C 12.9 km/h
3161 31-01-2014 21:25:00 3.1 C 5.21 g/m*3 -0.22 C 12.9 km/h
3162 31-01-2014 21:30:00 3 C 5.17 g/m*3 0.76 C 8.1 km/h
3163 31-01-2014 21:35:00 2.8 C 5.1 g/m*3 2.8 C 3.2 km/h
3164 31-01-2014 21:40:00 2.7 C 5.13 g/m*3 2.7 C 4.8 km/h
3165 31-01-2014 21:45:00 2.4 C 5.02 g/m*3 2.4 C 0 km/h
3166 31-01-2014 21:50:00 2.2 C 5.01 g/m*3 2.2 C 3.2 km/h
3167 31-01-2014 21:55:00 1.9 C 4.97 g/m*3 1.9 C 3.2 km/h
3168 31-01-2014 22:00:00 1.8 C 4.99 g/m*3 1.8 C 3.2 km/h
3169 31-01-2014 22:05:00 1.7 C 4.95 g/m*3 1.7 C 3.2 km/h
3170 31-01-2014 22:10:00 1.7 C 4.95 g/m*3 1.7 C 3.2 km/h
3171 31-01-2014 22:15:00 1.7 C 4.95 g/m*3 1.7 C 3.2 km/h
3172 31-01-2014 22:20:00 1.6 C 4.92 g/m*3 1.6 C 1.6 km/h
3173 31-01-2014 22:25:00 1.4 C 4.85 g/m*3 1.4 C 3.2 km/h
3174 31-01-2014 22:30:00 1.3 C 4.87 g/m*3 1.3 C 1.6 km/h
3175 31-01-2014 22:35:00 1.3 C 4.87 g/m*3 1.3 C 3.2 km/h
Sensor: Nr:Datum:Temp:Abs-Feuchte:Windchill:Wind:
Aussen-T/F 3176 31-01-2014 22:40:00 1.2 C 4.84 g/m*3 1.2 C 1.6 km/h
3177 31-01-2014 22:45:00 1.2 C 4.84 g/m*3 1.2 C 3.2 km/h
3178 31-01-2014 22:50:00 1.1 C 4.81 g/m*3 1.1 C 3.2 km/h
3179 31-01-2014 22:55:00 1.1 C 4.86 g/m*3 1.1 C 1.6 km/h
3180 31-01-2014 23:00:00 1 C 4.83 g/m*3 1 C 1.6 km/h
3181 31-01-2014 23:05:00 0.9 C 4.79 g/m*3 0.9 C 1.6 km/h
3182 31-01-2014 23:10:00 1 C 4.83 g/m*3 1 C 3.2 km/h
3183 31-01-2014 23:15:00 1 C 4.83 g/m*3 1 C 3.2 km/h
3184 31-01-2014 23:20:00 1 C 4.83 g/m*3 1 C 1.6 km/h
3185 31-01-2014 23:25:00 1 C 4.83 g/m*3 1 C 1.6 km/h
3186 31-01-2014 23:30:00 0.9 C 4.79 g/m*3 0.9 C 1.6 km/h
3187 31-01-2014 23:35:00 0.9 C 4.79 g/m*3 0.9 C 0 km/h
3188 31-01-2014 23:40:00 0.9 C 4.85 g/m*3 0.9 C 0 km/h
3189 31-01-2014 23:45:00 0.8 C 4.81 g/m*3 0.8 C 1.6 km/h
3190 31-01-2014 23:50:00 0.8 C 4.81 g/m*3 0.8 C 1.6 km/h
3191 31-01-2014 23:55:00 1 C 4.88 g/m*3 1 C 1.6 km/h
3192 01-02-2014 00:00:00 0.9 C 4.85 g/m*3 0.9 C 1.6 km/h
3193 01-02-2014 00:05:00 0.9 C 4.85 g/m*3 0.9 C 0 km/h
3194 01-02-2014 00:10:00 1 C 4.88 g/m*3 1 C 1.6 km/h
3195 01-02-2014 00:15:00 1 C 4.83 g/m*3 1 C 0 km/h
3196 01-02-2014 00:20:00 0.9 C 4.79 g/m*3 0.9 C 0 km/h
3197 01-02-2014 00:25:00 0.9 C 4.85 g/m*3 0.9 C 1.6 km/h
3198 01-02-2014 00:30:00 1 C 4.88 g/m*3 1 C 0 km/h
3199 01-02-2014 00:35:00 1.1 C 4.91 g/m*3 1.1 C 1.6 km/h
3200 01-02-2014 00:40:00 1.2 C 4.95 g/m*3 1.2 C 3.2 km/h
Sensor: Nr:Datum:Temp:Abs-Feuchte:Windchill:Wind:
Aussen-T/F 3201 01-02-2014 00:45:00 1.2 C 4.95 g/m*3 1.2 C 0 km/h
3202 01-02-2014 00:50:00 1.3 C 4.98 g/m*3 1.3 C 1.6 km/h
3203 01-02-2014 00:55:00 1.4 C 5.01 g/m*3 1.4 C 0 km/h
3204 01-02-2014 01:00:00 1.4 C 5.01 g/m*3 1.4 C 1.6 km/h
3205 01-02-2014 01:05:00 1.3 C 4.98 g/m*3 1.3 C 1.6 km/h
3206 01-02-2014 01:10:00 1.3 C 4.98 g/m*3 1.3 C 1.6 km/h
3207 01-02-2014 01:15:00 1.3 C 4.98 g/m*3 1.3 C 0 km/h
3208 01-02-2014 01:20:00 1.4 C 5.01 g/m*3 1.4 C 3.2 km/h
3209 01-02-2014 01:25:00 1.4 C 4.96 g/m*3 1.4 C 0 km/h
3210 01-02-2014 01:30:00 1.3 C 4.98 g/m*3 1.3 C 1.6 km/h
3211 01-02-2014 01:35:00 1.3 C 4.98 g/m*3 1.3 C 1.6 km/h
3212 01-02-2014 01:40:00 1.2 C 4.95 g/m*3 1.2 C 1.6 km/h
3213 01-02-2014 01:45:00 1.2 C 4.95 g/m*3 1.2 C 0 km/h
3214 01-02-2014 01:50:00 1.2 C 4.95 g/m*3 1.2 C 1.6 km/h
3215 01-02-2014 01:55:00 1.2 C 4.95 g/m*3 1.2 C 3.2 km/h
3216 01-02-2014 02:00:00 1.3 C 4.98 g/m*3 1.3 C 3.2 km/h
3217 01-02-2014 02:05:00 1.5 C 5.05 g/m*3 1.5 C 4.8 km/h
3218 01-02-2014 02:10:00 1.6 C 5.03 g/m*3 1.6 C 1.6 km/h
3219 01-02-2014 02:15:00 1.7 C 5.06 g/m*3 1.7 C 3.2 km/h
3220 01-02-2014 02:20:00 1.9 C 5.13 g/m*3 -0.97 C 9.7 km/h
3221 01-02-2014 02:25:00 2.2 C 5.18 g/m*3 0.36 C 6.4 km/h
3222 01-02-2014 02:30:00 2.2 C 5.13 g/m*3 2.2 C 1.6 km/h
3223 01-02-2014 02:35:00 2.1 C 5.09 g/m*3 2.1 C 1.6 km/h
3224 01-02-2014 02:40:00 1.9 C 5.02 g/m*3 1.9 C 1.6 km/h
3225 01-02-2014 02:45:00 2 C 5.11 g/m*3 2 C 3.2 km/h
Sensor: Nr:Datum:Temp:Abs-Feuchte:Windchill:Wind:
Aussen-T/F 3226 01-02-2014 02:50:00 2.1 C 5.15 g/m*3 2.1 C 1.6 km/h
3227 01-02-2014 02:55:00 2.3 C 5.16 g/m*3 2.3 C 4.8 km/h
3228 01-02-2014 03:00:00 2.4 C 5.2 g/m*3 2.4 C 4.8 km/h
3229 01-02-2014 03:05:00 2.4 C 5.14 g/m*3 2.4 C 1.6 km/h
3230 01-02-2014 03:10:00 2.4 C 5.14 g/m*3 2.4 C 0 km/h
3231 01-02-2014 03:15:00 2.3 C 5.16 g/m*3 2.3 C 0 km/h
3232 01-02-2014 03:20:00 2.2 C 5.13 g/m*3 2.2 C 1.6 km/h
3233 01-02-2014 03:25:00 2.2 C 5.13 g/m*3 2.2 C 4.8 km/h
3234 01-02-2014 03:30:00 2.1 C 5.09 g/m*3 2.1 C 3.2 km/h
3235 01-02-2014 03:35:00 2.1 C 5.15 g/m*3 2.1 C 4.8 km/h
3236 01-02-2014 03:40:00 2.1 C 5.15 g/m*3 2.1 C 3.2 km/h
3237